Resultado Maratona Masculino 2015



Data da postagem: 26/02/2016
            
Col.,Nr.,Nome,Id.,FxEt.,Col.FxEt,T.Liquido,Cat.,Equipe
1,24,WILLYKANGOGOKIMUTAI,35,M3539,-,2:14:55,E,LUASASPORTSCAIXA
2,2,LEMAWORKKETEMA,30,M3034,-,2:14:57,E,AUSDAUERCOACH.AT
3,28,EDSONAMARO,31,M3034,-,2:16:51,E,CRUZEIROESPORTECLUBE
4,17,GIOMARPEREIRADASILVA,43,M4044,-,2:18:50,E,APPAI-RJ
5,9,ELIEZESDEJESUSSANTOS,41,M4044,-,2:22:03,E,FILE&MARCIANARLOCH
6,4,LUIZPAULODASILVAANTUNES,35,M3539,-,2:22:50,E,CRUZEIROESPORTECLUBE
7,20,FREDISONCARNEIROCOSTA,38,M3539,-,2:24:52,E,
8,14,JOSEGUTEMBERGUEFERREIRA,40,M4044,-,2:25:56,E,PÉDEVENTO
9,21,DAVIDKIPROTICHBOWEN,29,M2529,-,2:26:07,E,LUASASPORTSCAIXA
10,5,JOÃOMARCOSFONSECA,36,M3539,-,2:26:12,E,CRUZEIROESPORTECLUBE
11,23,WILLIAMSALGADOGOMES,36,M3539,-,2:28:36,E,LUASASPORTSCAIXA
12,22,SIVALDOSANTOSVIANA,37,M3539,-,2:28:39,E,LUASASPORTSCAIXA
13,19,PAULOROGÉRIOBRAGAGONÇALVES,37,M3539,-,2:28:53,E,APPAI-RJ
14,10,FABIORAMOSDOSSANTOS,30,M3034,-,2:29:41,E,CAIEIRAS/CORPORE/AFS
15,7,VANILSONNEVES,27,M2529,-,2:32:26,E,SUBELITE
16,4617,ARYCARLOSDIASDOSSANTOS,38,M3539,-,2:32:51,DVI,ONGFORÇANO
17,6,CARLOSMATOSLOPES,46,M4549,-,2:33:51,E,MARINHADOBRASIL-CEFAN
18,7110,MANOELRAIMUNDODASILVA,36,M3539,1,2:36:08,,MARCADORESDERITMO
19,4835,RENILTOBATISTADOSSANTOS,45,M4549,1,2:36:39,,
20,3200,MANUELOLIVEIRA,45,M4549,2,2:39:54,,manoelcorredor
21,701,ARISTIDESJOSEBASTOSDECASTRO,36,M3539,2,2:40:07,,A.A.PernalongaSantosDumontMG
22,6509,RODRIGOLOBO,32,M3034,1,2:43:32,,LOBOASSESSORIA
23,854,ANTONIOCARLOSALVES,50,M5054,1,2:44:35,,BHRACE
24,4613,LUIZRISPIDESOUZA,48,M4549,-,2:45:11,DI,Ventodoespírito
25,6319,CESARHENRIQUEDALQUANO,36,M3539,3,2:46:49,,FiladelfiaViagens-CesarDalquano
26,3361,DIONISIOSANTOSDEJESUS,43,M4044,1,2:47:23,,AD3ESPORTES
27,6405,RAFAELFRANZONIMAIORAL,27,M2529,1,2:48:24,,JUIZDEFORA
28,705,RENILDOSANTANAVARGES,34,M3034,2,2:48:48,,AECO/RM7
29,6806,JOSEPINHEIRO,46,M4549,3,2:49:07,,STREETRUNENRS
30,6075,RICARDOGOMESDEOLIVEIRA,33,M3034,3,2:49:23,,DEFAVERIRUNNERS
31,6430,ROBERTOSILVEIRASANTOS,25,M2529,2,2:49:34,,AVULSO
32,1125,TIAGODOSSANTOSFERNANDES,32,M3034,4,2:49:57,,ZEZINHOMATERIAISPARACONSTUÇÃO
33,5359,JOSEGERALDODESOUZA,49,M4549,4,2:50:48,,
34,108,FERNANDOBESERRADASILVA,33,M3034,5,2:51:15,,LOGA
35,4110,PAULWEBB,42,M4044,2,2:51:42,,WORLDWIDECANCERRESEARCH
36,6853,TALESCAMARGOGALBIER,35,M3539,4,2:51:58,,MASTERFIT
37,3223,ALEXANDRERIBEIRODOSSANTOS,40,M4044,3,2:52:22,,ZEZINHOMATERIAISPARACONSTRUÇÃO
38,708,MARCOSFERREIRAMELLO,48,M4549,5,2:52:32,,CEPE-Petrobras
39,3180,SHINJIROSUMI,36,M3539,5,2:53:03,,
40,3105,VALDECIDASILVASOUZA,39,M3539,6,2:53:38,,AD3ESPORTES
41,740,RODRIGOTEIXEIRADASILVA,38,M3539,7,2:53:47,,MarceloDonnaEquipe
42,5947,CARLOSSILVA,41,M4044,4,2:53:55,,CHÃODOATERRO
43,5061,DANIELMARTINSDESANTANA,35,M3539,8,2:54:11,,Self.run
44,3933,JOSEERIBERTOALVES,37,M3539,9,2:54:17,,STIRUNNER
45,224,CRISTIANOPINHEIROMULLER,37,M3539,10,2:54:25,,ONEFIT
46,4601,CARLEILTONFREIREDOSSANTOS,44,M4044,-,2:54:49,DAU,ONGFORÇANO
47,5540,JOÃOPAULOLEITE,35,M3539,11,2:54:58,,RAFAELPERALVA
48,4616,ANTONIODEOLIVEIRAHONORIO,48,M4549,-,2:56:01,DVI,SERGIOSPORTS-AM
49,3226,SERGIONAZARENODASILVACRUZ,46,M4549,6,2:56:01,,SERGIOSPORTS-AM
50,7224,JUSSANDROTELESVIEIRA,33,M3034,6,2:56:48,,Rocinha
51,3104,LUISCLAUDIORIBEIRODOSSANTOS,37,M3539,12,2:57:07,,
52,6551,MANUELLAGO,39,M3539,13,2:57:36,,MLMIXRUN
53,4473,DIOGOFIOCHIDEARAUJO,33,M3034,7,2:57:45,,
54,2206,KRISTHIANLOPES,23,M2024,1,2:57:50,,
55,4946,HADRIENROYAL,31,M3034,8,2:58:09,,
56,5502,HARILSONDESOUSABARROS,38,M3539,14,2:58:44,,CORDF
57,4513,ALESSANDROGUZMÁN,37,M3539,15,2:59:02,,N.E.ALESSANDROGUZMÁN
58,3209,LAERCIODAROCHA,53,M5054,2,2:59:06,,MaxRunBrasil
59,7112,GERALDOANTONIODASILVA,55,M5559,1,2:59:27,,MARCADORESDERITMO
60,4506,FRANCISCOCARLOSMARINHOCASTRO,59,M5559,2,2:59:34,,
61,777,SEBASTIAOAFONSOMIRANDA,56,M5559,3,2:59:51,,PernalongaSantosDumont
62,3273,BRUNODEAZEVEDOVIANNA,34,M3034,9,3:00:05,,EZKTEAM
63,7122,CARLOSEDUARDOC.CORRÊA,36,M3539,16,3:00:06,,
64,312,CARLOSMAXDASILVAWERNECK,41,M4044,5,3:00:22,,MaxRunBrasil
65,4988,ROBERTOGHUSSN,37,M3539,17,3:00:28,,PULSARPILATES
66,6449,FELIPEDAYRELLSILVESTRE,37,M3539,18,3:00:59,,HFTREINAMENTOESPORTIVO
67,6731,CARLOSALBERTODAFONSECAGOMES,31,M3034,10,3:01:03,,JUIZDEFORA
68,6547,FLAVIOGAVAOCARINO,33,M3034,11,3:01:07,,MLMIXRUN
69,4623,JOSÉBONIFÁCIOSOARESFILHO,44,M4044,-,3:01:40,DVI,Fetim-BA
70,1344,THIAGOROSADECAMPOS,29,M2529,3,3:02:21,,
71,4407,THIAGOALVESTIMOTEO,34,M3034,12,3:02:28,,ACRU-ASSOCIAÇÃODOSCORREDORESDERUADEUBERABA
72,322,ALEXANDREHAIKALMOREIRA,35,M3539,19,3:02:38,,MARCELODONNA/CAFEBAMBOO
73,318,FABIANODEOLIVEIRASOARES,36,M3539,20,3:02:42,,SOUTRI
74,171,FABIANMELOBAREA,46,M4549,7,3:02:54,,sanjuan
75,3675,SANTIAGOGARCIA,45,M4549,8,3:02:54,,CorrerAyuda
76,317,JOSEDEARAUJO,55,M5559,4,3:03:10,,
77,1886,ALEXALVESCALDAS,35,M3539,21,3:03:21,,KAYMBRASDOCERRADODF
78,2077,CARLINDOSOUZADIASDOSSANTOS,57,M5559,5,3:03:33,,
79,751,MOACYRSALAZARPESSOAFILHO,51,M5054,3,3:03:43,,CORDF
80,3471,ERNESTOSILVA,36,M3539,22,3:03:53,,AlMáximo
81,339,RONALDOMOTTA,36,M3539,23,3:03:53,,ThyssenkruppCSA
82,5202,VICTORBARTHOLIGIARDINOMOURA,25,M2529,4,3:03:54,,agiglioli
83,6594,FABIOMOREIRACORREA,44,M4044,6,3:04:00,,NEWRUNNERSTEAM
84,4059,MARCIOMIGUEZDAROCHALEÃO,47,M4549,9,3:04:12,,
85,1241,JEFFSONDIASSANTOS,27,M2529,5,3:04:14,,
86,3693,JAMESEDWARDFULTON,33,M3034,13,3:04:15,,none
87,3518,SEBASTIAOVILABOIMVARGAS,62,M6064,1,3:04:29,,PÉNOCHÃO
88,159,MAJOYSLEISOUZA,39,M3539,24,3:04:52,,ADRIANOBASTOSASSESSORIAESPORTIVA
89,4273,EDENILSONROCHAFREITAS,39,M3539,25,3:04:52,,BHRACE
90,1686,ADILSONLOPESALVARENGA,45,M4549,10,3:05:09,,SPACERUNNERS-VARGINHA
91,6619,CLAUDIOTEIXEIRA,28,M2529,6,3:05:12,,PONTOCORRIDO
92,3335,THIAGOVILELA,32,M3034,14,3:05:29,,ESPAÇORUNNING
93,3694,MATTHIASKNOPPIK,48,M4549,11,3:05:34,,MunichgoesBrasil
94,3427,EDERSONNUNESSILVA,41,M4044,7,3:05:54,,Studiocorpore
95,4611,ANTÔNIOCAIRESANJOS,38,M3539,-,3:05:57,DI,ONGFORÇANO
96,4822,LUIZCARLOSRAMALHO,45,M4549,12,3:06:22,,LIBRATERMINAIS-SANTOS
97,6148,RALPHPORTO,47,M4549,13,3:06:57,,EquipeCE+3
98,726,ALDAIRCORREADASILVA,35,M3539,26,3:06:57,,AMIGOSDOARRUDAS
99,1673,GuilhermeIsoCohen,38,M3539,27,3:07:09,,
100,4626,CARLOSALVESDONASCIMENTO,49,M4549,-,3:07:12,LES,ONGFORÇANO
101,3368,WEVERSONLOPES,30,M3034,15,3:07:13,,SAÚDEPERFORMANCE
102,5541,MARCELOVERDEROCEVIEIRA,43,M4044,8,3:07:20,,BPM-ASSESSORIAESPORTIVA
103,4167,WANDERTHIAGODEOLIVEIRA,31,M3034,16,3:07:32,,BHRACE
104,5900,BRUNOXAVIERDELIMA,35,M3539,28,3:07:33,,BR2AssessoriaEsportiva
105,1276,JORGELUISDACOSTA,47,M4549,14,3:07:45,,VITAESPORTES
106,3580,MARCELOOLIVEIRA,44,M4044,9,3:08:23,,CAIEIRAS
107,5552,HUMBERTONICANORRIOSJUNIOR,33,M3034,17,3:08:39,,assessoriaesportivarafaelperalva
108,3369,WIVERSONLOPES,30,M3034,18,3:08:43,,SAÚDEPERFORMANCE
109,3554,NEALGIBSON,40,M4044,10,3:08:45,,GiffnockNorthAAC
110,7153,VICENTSOBRINHO,50,M5054,4,3:08:48,,
111,2839,HENRIQUEDIDONE,31,M3034,19,3:08:53,,VitaEsporte
112,1314,GEORGEMERCESDOSSANTOS,36,M3539,29,3:08:56,,PERALVA
113,2021,NORDECIBATISTADEOLIVEIRA,37,M3539,30,3:09:21,,Castelo
114,2636,JOAOCARLOSRODRIGUESDEFREITAS,42,M4044,11,3:09:21,,EquipeCastelo
115,6761,JOAORESENDE,34,M3034,20,3:09:25,,SPEED
116,5279,ROBERTODIBBITTAR,44,M4044,12,3:09:27,,ANDRADE&MALULIADVOGADOS//ANDRÉVILLARINHO
117,6556,GUILLAUMEHABOUZIT,30,M3034,21,3:09:30,,MLMIXRUN
118,4799,MAUROFERNANDODOSSANTOS,43,M4044,13,3:09:30,,PERESTROIKA
119,6310,NICOLASCAMPOS,24,M2024,2,3:09:37,,Valverde
120,3505,HENRIQUEBORGES,34,M3034,22,3:09:45,,none
121,1885,FERNANDODOM,29,M2529,7,3:09:54,,Titiorulesteam
122,3349,JOSECARLOSBARROSDASILVA,53,M5054,5,3:09:56,,NossaSenhoradeFátima
123,7049,ANTONIOLOPEZ,35,M3539,31,3:09:57,,
124,2424,MOACIRMATOSSERPA,41,M4044,14,3:10:03,,
125,3838,RICARDOCAMARGO,40,M4044,15,3:10:05,,REABY
126,5406,VLADIMIRJOSÉDEALCÂNTARA,47,M4549,15,3:10:13,,RM7
127,6413,REINALDOSIMPLICIOPINTO,37,M3539,32,3:10:20,,NOVAEQUIPE
128,4725,ULYSSESFRANCISCOGRACA,31,M3034,23,3:10:26,,ALWAYSMORE/O2FIT
129,210,RAFAELLEITÃO,35,M3539,33,3:10:31,,
130,3692,STEPHANEDUMAS,40,M4044,16,3:10:41,,none
131,4461,GILBERTOROQUEJUNIOR,31,M3034,24,3:10:50,,TRIRUNNERASESSÓRIAESPORTIVA
132,7113,FRANCISCOBEZERRADASILVA,50,M5054,6,3:10:51,,MARCADORESDERITMO
133,1518,ALEXSANDRODASILVALIMA,34,M3034,25,3:10:52,,EquipeViverBem
134,4896,MARCOSABORGES,43,M4044,17,3:10:55,,MURAKAMITEAM
135,6787,CLAUDIOROBERTODASILVABARREIRO,41,M4044,18,3:10:55,,Eletronuclear
136,4827,CARLOSALBERTODOSSANTOSTALAMINI,41,M4044,19,3:10:57,,CROSSTRAINER
137,6303,LUISFELIPEMOURARAMIZWRIGHT,49,M4549,16,3:11:00,,EQUIPETOSCANO
138,3203,FERNANDOSERGIO,36,M3539,34,3:11:01,,EQUIPETOSCANO
139,2200,ANTONIOVALVERDE,34,M3034,26,3:11:02,,Valverde
140,5906,CRISTHIANOTHOMAZNUNES,35,M3539,35,3:11:12,,BRMOVE
141,7220,NILOMAGNODASILVA,38,M3539,36,3:11:32,,Rocinha
142,330,HENRIQUECASSAROPEREIRA,30,M3034,27,3:11:39,,ULTRASPORTS
143,5938,JOSUESOARESDASILVA,40,M4044,20,3:11:49,,CHÃODOATERRO
144,1987,JOVANIALVESDESOUZA,42,M4044,21,3:11:49,,CASADOCORREDOR
145,1759,CARLOSRENATOHERMANOMAIA,40,M4044,22,3:12:00,,RENATOMAIATREINAMENTOINDIVIDUALIZADO
146,329,IVALTEMIRBARROSCARRIJO,53,M5054,7,3:12:06,,BALEIAS
147,6006,PAULORICARDODOSSANTOS,34,M3034,28,3:12:27,,CORRERENTREAMIGOS
148,3470,RICARDOMORITZDEPAZ,27,M2529,8,3:12:28,,CORE
149,349,SAMUELPEREIRADOSSANTOS,30,M3034,29,3:12:37,,
150,2669,EDERSONDAROCHA,33,M3034,30,3:12:39,,NSPS-CURITIBA
151,5417,VILMARCOMERLATTO,46,M4549,17,3:12:44,,INUSITTÁ
152,6607,LEONARDODEALMEIDATAVARES,39,M3539,37,3:12:45,,PéCarioca
153,5828,DIEGOPORTO,32,M3034,31,3:12:52,,VELOXFITNESS
154,4632,MARCUSVINICIUSLAUREANOFREIRE,45,M4549,-,3:12:57,LES,AchilesIntenationalBrazil
155,2615,EVANDROIRINEUSILVA,40,M4044,23,3:13:03,,CHIODIRUN
156,7188,MURILLOALVESSIQUEIRA,20,M2024,3,3:13:06,,Sport&TrackseMorganaAss.Esportiva
157,7147,RICARDORUIAMORIMSANTOS,24,M2024,4,3:13:09,,
158,6730,MARCELOTADEUDOSSANTOS,40,M4044,24,3:13:10,,JUIZDEFORA
159,6099,FILIPEALBUQUERQUEARAGAO,31,M3034,32,3:13:21,,TIME
160,4303,ERIVELTONFARIADELIMA,37,M3539,38,3:13:25,,WWW.PETSHOPSA.COM.BR
161,4428,FELIPEJESUSDASILVADEMATOS,29,M2529,9,3:13:31,,ATPMULTIESPORTES
162,319,GLEYDSONFERREIRAGONCALVES,47,M4549,18,3:14:02,,Cenibra/AMEsportes
163,6637,ALEXDANTASMARCAL,34,M3034,33,3:14:03,,R5EXPRESSEVENTOSESPORTIVOS
164,343,ROMULOSANGERUCHOADEMIRANDA,43,M4044,25,3:14:08,,SÉRGIOSPORTS
165,391,LEONARDOCEREDADACOSTA,34,M3034,34,3:14:13,,CeredaRunners
166,6145,MAYCONMIGUEL,34,M3034,35,3:14:33,,EquipeCE+3
167,5961,JOSEMIRANDASILVA,54,M5054,8,3:14:36,,CHÃODOATERRO
168,3029,CARLOSPEREIRADOSSANTOS,37,M3539,39,3:14:40,,VO2
169,3119,PAULOHENRIQUEPULCHERIO,46,M4549,19,3:14:47,,
170,7238,DALMOJOSEMAQUEA,45,M4549,20,3:15:05,,SMELL
171,2209,GENILSONDESOUZAMENDES,53,M5054,9,3:15:06,,CicleItaipu
172,7142,ALESSANDROFALCOSKIFERREIRA,30,M3034,36,3:15:06,,
173,6252,FRANCLINDOSSANTOSSANTOS,35,M3539,40,3:15:07,,EQUIPERUNNERSRIO
174,4467,RICARDOMARANHÃODEARAUJO,40,M4044,26,3:15:08,,CHÃODOATERRO
175,5684,VAILSONMACHADOSILVA,32,M3034,37,3:15:30,,EQUIPEBRT
176,2444,ALESSANDRODASILVA,44,M4044,27,3:15:30,,Evolua(Brasília)
177,722,JOSEGERALDODUARTEDASILVA,54,M5054,10,3:15:34,,BioativaAcademiaFeminina
178,5249,ADÉLIOJOSÉDAMOTA,51,M5054,11,3:15:40,,COPACABANAIMÓVEIS-UBERLÂNDIA/SAAET-AP
179,2565,CRISTIANOSOARES,41,M4044,28,3:15:49,,TEOESPORTES
180,6813,DENILSONSANTOSSILVA,31,M3034,38,3:15:49,,STREETRUNNERS
181,6503,AKIRAFUKAMACHI,41,M4044,29,3:16:01,,LOBOASSESSORIA
182,1309,ANDREGONCALVES,37,M3539,41,3:16:01,,LOBOASSESSORIA
183,326,WILIANDOSSANTOSPONTES,46,M4549,21,3:16:08,,
184,789,PAULOFERNANDODOSSANTOSMONIZJUNIOR,38,M3539,42,3:16:10,,EQUIPEX_FENAE
185,1087,ELIASANTONIOBUENODECAMPOSJUNIOR,39,M3539,43,3:16:14,,asacorreamericana
186,118,MARCOSROBERTOFERNANDEZVARELA,42,M4044,30,3:16:15,,NucleoAventura
187,6480,GUILHERMEVICTORRODRIGUES,30,M3034,39,3:16:23,,LEGASSESSORIA
188,3363,EDUARDODEMORAESCASTRO,45,M4549,22,3:16:29,,Forma&Movimento
189,3003,RENANAUGUSTOLIZOTTI,29,M2529,10,3:16:44,,LORENZO/PILEUTEAM/UNIQUECORE
190,7209,CELSOGARCIAARNAUS,32,M3034,40,3:16:47,,IMBUHY/CIOpEsp
191,570,BERNARDORAMOSALVES,32,M3034,41,3:16:49,,O2FIT
192,2653,BRUNOMASCELLARODRIGUES,27,M2529,11,3:16:50,,MEIASPRETAS
193,2793,PAULOCESARFERREIRAVIANA,45,M4549,23,3:16:50,,DeGdosSantos
194,2784,FELIPEDECARVALHOABBUD,37,M3539,44,3:16:54,,
195,763,MARCIOCASTROCHAYM,41,M4044,31,3:16:58,,MORONESAÚDEEBEMESTAR
196,3426,ESTEFANEJOAONOVELLI,30,M3034,42,3:16:59,,equipenutrisamal
197,6745,DELFINOBALBINODONASCIMENTO,56,M5559,6,3:17:24,,JUIZDEFORA
198,5066,MARCELOKENDYKANESHIRO,34,M3034,43,3:17:26,,
199,3370,VINICIUSNUNESRAMALHODEOLIVEIRA,28,M2529,12,3:17:31,,NIKECORRERIO
200,765,FABIOJOSELEONE,39,M3539,45,3:17:33,,GALLERIAVIDEO
201,3949,VINICIUSGOMESSOARES,39,M3539,46,3:17:35,,TECHNOENDURANCE
202,1178,THIAGOMATTOS,31,M3034,44,3:17:39,,RAFAELPERALVA
203,5395,MARCELOMACIELPINHEIRO,47,M4549,24,3:17:42,,STUDIOPERFORMANCE
204,764,WASHINGTONDIASDESOUZA,42,M4044,32,3:17:45,,
205,340,JARDELMARTINSPIMENTA,35,M3539,47,3:17:55,,EQUIPEMARCELODONNA
206,7034,MARCOSDANGELODACOSTA,45,M4549,25,3:18:05,,
207,2322,SAULOROBERTOPATRIOTADINIZ,30,M3034,45,3:18:09,,RunningPersonal
208,891,ANTONIOEMANUELANDRADEESILVA,39,M3539,48,3:18:11,,GEOCALÇADOS
209,338,DENISDEMENEZESGOMES,42,M4044,33,3:18:18,,ALICENALETTOTRAINING
210,1336,JONESANTOSCOSTA,36,M3539,49,3:18:43,,EGB/VILLARINHO
211,3186,GILSONYOSHIZAWAARAUJO,41,M4044,34,3:18:51,,NandoCoelhoAssessoriaEsportiva
212,337,NILSONDEMAGALHAESPEREIRA,53,M5054,12,3:18:53,,Body&Soul
213,4332,JOÃOLUISCAMPOSWEITZEL,36,M3539,50,3:18:55,,BORAASSESSORIAESPORTIVA
214,5609,YGORJOSESANTOSGRACA,38,M3539,51,3:18:59,,RAFAELPERALVAASSESSORIAESPORTIVA
215,6147,VITORDEARAUJOGONCALVES,38,M3539,52,3:19:08,,EquipeCE+3
216,2345,HENRIQUELOTTCARVALHONOVAESSOBRINHO,34,M3034,46,3:19:10,,MILHAS
217,4475,LUIZCLÁUDIODEJESUSDIAS,38,M3539,53,3:19:13,,
218,315,JOAQUIMFELICIODESOUZA,52,M5054,13,3:19:16,,BAMAGS.A
219,3994,MARIOAGUSTINDIAZ,39,M3539,54,3:19:17,,
220,6066,MAGNORONANSIMOES,46,M4549,26,3:19:22,,AABB-SP
221,2099,LUIZGUILHERMELIMA,24,M2024,5,3:19:34,,
222,4736,FERNANDOCABRALPEREIRA,29,M2529,13,3:19:45,,MORONE
223,367,SILVANOLUCASDEOLIVEIRA,40,M4044,35,3:19:45,,ACORLAF
224,2141,DANIELSILVEIRALOPES,31,M3034,47,3:19:47,,lajesDeD
225,4291,RANGELNEVESDESIQUEIRA,39,M3539,55,3:19:50,,A+ACADEMIA
226,1337,VANDERLIALVESLEITE,41,M4044,36,3:19:54,,
227,6874,MAGNOBARBOSADOSSANTOS,41,M4044,37,3:19:54,,Lince
228,3111,FABIANOROSA,41,M4044,38,3:19:55,,ACORLAF
229,5370,RAFAELBLUMEP.DEALMEIDA,36,M3539,56,3:20:00,,MILHAS
230,2754,ANDREBARBOSADOSSANTOS,31,M3034,48,3:20:08,,GAMAASSESSORIAESPORTIVA
231,1120,ANDERSONBARBOSA,33,M3034,49,3:20:09,,GamaAssessoriaEsportiva/Settaport
232,1211,THIAGOTADEUTEIXEIRASOZUA,31,M3034,50,3:20:16,,EQUIPIC
233,470,CLAUDIORICARDOBISCOLA,40,M4044,39,3:20:16,,CrazyDucks/Triaction/EloAcademia
234,1943,JULIOC.VENTURAROCHA,38,M3539,57,3:20:20,,ELITEMULTISPORTS
235,1474,RICARDOFROJONI,48,M4549,27,3:20:21,,NAOPOSSUO
236,1402,NELESDOSSANTOSLOPES,41,M4044,40,3:20:31,,ACAV/COLÉGIOMARIAESTER1
237,1798,CLODOALDOBERTOLDODINIZ,42,M4044,41,3:20:37,,ENDORFINA
238,4785,GUILHERMEGARCIAMATTA,22,M2024,6,3:20:42,,HYPERIONASSESSORIAECONSULTORIAESPORTIVA
239,767,KEDSONLOURA,50,M5054,14,3:20:53,,
240,5576,CLAUDIOMARCOSMALUF,42,M4044,42,3:20:56,,
241,374,LEANDROCARNEIRODASILVA,44,M4044,43,3:20:56,,A
242,3499,YOSHIAKIFUJIWARA,34,M3034,51,3:20:59,,ccc
243,766,WELLERSONRIBEIRO,40,M4044,44,3:21:12,,SESCDFCORDF
244,1546,ELISEUDOMINGUES,36,M3539,58,3:21:12,,RUNUP
245,6750,JORGEEMIDIODEOLIVEIRA,65,M6569,1,3:21:13,,JUIZDEFORA
246,111,BILAKALEXIS,27,M2529,14,3:21:24,,
247,6642,SILVIODEMOURACAETANO,44,M4044,45,3:21:26,,R5EXPRESSEVENTOSESPORTIVOS
248,5490,LEÔNIDASSANTOSRIBEIRO,46,M4549,28,3:21:34,,FRIENDSRUNNERS
249,2098,WANTUIRDEOLIVEIRA,42,M4044,46,3:21:36,,SportFitness
250,6292,ADEMILSONARAUJODOSSANTOS,53,M5054,15,3:21:42,,E.C.TAVARES
251,4540,RAFAELDEOLIVEIRACOELHO,23,M2024,7,3:21:43,,
252,5649,ANDERSONSILVAPINHEIRO,27,M2529,15,3:21:57,,SPRINTASSESSORIAESPORTIVA
253,3657,GERMANCUDMANI,42,M4044,47,3:21:58,,NINGUNO
254,3508,JAVIERBLANCOAQUINO,39,M3539,59,3:22:01,,none
255,3597,MARCELOLEONGARAY,22,M2024,8,3:22:18,,none
256,5621,ALLANHAYNESJUNIOR,46,M4549,29,3:22:19,,MAXIMIZE
257,4539,ADILSONNEVES,31,M3034,52,3:22:29,,OMARATHONSPORTSBRASIL.
258,389,SERGIOLUIZPEREDA,47,M4549,30,3:22:30,,LO-PEDEVENTOBRASÍLIA
259,2338,ROBSONDASILVASANTOS,38,M3539,60,3:22:30,,
260,3549,RAMONENRIQUEMORAJULIEN,27,M2529,16,3:22:34,,SoyRunnerTeam?SRTChile
261,733,FELIPEPEREIRASOARES,37,M3539,61,3:22:36,,
262,2079,FERNANDOMONTEIRO,36,M3539,62,3:22:37,,MPR
263,6576,HENRIQUEMATEUSEDITILIOESDASILVA,39,M3539,63,3:22:41,,MPR
264,120,FELIPENOVAESGARCIA,38,M3539,64,3:22:44,,
265,1640,MAUROELLWANGERJUNIOR,39,M3539,65,3:22:46,,DRUNCampinas
266,770,DERVANANRODRIGUESDEMENDONCA,41,M4044,48,3:22:50,,COrM/Marinha
267,3560,DERMIVALMELO,43,M4044,49,3:22:54,,RAFAELPERALVA
268,2805,CARLOSGUILHERMEBEZERRA,47,M4549,31,3:22:55,,DeGdosSantos
269,6953,RUBENSYOSHIMITUNODA,0,M0015,1,3:23:01,,OLYMPIKUS
270,6554,MARCUSVINICIUSCARDOSOCOSTA,34,M3034,53,3:23:06,,MLMIXRUN
271,333,JOSEEUSTAQUIOROMANO,46,M4549,32,3:23:08,,ACORLAF
272,6019,SIDNEYARRUDADOSSANTOS,49,M4549,33,3:23:17,,EquipeSergioSport
273,2327,EVERTONGOLLNICKKOCH,31,M3034,54,3:23:23,,
274,5923,JACIDEOLIVEIRACASTRO,58,M5559,7,3:23:24,,CASADOCORREDOR
275,5271,VITORLUNADESAMPAIO,42,M4044,50,3:23:25,,TWITTERSRUN
276,4145,EMMERSONBADAROCARDOSO,33,M3034,55,3:23:28,,VIDATIVA
277,6318,PAULOROBERTODESOUZAFERREIRA,55,M5559,8,3:23:30,,FFSPORTS
278,892,JOAOTAVARESBASTOS,36,M3539,66,3:23:38,,Limítrofe
279,406,ESMERALDOMARTINSDOSSANTOS,53,M5054,16,3:23:38,,O2FIT
280,3089,VALDINEYSOUZA,42,M4044,51,3:23:38,,VITALLITY
281,3512,FABIOSTOLL,42,M4044,52,3:23:40,,FMCE
282,6546,LEONARDODACOSTAFERREIRA,44,M4044,53,3:23:42,,MLMIXRUN
283,2906,FABIOANDRESILVA,43,M4044,54,3:23:43,,RunnersforLige
284,5281,JOSERAIMUNDOBARBOSADONASCIMENTO,58,M5559,9,3:23:44,,GERDALRJ
285,4193,MARCELOPARGANINADEQUEIROZ,45,M4549,34,3:23:44,,ALTERNATIVARUNNERS
286,6510,ALVARORODRIGUESDASILVAJUNIOR,38,M3539,67,3:23:46,,LOBOASSESSORIA
287,1772,MANOELANDRADEJUNIOR,36,M3539,68,3:23:49,,MÁRCIAFERREIRA
288,1715,LOURISVALDOARAUJOMARQUES,50,M5054,17,3:23:49,,SAIDAFRENTE
289,7059,KYLEDAVIS,54,M5054,18,3:23:54,,
290,3703,JUANFRANCISCOBAUZA,43,M4044,55,3:24:00,,RunnersEverertChile
291,4629,JOSÉALVESDOSSANTOS,52,M5054,-,3:24:14,LES,
292,410,ANDRELUIZMONTECHIARILOBOSCO,38,M3539,69,3:24:15,,jittextil/ascof
293,1139,VALNEYSAVITORIANO,31,M3034,56,3:24:16,,TARSOMATOS
294,744,FABRICIODEFREITASBRAGAXAVIER,38,M3539,70,3:24:19,,PSYCORUN
295,4391,EDUARDOFREDERICOMENDESLAUTERJUNG,35,M3539,71,3:24:22,,
296,6599,ISAIASDIASDASNEVES,32,M3034,57,3:24:25,,OTREINO
297,1364,THIAGOBARROS,32,M3034,58,3:24:27,,RAFAELPERALVA
298,6727,BRUNODEAZEVEDOLACERDAOLIVEIRA,34,M3034,59,3:24:28,,JUIZDEFORA
299,6860,SAMUELLUIZTOLEDO,51,M5054,19,3:24:30,,BSBParque
300,5085,CLEBERAKIRAAKAMINE,33,M3034,60,3:24:31,,RAFAELFALSARELLA
301,3472,JOHNLAYTON,45,M4549,35,3:24:38,,SanFranciscoRoadRunners
302,1919,VALTERCASARIN,53,M5054,20,3:24:43,,FITLABORE
303,4627,GENIVALDOSSANTOSFREDERICO,37,M3539,-,3:24:50,LES,ONGFORÇANO
304,363,BERNARDOFERRAZPINTO,35,M3539,72,3:24:57,,HERBALIFE-AlbertoCampos
305,172,LUCASLATORRE,37,M3539,73,3:25:01,,none
306,4732,DENISDEANDRADE,47,M4549,36,3:25:04,,DIEBOLDPROCOMP
307,446,JOAONETOALVESDESOUZA,43,M4044,56,3:25:06,,EquipeZuluUBSparqueEngenhoII
308,6678,JOSEANTONIOCLEMENTINO,49,M4549,37,3:25:06,,SAUDEPERFORMANCE
309,161,FERNANDOVALLADARES,50,M5054,21,3:25:08,,none
310,6954,LUIZCARLOSDACOSTA,0,M0015,2,3:25:10,,OLYMPIKUS
311,4491,FABIOCARNEIRODASILVA,38,M3539,74,3:25:11,,CORDELLATEAM
312,6076,MARCUSVINICIUSPARREIRALEMGRUBERKROPF,35,M3539,75,3:25:12,,DEFAVERIRUNNERS
313,754,FABIODEOLIVEIRAMARCALDASILVA,39,M3539,76,3:25:13,,
314,5532,EDSONRAMOSDASILVAFILHO,51,M5054,22,3:25:15,,
315,758,JADIRMILANEZI,58,M5559,10,3:25:17,,ACORES
316,2180,LEANDROMELLO,38,M3539,77,3:25:17,,Caarcara
317,667,RAPAHELBITTENCOURTLEAL,34,M3034,61,3:25:21,,AssessoriaRapahelBittencourt
318,6467,JOELFABIODELIMAGLICERIO,25,M2529,17,3:25:23,,INTHEGRA
319,4602,EDUARDOFERREIRADASILVA,56,M5559,-,3:25:31,DI,ONGFORÇANO
320,334,NILORESENDE,49,M4549,38,3:25:43,,CompanheirosdeCorrida
321,3424,ALBERTOBOGLIOLOSIRIHAL,41,M4044,57,3:25:45,,CIAATHLETICA
322,5767,MARIOANTONIODESOUZA,62,M6064,2,3:25:45,,CHAODOATERRO
323,5821,ROBINSONBERTUCCELI,43,M4044,58,3:25:46,,AcademiaSanchesSports
324,3521,DANIELMENDES,38,M3539,78,3:25:48,,VELOX
325,4404,ALEXANDREPEDROSAPINTO,33,M3034,62,3:25:51,,BRANCAESPORTES
326,5072,ARIOSTORECOSIMAO,34,M3034,63,3:25:53,,CORRECOMIGO
327,321,MAURICIOCOSMEDAMIAOFILHO,38,M3539,79,3:25:54,,Qualitysport.
328,2809,MANOELCOSTADASILVA,25,M2529,18,3:26:00,,TracaRunnes
329,7094,JUANKAYS,42,M4044,59,3:26:02,,
330,2162,GABRIELDIASAGUILERAFERNANDES,29,M2529,19,3:26:03,,NUMBERONERUNNING
331,6289,JOAQUIMRODRIGUESDEABREU,58,M5559,11,3:26:07,,E.C.TAVARES
332,336,MARIOREGINATOBETTINELLI,30,M3034,64,3:26:07,,CiaAthleticaPOA
333,5894,LUISALBERTOSALLESASSUMPCAOSOUZA,51,M5054,23,3:26:08,,BIO2
334,819,ANDREGUILHERMEPARRAMACEDO,33,M3034,65,3:26:08,,CrazyDucks
335,6211,JORGEDECARVALHO,53,M5054,24,3:26:11,,NOVEDEJULHO
336,1781,JOAOGUSTAVOMADYTEIXEIRA,39,M3539,80,3:26:12,,Sergiosport
337,429,ANDREALEGITTIMO,35,M3539,81,3:26:27,,OIMPORTANTEÉCORRER
338,728,BRUNOGONCALVESMAZZONI,36,M3539,82,3:26:37,,
339,5123,JOSÉRICARDOBATISTA,31,M3034,66,3:26:37,,
340,440,FABIOFREITASCUSTODIOBARBOZA,36,M3539,83,3:26:37,,pegasus
341,5240,BRUNOWANDERBULDRINI,51,M5054,25,3:26:38,,BHRACE
342,4382,FRANCIOALMEIDALOYOLA,39,M3539,84,3:26:46,,ENDURANCE
343,3867,FERNANDOYITZACKPAVON,33,M3034,67,3:26:50,,BeeRunnersSLV
344,3474,ANGELOCELSODEOLIVEIRAESILVA,35,M3539,85,3:26:53,,BRANCAESPORTES
345,2379,FABIANOBRIBEIRO,46,M4549,39,3:26:59,,RPEsportes/Falsarella
346,3199,JAIMEPEREIRADESOUZA,61,M6064,3,3:27:11,,EQUIPEJABAQUARADECORRIDAS
347,1631,RAFAELTEODORODONASCIMENTO,32,M3034,68,3:27:12,,avasulso
348,5143,ALANODESOUSACAMPOS,51,M5054,26,3:27:13,,
349,126,RAFAELDEOLIVEIRAMACHADO,35,M3539,86,3:27:15,,EQUIPEGUSTAVOBORGES
350,187,MARCOANTONIOPEREIRA,50,M5054,27,3:27:17,,MFTRUNNERS
351,2070,DANIELDEMELOMENDES,37,M3539,87,3:27:17,,
352,2344,ADRIANOEDUARDOCOGO,34,M3034,69,3:27:23,,UniqueCore
353,3008,MARCOSROGERIOLOPESMARCAL,31,M3034,70,3:27:24,,5WAYS/PACEFIT
354,1059,MARCELOTAVARES,32,M3034,71,3:27:32,,TRILOPEZ
355,735,FRANCISCOJOSEMONACO,51,M5054,28,3:27:35,,PéCarioca
356,6231,JOAOHENRIQUEGOMESDASILVA,39,M3539,88,3:27:36,,EQUIPERUNNERSRIO
357,3258,FERNANDODUCCINIBRITO,50,M5054,29,3:27:39,,ACFORMAS
358,134,FABIOMORAESDECARVALHO,29,M2529,20,3:27:45,,FABIOCARVALHO
359,1920,RODRIGODEBRITTOAZEVEDO,48,M4549,40,3:27:46,,
360,3378,MARCELOPRINCIVILELA,39,M3539,89,3:27:46,,ESCOLADOMAR
361,3792,JUANCARLOSGONZALEZGARCIA,32,M3034,72,3:27:48,,BEERunners
362,4070,GIOVANNIBRAGAGLIA,32,M3034,73,3:27:50,,ACADEMIARAGECUIABÁ
363,414,EDVALDOALVESDOSSANTOS,45,M4549,41,3:27:52,,SergioSportsManaus
364,6857,JOSÉMARIODESOUZABARBEIRO,53,M5054,30,3:28:00,,
365,6685,PEDROCESARIODOSSANTOSNETO,45,M4549,42,3:28:06,,SESI
366,7115,EDSONJORGEDESOUZA,44,M4044,60,3:28:11,,MARCADORESDERITMO
367,4460,LUIZJONASSCALISE,49,M4549,43,3:28:20,,TURMADOMAIAGUARULHOS
368,3117,CLAUDIOMARINHO,42,M4044,61,3:28:21,,PsycFamilyRunner
369,7234,JOSEDAPENHAPEREIRAANDRADE,57,M5559,12,3:28:28,,SMELL
370,3520,JULIOGANDINI,59,M5559,13,3:28:31,,TrancoLargo
371,2423,DENISPUGA,36,M3539,90,3:28:31,,MARCIOPUGA
372,742,ANTONIOCORREIANETO,51,M5054,31,3:28:34,,PénaTrilha
373,1243,EVERTONSANTOS,26,M2529,21,3:28:34,,AçaiTribomixdanieloliveira
374,6677,CARLOSRUBENSOLIVEIRA,35,M3539,91,3:28:44,,SAUDEPERFORMANCE
375,4175,JOSELUISCHULASEABRASANTIAGO,29,M2529,22,3:28:46,,SEABRACENTER
376,5081,ANTONIOCARLOSSOUSADOSSANTOS,45,M4549,44,3:28:49,,SPRINTASSESSORIA
377,7248,CLOVISCLAUDINOBENTO,42,M4044,62,3:28:57,,BlogeRunColucciGatorade
378,3159,OLIVERVITALDESOUZA,35,M3539,92,3:28:58,,EnjoyRunning
379,3216,RONALDOCESARFERNANDES,54,M5054,32,3:29:05,,4RUNASSESSORIAESPORTIVA
380,6131,AMAROCAJUEIRODACOSTABARBOSALIMA,32,M3034,74,3:29:06,,EquipeActions
381,2265,JOSECARLOSSOUZA,30,M3034,75,3:29:07,,RAFAELPERALVAASSESSORIAESPORTIVA
382,4714,RICARDOMARCHI,51,M5054,33,3:29:08,,CMC-RUNNERSCAMPINAS
383,412,ERICSAVOYBUSCATO,30,M3034,76,3:29:09,,CITIUSASSESSORIAESPORTIVA
384,4280,LUIZCLAUDIOFERNANDESDOSSANTOS,38,M3539,93,3:29:11,,
385,712,PAULOHENRIQUEPIRES,51,M5054,34,3:29:16,,PANGARÉSDEMINAS
386,628,MOACIRALEXANDREGERTRUDES,38,M3539,94,3:29:20,,AGLRUNNER´S
387,1115,ANTONIOMARCELINOFERREIRA,56,M5559,14,3:29:21,,AGLRUNNER´S
388,3573,GABRIELBERNUCIODESIQUEIRA,31,M3034,77,3:29:27,,ASCOBRAPA
389,332,COSMEREGESDESOUZA,40,M4044,63,3:29:28,,ÉNÓSVEGANOS/FORÇAVEGANA
390,4894,MARCELOPORTELLA,41,M4044,64,3:29:28,,
391,4930,JOAOAUGUSTOCHECHEPIZZA,34,M3034,78,3:29:28,,
392,4899,LUIZCARLOSSIMOESFRANCO,54,M5054,35,3:29:29,,NBI
393,4570,JEFFERSONEDUARDOFERREIRADASILVA,34,M3034,79,3:29:29,,WERTHERACADEMIA
394,5374,CARLOSHENRIQUEGOMESDEARAUJO,47,M4549,45,3:29:30,,RM7
395,3285,ROMULOM.CUSTODIO,49,M4549,46,3:29:31,,FITRUN
396,6136,SERGIOMAURICIO,32,M3034,80,3:29:33,,EquipeCE+3
397,1127,DENYSRAGNOLI,35,M3539,95,3:29:37,,NUMBERONERUNNING
398,4914,ANDRÉCORDEIRODESOUSA,34,M3034,81,3:29:44,,
399,6034,FELIPECARVALHOPAVAN,31,M3034,82,3:29:44,,CitiusASSESSORIADECampinas
400,7064,DANSTABERG,47,M4549,47,3:29:45,,
401,2916,VANDERSONBARROSAFONSO,32,M3034,83,3:29:48,,SnakeRunners
402,3421,PAULOHENRIQUEFONTES,25,M2529,23,3:29:48,,TratorMultSport
403,4222,RODRIGOROLIMDUARTE,37,M3539,96,3:29:52,,MARCUSFERNADESTRIATHLON
404,4944,EDMILTONGODOYDEPAULA,27,M2529,24,3:30:00,,MFTRUNNERS
405,761,FELIPELEMOS,32,M3034,84,3:30:03,,TRIGMAR/
406,661,GUTEMBERGDECASTROFREITASJUNIOR,39,M3539,97,3:30:03,,Resende
407,4710,VICTORDEABREUGREY,32,M3034,85,3:30:07,,CORDELLATEAM
408,1367,LUIZCARLOSROMANO,40,M4044,65,3:30:08,,
409,1981,EDUARDOALEXANDREDEMARCELHAS,27,M2529,25,3:30:20,,ACORLAF
410,5175,PEDROHENRIQUEEGREJADACOSTATEIXEIRA,24,M2024,9,3:30:21,,CORRIDACCL/SERGINHOCORRIDADERUA
411,5362,MÁRIOHENRIQUEDEOLIVEIRASIMEÃO,35,M3539,98,3:30:21,,TRIATIVO
412,4900,ONISVALDOPAIVADOSSANTOS,51,M5054,36,3:30:22,,ENDURANCEMANAUS
413,769,CLAUDIOZANON,43,M4044,66,3:30:25,,EQUIPEX_FENAE
414,3022,FABIANELGUETA,32,M3034,86,3:30:27,,RPMTEAM
415,7329,ANTONIODOSSANTOS,48,M4549,48,3:30:29,,CORREDORESMINALBA
416,6524,HUGOMACHADOFUMIAN,36,M3539,99,3:30:30,,MarkesRunning+
417,498,MARCOSTADEUDASILVA,50,M5054,37,3:30:30,,90KM
418,5895,RAPHAELPORTORITTERVIANA,38,M3539,100,3:30:34,,BR2AssessoriaEsportiva
419,3522,ALEJOMARTINEZSANSIGRE,35,M3539,101,3:30:35,,none
420,752,CELIOLOBATO,49,M4549,49,3:30:36,,CELIOLOBATOASSESSORIAESPORTIVA
421,2146,FABRICIOLANDIMDESOUZA,34,M3034,87,3:30:38,,
422,5179,MARCOSDESOUZAFERREIRA,52,M5054,38,3:30:38,,KaymbrasdoCerrado
423,6251,MARCOSFERNANDESGOMES,47,M4549,50,3:30:39,,EQUIPERUNNERSRIO
424,4021,PABLOPIROTTO,26,M2529,26,3:30:42,,ESPARTANOS
425,762,GLAUCIOMONTEMOR,37,M3539,102,3:30:43,,VIDATIVA
426,5332,VALMIRFLORESDOMINGUES,45,M4549,51,3:30:45,,ESSA
427,3221,FRANCISCOELOYGARCIA,58,M5559,15,3:30:46,,corrpiquiri
428,7359,MAUROJOSEDASILVA,48,M4549,52,3:30:46,,
429,464,ANDERSONSILVADOSSANTOS,39,M3539,103,3:30:50,,Runner
430,2559,LEONARDODECARVALHO,31,M3034,88,3:30:51,,NUMBERONERUNNING
431,5946,ANTONIOGOMESFREITAS,55,M5559,16,3:30:56,,CHÃODOATERRO
432,5909,GILANDERSONRODRIGUES,44,M4044,67,3:30:57,,CASADOCORREDOR
433,3789,CRUIFFEMERSONPINTODASILVA,40,M4044,68,3:31:02,,SantiagoAscencoAssessoria
434,4147,FABIOBARBOSAVIEIRA,39,M3539,104,3:31:05,,EZKTEAM
435,5960,ALVAROREIS,34,M3034,89,3:31:07,,CHÃODOATERRO
436,5306,PAULOROBERTODESOUSA,50,M5054,39,3:31:11,,
437,6593,ANDERSONVICENTEDACOSTAANDERSONVICENT,44,M4044,69,3:31:12,,NEWRUNNERSTEAM
438,3206,RODRIGOBOURBONNAVADEOLIVEIRA,37,M3539,105,3:31:13,,ZONAALVOFORTALEZA-CE
439,4038,MARTINLINDBLAD,41,M4044,70,3:31:13,,IFLINNÉA
440,5732,ARIVELTOLUIZVALÉRIO,63,M6064,4,3:31:22,,INUSITTÁ
441,344,EDSONPEREIRA,36,M3539,106,3:31:23,,AssessoriaDEF
442,4224,MARCELLOVELLOSOPORFIRIO,41,M4044,71,3:31:29,,
443,2763,MATHEUSANDREPASTI,34,M3034,90,3:31:33,,CorredoresdaCuestadeBotucatu
444,4980,JEANCARLODASILVASANTOS,38,M3539,107,3:31:36,,ARENAFITNESS
445,2051,EDUARDOMELO,32,M3034,91,3:31:37,,PRORUNNER
446,6195,ALEXSANDROALVES,37,M3539,108,3:31:40,,EQUIPELEGRAND
447,1619,SALMOCRISTIANODUARTE,36,M3539,109,3:31:43,,
448,2773,VICENTEDECARVALHODELORME,34,M3034,92,3:31:45,,
449,125,MARCELODEOLIVEIRAMACHADO,35,M3539,110,3:31:47,,EQUIPEGUSTAVOBORGES
450,6929,CARLOSFERREIRA,20,M2024,10,3:31:50,,
451,6016,DANIELNUNESJUNIOR,37,M3539,111,3:31:51,,DLASSESSORIAESPORTIVA
452,5468,ADEMILSONJOSEDSILVA,45,M4549,53,3:32:02,,AuthenticRun
453,3623,THIAGODIOGODASILVA,28,M2529,27,3:32:07,,PULSEASSESSORIA
454,3489,EMERSONSTIILPENBATISTA,34,M3034,93,3:32:09,,ULTRAESPORTES
455,4938,LUIZOLIVEIRA,32,M3034,94,3:32:11,,
456,1275,ERONILDESGREGORIO,36,M3539,112,3:32:15,,
457,6656,IGORMARQUESCAMPOSDEOLIVEIRA,25,M2529,28,3:32:15,,RUN&FUN
458,1611,ANDERSONPEREIRABRANDAODESOUZA,36,M3539,113,3:32:18,,
459,1063,WANDERSONCARLOS,26,M2529,29,3:32:20,,SNAYKS/REFERENCIALOCADORA
460,1779,ALONSOGERALDOANDRADEBOASQUEVISQUE,57,M5559,17,3:32:20,,NR
461,5920,MARCIOSILVAGERALDO,54,M5054,40,3:32:22,,CASADOCORREDOR
462,1816,MARCOSCOSTA,32,M3034,95,3:32:24,,RAFAELPERALVAASSESSORIAESPORTIVA
463,4931,MARCIOHENRIQUEPOMPEO,34,M3034,96,3:32:30,,LorenzoRunner
464,6658,RICARDOOLIVEIRASIQUEIRAGOMES,28,M2529,30,3:32:30,,RUN&FUN
465,5012,ANTONIOBENNINGRAMOS,38,M3539,114,3:32:32,,5WAYS
466,3475,ROGERIOFREITAS,41,M4044,72,3:32:41,,VELOX
467,647,VALDERINOPACHECODASILVAFILHO,28,M2529,31,3:32:44,,JESUS
468,463,RENATOBONFIMGOMES,36,M3539,115,3:32:46,,BIOECOESPORTES
469,2019,FERNANDOFARIADEBARROS,32,M3034,97,3:32:53,,
470,366,HENRIQUEMERLINO,51,M5054,41,3:32:53,,EQUIPEFOX
471,4807,MARCELODINIZ,45,M4549,54,3:32:56,,DINIZRUNNER
472,1814,DAVIDHAGLER,35,M3539,116,3:33:00,,OzônioRunning
473,365,DAVIDDOYLE,32,M3034,98,3:33:05,,
474,311,MAUROREZENDE,46,M4549,55,3:33:19,,serpfarma/Flamengo
475,1725,JOSELUISDOAMARAL,44,M4044,73,3:33:20,,ASCOBRAPA
476,1489,ANDRELUIZMAYWORM,39,M3539,117,3:33:23,,FOLEGOZERO
477,5931,LEANDROSANTOSDEANDRADE,36,M3539,118,3:33:25,,CHÃODOATERRO
478,4100,DANIELFERRARIGAMEIRO,35,M3539,119,3:33:26,,SULGIRO
479,4285,ARMANDOFEITOSA,40,M4044,74,3:33:33,,SULCARIOCA
480,5384,WILLIAMROBERTOVAZDEOLIVEIRA,41,M4044,75,3:33:33,,BRBVIDAATIVA/TOPSPORTS
481,360,MARCELOHENRIQUEMARTINSNUNES,38,M3539,120,3:33:34,,GIJoe
482,4718,JEFERSONLUISDASILVA,40,M4044,76,3:33:36,,SCANIACLUBE
483,710,THALESRODRIGUESLIMA,28,M2529,32,3:33:37,,AMIGOSDOWALDIR
484,5807,ROBERTOASTHINECORREA,54,M5054,42,3:33:37,,ACADEMIAAERÓBICA
485,1881,ARTURHIGA,42,M4044,77,3:33:39,,
486,6912,RAYANCOUTINHO,23,M2024,11,3:33:45,,VIDAMAIS
487,675,MAURICIOROSAL,41,M4044,78,3:33:45,,EQUILIBRIO
488,5428,NIVARDONEPOMUCENOSOBRINHO,55,M5559,18,3:33:47,,
489,197,MARCELOSEVERINODELIMA,52,M5054,43,3:33:47,,LAUTERNOGUEIRASPORTS
490,2794,RINALDOGUIMARAESBRITONETO,40,M4044,79,3:33:48,,SantiagoAscencoAssessoria
491,3101,MAURICIOFRANCISCODALUZ,54,M5054,44,3:33:49,,CHÃODOATERRO
492,6788,DINODILAURENT,36,M3539,121,3:33:55,,SPORTVIDA
493,3334,SERGIOFONSECADASILVA,45,M4549,56,3:33:55,,
494,2212,WANDERGELFUSO,38,M3539,122,3:33:56,,WINNER/WG3
495,879,WELISSONMORAIS,38,M3539,123,3:33:57,,
496,1613,DENISALVES,40,M4044,80,3:34:00,,VITALITA
497,2442,WILSONFERREIRACRUZ,32,M3034,99,3:34:07,,
498,3689,JOSEJAVIERSORUCO,35,M3539,124,3:34:11,,none
499,5553,LUCIANOABREU,37,M3539,125,3:34:13,,
500,4307,JOSEFERNANDODASILVA,55,M5559,19,3:34:15,,JFSRunningSport
501,5326,VITALFERREIRADASILVA,47,M4549,57,3:34:15,,
502,472,JONASCORREIA,30,M3034,100,3:34:15,,GPCOACHING
503,5869,MATHEUSVIEIRAMARQUES,25,M2529,33,3:34:19,,AssessoriaAndrécavalcanti
504,4999,DANIELSALOMÃOANNUNCIATO,38,M3539,126,3:34:21,,WINNER
505,2998,EDUARDOJULIOMAGDALENO,31,M3034,101,3:34:32,,Dudurunners
506,2409,HENRIQUEFLAVIODESOUZASILVA,51,M5054,45,3:34:34,,SÉRGIOSPORTS
507,148,DORIVALGUEDESDEMELO,64,M6064,5,3:34:34,,APAIXONADOSPORCORRIDAS
508,3399,GUILHERMEHUG,35,M3539,127,3:34:37,,WALTERTUCHE
509,5352,ANDRÉVERASBRAGA,43,M4044,81,3:34:38,,STARK
510,110,ANDRELUISDALAANTONIA,34,M3034,102,3:34:39,,RPersonalTraining
511,6287,VINICIUSFLORESDEQUEIROZ,30,M3034,103,3:34:49,,VIDASPORTSS
512,7138,ANTONIOCARLOSROCHACOLUCCI,40,M4044,82,3:34:52,,
513,6832,THIAGOHENRIQUEPINHEIRODESOUZA,29,M2529,34,3:34:53,,4moveRun4u
514,6606,RICARDOCHEMMER,43,M4044,83,3:34:55,,RAC
515,2826,RUIISAIASDAVEIGA,48,M4549,58,3:34:56,,nao
516,6307,MARCIOCALDAS,38,M3539,128,3:34:57,,Valverde
517,3195,MARCELOGOULARTGARCIA,36,M3539,129,3:34:58,,#CDeBEER
518,6015,FABIOMARCONDESROSA,31,M3034,104,3:35:00,,CitiusASSESSORIADECampinas
519,6444,FRANKMAGALHAESDEPINHO,40,M4044,84,3:35:00,,HFTREINAMENTOESPORTIVO
520,403,JURANDIRRABELODEARAUJO,60,M6064,6,3:35:07,,Sococo
521,4377,JOSÉAUGUSTOCOBRA,32,M3034,105,3:35:15,,
522,6138,CARLOSAUGUSTOWANDERLEY,45,M4549,59,3:35:18,,EquipeCE+3
523,1978,CARLOSEDUARDOACHOAMELLO,43,M4044,85,3:35:20,,ClubeHelvetia/SandraPoiani
524,5199,AILTONDOSSANTOSFILHO,25,M2529,35,3:35:22,,Rtraining
525,4023,FEDERICOMARTÍNEZ,27,M2529,36,3:35:29,,ESPARTANOS
526,6177,CARLOSOLIVA,37,M3539,130,3:35:31,,EQUIPELEGRAND
527,2600,WAGNERDASILVAPEREIRA,33,M3034,106,3:35:31,,EZKTEAM
528,5273,CARLOSERNESTOMENDESDOSSANTOS,54,M5054,46,3:35:33,,RÁDIOFÍSICO
529,2153,NICOLASDUPAQUIER,38,M3539,131,3:35:33,,
530,6626,IZAIASANTONIOGONCALVESGAVINA,53,M5054,47,3:35:37,,R5EXPRESSEVENTOSESPORTIVOS
531,7362,SALVIOPAIVAMENDONCAFILHO,39,M3539,132,3:35:37,,
532,7151,JOÃOBANDEIRA,41,M4044,86,3:35:39,,
533,4436,STEPHENRIONCOLLINS,43,M4044,87,3:35:41,,
534,505,PAULOCESARSANTOS,45,M4549,60,3:35:45,,Melissa
535,6711,RAFAELVIEIRAMARTINS,28,M2529,37,3:35:53,,JUIZDEFORA
536,1839,MARCELLOQUINTIERI,46,M4549,61,3:35:54,,
537,5929,VANDERLEYHENRIQUEGUERRA,45,M4549,62,3:35:55,,CASADOCORREDOR
538,189,AUGUSTOBRITO,50,M5054,48,3:35:59,,Acorjapernambuco
539,4270,EDEMILTONSANTANA,53,M5054,49,3:35:59,,CORREDORESDACUESTA/BOTUCATU
540,2347,KLEBERJESUSRIBEIROMARCONDES,37,M3539,133,3:35:59,,BARDOMOE
541,5839,FELIPETAVESBARRETO,33,M3034,107,3:36:01,,ACORUJA
542,2151,GUSTAVOVARGASDASILVASALOMAO,29,M2529,38,3:36:03,,RunAndFun
543,5864,ASSIFKHALIL,28,M2529,39,3:36:07,,AVULSO
544,6672,ANDERSONLUIZSANTANAMACHADO,36,M3539,134,3:36:08,,SAUDE2000
545,1973,VICTORERICKSANTOSBENISSE,29,M2529,40,3:36:09,,INSPIRAÇÃORUNNINGTEAM
546,2795,GERSONANTONIOBICALHO,43,M4044,88,3:36:15,,
547,7216,MISAELSANTOSSILVADESOUSA,27,M2529,41,3:36:16,,Rocinha
548,2499,ALEXSANDRODASILVAOLIVEIRA,42,M4044,89,3:36:18,,
549,499,DIEGOREYES,31,M3034,108,3:36:19,,
550,4476,FLAVIOSAMUELCHUEIRE,28,M2529,42,3:36:20,,MariosTeam
551,3204,LUIZRAPHAELROCHA,31,M3034,109,3:36:21,,CrazyDucksTriathlonTeam
552,3362,MANOELANTONIOSOUZAOLIVEIRA,52,M5054,50,3:36:25,,IgrejaMetodistaBetelCaboFrio
553,3888,JOHANNESVANIERSEL,35,M3539,135,3:36:25,,none
554,5583,JOÃOPAULOROCHAPONTE,34,M3034,110,3:36:27,,TRIATIVO
555,2861,DANIELPICCHETTINASCIMENTO,36,M3539,136,3:36:36,,Butenas
556,1873,ADILSONFERNANDESDESOUSA,36,M3539,137,3:36:37,,MOVINGRUN
557,7352,PEDROANTONIOMADALENA,56,M5559,20,3:36:42,,
558,3835,EWERTONDASILVASANTOS,29,M2529,43,3:36:45,,STIRUNNER
559,7141,JOÃODASILVA,51,M5054,51,3:36:46,,
560,199,FREDERICOJORGECAVALCANTEFAÇANHA,58,M5559,21,3:36:47,,EQUIPECHRONOSTEEM
561,441,LUIZFERNANDOBONSAVERJUNIOR,35,M3539,138,3:36:48,,FÔLEGOZERO
562,192,LEONARDOROCHA,41,M4044,90,3:36:49,,LEONARDOROCHA
563,513,ROGERIODEAGUIARLOPES,42,M4044,91,3:36:49,,EZKTEAM
564,2900,PAULORICARDOMONTENEGROBEZERRA,44,M4044,92,3:36:51,,RUNNERS
565,5959,RUDMARBASTOSGONCALVES,69,M6569,2,3:36:54,,CHÃODOATERRO
566,431,IVANILDOPASSOS,58,M5559,22,3:36:54,,IPMATERIALDECONSTRUÇÃO
567,3783,DANIELBARROSO,32,M3034,111,3:36:57,,none
568,2649,MARCOSVINICIUSDOSSANTOSLADISLAU,33,M3034,112,3:36:59,,EquipeCal
569,157,EVANDRODASILVAMACHADO,40,M4044,93,3:37:01,,cofrilalimentos
570,4083,ANTONIOCARLOSDASILVA,46,M4549,63,3:37:01,,
571,1131,SIDNEYMIRANDA,39,M3539,139,3:37:05,,ALICENALETTOTRAINING
572,1557,FELIPEBROCHADODOSREIS,36,M3539,140,3:37:06,,LuizaFellippaMarques
573,3184,CRISTIANOROQUE,40,M4044,94,3:37:06,,DuRoque
574,2786,CLAUDINEIDEARAUJORAMOS,50,M5054,52,3:37:14,,ASCOBRAPA
575,2988,RENATOJESUS,43,M4044,95,3:37:15,,START
576,5515,DAVIMARCOSVIEIRALIMA,52,M5054,53,3:37:17,,
577,381,SERGIOSOARES,38,M3539,141,3:37:17,,START
578,3797,DENILSONRONANDECARVALHO,37,M3539,142,3:37:19,,CaquendeRunning
579,1134,IGORDANIELBORDINIMARTINENA,30,M3034,113,3:37:21,,
580,5683,MÁRCIOBOTELHOFERREIRA,34,M3034,114,3:37:22,,STUDIOSAÚDE
581,7364,JOÃODOSSANTOSM.GOMES,37,M3539,143,3:37:26,,ZEZINHOMATERIAISPARACONSTRUÇÃO
582,1700,BRUNOHENRIQUEPEREIRADECALDAS,25,M2529,44,3:37:26,,PERNINHADEOURO
583,396,RUBEMFRANCISCODOSSANTOS,42,M4044,96,3:37:26,,
584,7297,CELSODOSSANTOSCORDOVIL,48,M4549,64,3:37:29,,
585,2629,CARLOSANTONIOFERNANDESDASILVA,41,M4044,97,3:37:31,,FlavioDiesel
586,1491,CLAUDIOANTONIOGARCIADECARVALHO,54,M5054,54,3:37:41,,42KASSESSORIAESPORTIVA
587,2165,PAULONEGRETTE,41,M4044,98,3:37:42,,espaçoelo
588,6758,VALTENCIRDASILVA,48,M4549,65,3:37:50,,JUIZDEFORA
589,657,RAMMONDIAS,39,M3539,144,3:37:54,,HERO
590,2333,JOAOCARLOSPERES,55,M5559,23,3:38:05,,SESI
591,6735,VAGNERVIEIRADEALMEIDA,43,M4044,99,3:38:07,,JUIZDEFORA
592,5868,CARLOSCATALDO,58,M5559,24,3:38:09,,AssessoriaAndrécavalcanti
593,3734,CARLOSALBERTOCRISTOFANI,42,M4044,100,3:38:10,,none
594,4104,RAFAELALVESPATRICIODACOSTA,35,M3539,145,3:38:17,,
595,5201,NELSONCAETANO,55,M5559,25,3:38:17,,CURITIBARUNNERS
596,787,MARCELLOGOUVEIADEOLIVEIRA,47,M4549,66,3:38:18,,FILHOSDOVENTO
597,7360,RODRIGOARAUJODOSSANTOS,34,M3034,115,3:38:19,,
598,1711,DECIOWILLIAMDASILVA,29,M2529,45,3:38:20,,Vida+
599,358,FERNANDODIOGOCOUTINHO,39,M3539,146,3:38:25,,SALUSRUNNING
600,4515,RODRIGOCÂMARADOVALE,38,M3539,147,3:38:27,,RIOSAÚDE
601,4595,DIEGOLUIZSANTOS,26,M2529,46,3:38:29,,
602,3044,SEBASTIANBECERRA,39,M3539,148,3:38:29,,BarbeitosTeam
603,882,RICARDOALVESMARINHO,43,M4044,101,3:38:29,,
604,4816,CHARLLESMARTINSPEREIRA,26,M2529,47,3:38:32,,CORDELLATRIATHLON
605,995,CARLOSGERALDORODRIGUESREISJUNIOR,28,M2529,48,3:38:33,,CLUBEDECORRIDANIXONFERNANDES
606,3971,WILSONGUILLENGONZALEZ,56,M5559,26,3:38:35,,
607,418,FERNANDOABREU,45,M4549,67,3:38:36,,OiStart
608,4022,GONZALOGUILLENRUGGIERO,25,M2529,49,3:38:36,,CORREDORESDELBUCEO
609,6569,ANDRECOUTINHO,50,M5054,55,3:38:41,,MPR
610,1083,ALBERTOJORGEMARQUESRODRIGUES,41,M4044,102,3:38:45,,AcorjaRecife-PE
611,383,ROBERTOSANTANA,47,M4549,68,3:38:48,,Rocinha
612,2096,FABIANOCOELHOHORIMOTO,44,M4044,103,3:38:53,,TeamClínicaVita
613,2728,JOAOANTONIOCHULADECASTRO,34,M3034,116,3:38:53,,StartRun/NuCiDH
614,6282,ANTONIOCEZARPETRUCCIRODRIGUES,53,M5054,56,3:38:55,,find
615,2232,FELIPEDANIELCOSTAMORO,29,M2529,50,3:38:56,,Webtreino
616,6260,REGINALDODUARTEDALUZ,44,M4044,104,3:38:57,,EQUIPERUNNERSRIO
617,2491,ANDERSONSILVA,38,M3539,149,3:38:59,,
618,3495,MURILONASCIMENTODOSSANTOS,41,M4044,105,3:38:59,,ENDURANCE
619,4941,RODOLFOFERRACIOLLIBEZERRA,33,M3034,117,3:38:59,,ODAIRPRATA/WIRK/ATC
620,3600,LUISFERNANDOPALAVECINODELARUA,40,M4044,106,3:39:00,,none
621,3257,JEREMIASRIBEIRODEOLIVEIRA,35,M3539,150,3:39:02,,VIAÇÃO1001
622,4151,ANTONIOAUGUSTODEOLIVEIRA,45,M4549,69,3:39:05,,ADEMIRPAULINO/FIRSTCLASSPAMPLONA
623,4394,LUCIANOPEDREIRADASILVA,34,M3034,118,3:39:07,,
624,5001,ODAIRZUELIJUNIOR,38,M3539,151,3:39:08,,RFTREINAMENTO
625,1124,JOSEGERALDODEOLIVEIRA,47,M4549,70,3:39:09,,
626,3551,DOUGLASWILLIAMFERREIRAESTEVES,29,M2529,51,3:39:11,,CrazyDucksTriathlonTeam
627,3377,ALEXANDREROMANELLI,29,M2529,52,3:39:13,,GARCARUNNING
628,3376,WALLACEWANDER,29,M2529,53,3:39:14,,
629,4666,ROBERTOMARTINSDOSSANTOS,34,M3034,119,3:39:19,,
630,2036,EDIONESANTOS,32,M3034,120,3:39:21,,NÃO
631,6435,HENRIQUEMENDES,30,M3034,121,3:39:21,,GUANATRAINER
632,4424,BRUNOZAWADZKI,31,M3034,122,3:39:26,,TOSCANO
633,6871,MÁRCIOROGÉRIOPEREIRAFERREIRA,32,M3034,123,3:39:29,,MORONESAÚDEEBEMESTAR
634,2594,ADALBERTOPEDRODOSSANTOS,46,M4549,71,3:39:29,,EQUIPESAIDAFRENTE
635,2775,MARCELODEOLIVEIRA,45,M4549,72,3:39:31,,
636,5113,EDUARDODEMARIOMENDES,31,M3034,124,3:39:39,,
637,6068,NAILTONDEOLIVEIRASANTOS,40,M4044,107,3:39:41,,AABB-SP
638,4881,GEOVANASCIMENTO,55,M5559,27,3:39:47,,
639,6692,HENRIQUEDESOUZA,39,M3539,152,3:39:48,,JUIZDEFORA
640,1911,HAMILTONALMEIDAALVES,50,M5054,57,3:39:50,,VENTANIA
641,2329,WAGNERFURLANSPAVIER,40,M4044,108,3:39:51,,
642,4271,EVANDROMUNIZVAGO,43,M4044,109,3:39:52,,
643,6595,FABIOOLIVEIRADEABREU,35,M3539,153,3:39:53,,NEWRUNNERSTEAM
644,3494,BERNARDOCASTANONSANTOSVALLE,29,M2529,54,3:39:57,,Filhodamãe
645,6009,ANDERSENOSORIOSILVA,33,M3034,125,3:39:57,,EquipeSergioSport
646,3484,ANDREISANTOS,37,M3539,154,3:40:01,,TioKrieger
647,5930,JACKSONMOURAMORAIS,44,M4044,110,3:40:05,,CASADOCORREDOR
648,881,RUEDIGERSCHILS,48,M4549,73,3:40:09,,
649,5544,DJALMADEARAUJOCOSTA,51,M5054,58,3:40:13,,
650,4580,LUIZCLAUDIODECASTROSOUZA,27,M2529,55,3:40:15,,
651,2307,NORBERTOROCHATAVARES,47,M4549,74,3:40:20,,SAIDAFRENTE
652,3319,CASSIOMURILOLIMASOUZA,44,M4044,111,3:40:26,,MPR
653,4292,FLAVIOCOSTADOSSANTOS,39,M3539,155,3:40:31,,COM-DOR
654,2753,RENANTAVARESDETOLEDO,27,M2529,56,3:40:32,,ADRIANOBASTOS
655,5615,GUSTAVOADOLFOVAZ,43,M4044,112,3:40:41,,
656,493,AMARILDOALBERTOMARQUESRODRIGUES,39,M3539,156,3:40:42,,AcorjaRecife-PE
657,4401,RODRIGOKALINOWSKI,39,M3539,157,3:40:42,,BNDES
658,346,CHARLESSALATIEL,37,M3539,158,3:40:43,,EQUIPEFÁBIOCOSTA
659,3286,LEONARDONALINI,34,M3034,126,3:40:44,,
660,5851,HELEOMARGARCIADASILVA,51,M5054,59,3:40:44,,Arcelormittal/Aest
661,6839,WANCLEYSANTOS,36,M3539,159,3:40:46,,COOLTREANING
662,2101,SILVIORODRIGUESSANTOS,49,M4549,75,3:40:47,,RAFAELPERALVAASSESSORIAESPORTIVA
663,7111,GUSTAVOLUIZDASILVA,29,M2529,57,3:40:48,,MARCADORESDERITMO
664,348,JORGEPAESCOENTRO,52,M5054,60,3:40:48,,UltrasdoCerrado
665,3394,FELIPPEJUDICE,32,M3034,127,3:40:49,,NaBrasa
666,400,ALCEMINIOMARTINS,48,M4549,76,3:40:54,,
667,368,LUIZFERNANDOROMEIRO,58,M5559,28,3:41:03,,CORREGALERA
668,1672,RENATOANGELODEOLIVEIRA,48,M4549,77,3:41:04,,ACORLAF
669,1937,RODRIGODASILVALIMA,36,M3539,160,3:41:08,,EquipeFôlegozero
670,2257,VICTORFRAIZ,32,M3034,128,3:41:09,,MINKMUFLA
671,3585,GABRIELCORREAKRUSCHEWSKY,34,M3034,129,3:41:10,,MASMORRA
672,386,ELSONMAXFERNANDESDAFONSECA,37,M3539,161,3:41:12,,MFRUNASSESSORIAESPORTIVA
673,2507,FLAVIOMORAES,35,M3539,162,3:41:12,,MAXIMIZEASSESSORIAESPORTIVA
674,2089,RICARDOLUISRODRIGUESVIANA,42,M4044,113,3:41:13,,
675,6657,PEDROSOARESMACIEL,43,M4044,114,3:41:17,,RUN&FUN
676,5932,ANTONIOCARLOSMELO,54,M5054,61,3:41:17,,CHÃODOATERRO
677,2911,ALLANDIASDECARVALHO,36,M3539,163,3:41:25,,D-RunCampinas
678,2308,NACELIOINACIOPARENTE,47,M4549,78,3:41:28,,ZONAALVO
679,4198,CLAUDIONEIBOUSQUET,44,M4044,115,3:41:28,,FUZILEIRONAVAIS
680,3501,JOAORAIMUNDOARAUJORIOS,55,M5559,29,3:41:28,,GrupodecorridaNixonFernandes
681,4422,BRUNNOESTIGARRIBIAWALTER,29,M2529,58,3:41:30,,
682,1882,RODRIGOMULLERNASCIMENTO,32,M3034,130,3:41:30,,EquipeMárciaFerreira
683,4013,LEANDRODESIQUEIRAPEREIRA,32,M3034,131,3:41:34,,MORGANAASSESSORIAESPORTIVA
684,1119,AFONSOCELSORODRIGUESDOSSANTOS,49,M4549,79,3:41:35,,ACADEMIABIOATIVA
685,3179,MARCELOMENDONCADEB.DANTAS,35,M3539,164,3:41:37,,TeamPerformance
686,3514,WALTEROSCARZINO,44,M4044,116,3:41:38,,CORRERVIVIENDO
687,7114,PAULODASILVAEVANGELISTA,59,M5559,30,3:41:39,,MARCADORESDERITMO
688,5700,SASCHAFENNEL,51,M5054,62,3:41:42,,ALEMANHA
689,5516,JULIOCESARDINIZMONTEIRODEBARROS,43,M4044,117,3:41:44,,ANSEFBH
690,3021,DIEGOLATESSA,37,M3539,165,3:41:46,,adidasparquecentenario
691,4163,WALLACEDASILVA,45,M4549,80,3:41:51,,
692,2873,FELIPESPOLAVORIMARTINS,34,M3034,132,3:41:53,,
693,5948,JOSELUIZFERNANDES,51,M5054,63,3:41:56,,CHÃODOATERRO
694,3930,JUVENALDEOLIVEIRANUNES,46,M4549,81,3:41:58,,JUNGLERUNNERS
695,825,OSMARANTONIOARAUJOMELO,49,M4549,82,3:42:03,,Igastcorrertoledo
696,4298,ELVISMAGNODASILVALEITÃO,39,M3539,166,3:42:04,,RIOTINTO
697,6237,CLEBIOGABRIEL,49,M4549,83,3:42:05,,EQUIPERUNNERSRIO
698,3144,LUIZDECARVALHOSILVA,56,M5559,31,3:42:06,,AcademiaFormaTotal
699,6036,ENRICOMENDESSERGIO,30,M3034,133,3:42:08,,CORRERENTREAMIGOS
700,2641,GUSTAVOSOARES,33,M3034,134,3:42:10,,
701,1102,ALEXANDRESANCHESMARTINS,44,M4044,118,3:42:18,,NOISDOIS
702,4313,LINCOLNNETTOROQUE,40,M4044,119,3:42:20,,TRIRUNNERACESSÓRIAESPORTIVA
703,732,DELSONBITTENCOURTLOUSADA,41,M4044,120,3:42:23,,Sergiosport
704,7036,CHMURAJAN,66,M6569,3,3:42:24,,
705,3210,GILDOJOSEDEQUEIROZ,49,M4549,84,3:42:27,,RUNNERS
706,7136,JORGECERQUEIRASOUZAFILHO,49,M4549,85,3:42:32,,
707,1530,JEANMARIEBOURGEOIS,63,M6064,7,3:42:33,,CHARLESLEGEND
708,6235,GLAUCOBARBOSAMATTOZOPONTES,30,M3034,135,3:42:33,,EQUIPERUNNERSRIO
709,5871,EVERSONGUIMARAESMONTEIRO,39,M3539,167,3:42:35,,AssessoriaAndrécavalcanti
710,5101,DOUGLASMENDESLOPES,31,M3034,136,3:42:46,,EQUIPEU.F.A.!
711,6472,JEFFERSONNUNESPEREIRAJUNIOR,34,M3034,137,3:42:48,,jefPereira
712,813,MARIODUARTE,36,M3539,168,3:42:48,,STREETRUNNERS
713,3978,SERGIOLEONARDONUÑEZ,48,M4549,86,3:42:52,,
714,5902,FLAVIORICARDOPRADODASILVA,53,M5054,64,3:42:52,,BR2AssessoriaEsportiva
715,6757,JOSEVICENTEDESALES,62,M6064,8,3:42:52,,JUIZDEFORA
716,6139,ANDREVODOPIVES,46,M4549,87,3:42:53,,EquipeCE+3
717,7306,JORGEALMEIDA,50,M5054,65,3:43:02,,Legrand
718,716,MARCIOJOSEDEFREITAS,42,M4044,121,3:43:02,,goodrun
719,185,DAVIDMATTOS,35,M3539,169,3:43:03,,ProRibeiro
720,6789,AROLDOJOSEAIRESDACRUS,49,M4549,88,3:43:05,,START
721,2982,HENRIQUEHOFF,28,M2529,59,3:43:07,,AcademiaAquariusCampinas
722,6181,CARLOSSILVA,40,M4044,122,3:43:08,,EQUIPELEGRAND
723,5547,PAULOROBERTOBELLOTTIVARGAS,52,M5054,66,3:43:09,,CORREDORESDERUADECASTELO-ES
724,1481,WAGNERTEIXEIRAOLIVEIRAGRAVINA,30,M3034,138,3:43:12,,equipedecorridaVEMCORRER
725,2359,WLAMIRMOLETTO,53,M5054,67,3:43:16,,RUNUP
726,438,JOAOHONORIODUARTEJUNIOR,33,M3034,139,3:43:18,,SANTIAGOASCENÇO
727,2068,ROGERIOLEVYDEQUEIROZ,38,M3539,170,3:43:19,,ADRIANOBASTOS
728,4992,CARLOSMAGNODESOUZACANDINHO,38,M3539,171,3:43:25,,RWCORRIDA
729,4574,BRUNOMARQUESCASTANON,37,M3539,172,3:43:31,,LorenzoOlivatoCastanon
730,6851,FILIPEDUARTELOPES,30,M3034,140,3:43:37,,RJZCYRELA
731,5348,DEIWEPEREIRAFURTADO,36,M3539,173,3:43:38,,POPCORNRUNNERS
732,781,ANTONIOGONCALVESDEOLIVEIRANETO,60,M6064,9,3:43:40,,zezinhomateriais/guaraclin
733,325,RAFAELDINIZSEPULVEDA,28,M2529,60,3:43:41,,RAFAELPERALVAASSESSORIA
734,783,RAFAELAVANCINI,40,M4044,123,3:43:44,,FÔLEGOZERO
735,1863,SIDNEYMACEDODEMORAES,46,M4549,89,3:43:44,,#Foca
736,5764,JOSÉSINVALSOUZAFERREIRA,63,M6064,10,3:43:47,,
737,3289,JOSEMARIOMARQUESDOSSANTOS,44,M4044,124,3:43:49,,EQUIPEMÁRIORUNNERS
738,1297,ADRIANOMIRANDA,42,M4044,125,3:43:50,,FLRunner
739,4986,OSVALDODIASDEOLIVEIRA,42,M4044,126,3:43:55,,MITOCÔNDRIASSP
740,3253,ROMULOLUIZDECARVALHO,34,M3034,141,3:43:59,,JULIOCASTRO
741,1669,EDSONJOSEDASILVA,45,M4549,90,3:44:00,,RWASSESSORIADECORRIDA
742,447,VAGNERPINTO,44,M4044,127,3:44:01,,deiamari
743,2136,JOSECLAUDIODEJESUSFILHO,34,M3034,142,3:44:01,,MILHASASSESSORIAESPORTIVA
744,7053,SEANWALSH,30,M3034,143,3:44:02,,
745,6232,ENEASFRANCISCOLEITE,35,M3539,174,3:44:03,,EQUIPERUNNERSRIO
746,4168,ELSONAKIOOTAKE,51,M5054,68,3:44:08,,CORREBRASIL
747,350,CARLOSALBERTOMARQUESTEIXEIREA,48,M4549,91,3:44:10,,duarteteam
748,741,ANTONIOCARLOSRODRIGUESJUNIOR,44,M4044,128,3:44:11,,CaradeCão
749,4585,RAFAELDECASTROBORGESSAMPAIOVIANNA,35,M3539,175,3:44:14,,RafinhaRunning
750,1476,KAZUOINOUE,32,M3034,144,3:44:16,,nao
751,4949,ALBANROLLAND,41,M4044,129,3:44:19,,
752,2524,OZIELLOUREIRODASILVA,40,M4044,130,3:44:25,,
753,1710,HAMILTONMOLLAR,35,M3539,176,3:44:28,,WINNER/WG3
754,3168,JORGEIRANDASILVARODRIGUES,34,M3034,145,3:44:30,,EnjoyRunning
755,2438,BRUNOSANTANALIMA,38,M3539,177,3:44:33,,GETRUNNING
756,1951,EDUARDOSILVA,40,M4044,131,3:44:34,,
757,3515,EDGARDOHERNANVERDE,42,M4044,132,3:44:40,,none
758,5953,CELSOGUILHERMEMORISSONFERREIRA,28,M2529,61,3:44:41,,CHÃODOATERRO
759,1346,SILVANODASILVADIAS,45,M4549,92,3:44:44,,ASCOBRAPA
760,2780,CARLOSEDUARDOOLIVEIRA,35,M3539,178,3:44:46,,Sprint/ADHering
761,910,REGINALDOCAIRESDELIMA,50,M5054,69,3:44:46,,3ºBEC
762,436,EVANDROPINTO,42,M4044,133,3:44:52,,RUNUP
763,4709,JORGEANTÔNIODEMATTOS,60,M6064,11,3:44:54,,
764,811,MARTONDANIELGRALA,39,M3539,179,3:45:00,,
765,5661,JOSEALVAROPEREIRADASILVA,37,M3539,180,3:45:01,,BALEIAS
766,3259,CUSTODIOTEIXEIRAMOREIRAFILHO,64,M6064,12,3:45:05,,TAMOJUNTO
767,736,ROGERIODOSSANTOS,41,M4044,134,3:45:05,,potencial/scrapeartes
768,6012,ALDAIRROBERTODEJESUS,68,M6569,4,3:45:07,,CORRERENTREAMIGOS
769,2297,CARLOSMAGNOEVANGELISTA,54,M5054,70,3:45:08,,CCCPiracicaba
770,6695,MARCIOCOSTAAMORIM,43,M4044,135,3:45:10,,JUIZDEFORA
771,6290,VICTORHUGOLUBIANOMARGATO,27,M2529,62,3:45:12,,EQUIPEINSANOS
772,3294,RONALDORODRIGUES,35,M3539,181,3:45:12,,
773,5260,VITORCORREIALIMAFRANÇA,39,M3539,182,3:45:12,,
774,3739,COSMEROCHACONCEIÇÃO,58,M5559,32,3:45:14,,
775,4913,GUSTAVOHENRIQUEGOMESSBRUZZI,34,M3034,146,3:45:17,,
776,385,WELLINGTONLEITE,46,M4549,93,3:45:19,,MarceloRochaAssessoriaEsportiva
777,2699,GUSTAVOSANTOS,35,M3539,183,3:45:20,,
778,6517,LUIZCARLOSDEFREITASSANTOS,39,M3539,184,3:45:20,,MAXIMIZEASSESSORIAESPORTIVA
779,3851,JERRECARLOSRIBEIROALVES,46,M4549,94,3:45:22,,none
780,5013,ALTAMIROCALDONAZOJUNIOR,57,M5559,33,3:45:30,,PONTODOAÇAI/VARGINHA
781,167,RICARDOLUISBOCCO,40,M4044,136,3:45:31,,Ironteam(Argentina)
782,2233,FABIOSENARODRIGUES,35,M3539,185,3:45:32,,
783,1296,FELIPPEDINIZDEANDRADE,35,M3539,186,3:45:33,,
784,2909,WARLEYLOPESMOREIRA,36,M3539,187,3:45:36,,
785,3374,SANDROGOUVEIA,42,M4044,137,3:45:39,,CLUBEDOCORREDORDESANTATERESA
786,3826,SERGIOOLIVEIRA,49,M4549,95,3:45:40,,CORPORESANO
787,875,RAPHAELBRUM,34,M3034,147,3:45:42,,
788,5274,WILLIAMSSANTOSPAIXAO,43,M4044,138,3:45:45,,PÉNOCHAO
789,1141,ALFONSOALFREDOCHINCAROBERNUY,49,M4549,96,3:45:46,,Kukurrer
790,6173,ADRIANOMARTINS,29,M2529,63,3:45:47,,EQUIPELEGRAND
791,5721,JOSÉCÂNDIDORIFANSUETH,66,M6569,5,3:45:53,,
792,700,MATHEUSFRANCO,26,M2529,64,3:45:56,,
793,218,MIROSLAVGLIGOREVIC,53,M5054,71,3:46:00,,
794,2932,SANDRORAFAELBARIONIDEMATOS,36,M3539,188,3:46:01,,DUARTETRITATHLONTEAM
795,2855,EDUARDODOSSANTOSLEONEL,35,M3539,189,3:46:02,,LEONELRUN
796,4698,MASSAMIITO,32,M3034,148,3:46:06,,NIKKEIARARUAMA
797,5156,ILTONUEMURA,29,M2529,65,3:46:08,,TáComTempo?
798,5660,CARLOSFREDERICODACOSTAPINTO,48,M4549,97,3:46:10,,START
799,2433,DANIELCRUZJUNIOR,43,M4044,139,3:46:11,,CORREBRASIL
800,1724,MARCELOMORAESMELO,36,M3539,190,3:46:12,,FortesTraining
801,7205,RENATOMARTINSPIRES,44,M4044,140,3:46:13,,PREFEITURADORIO
802,3486,FABRICIOBRAGA,40,M4044,141,3:46:14,,TrisportoTeamVelox
803,1554,LUIZANTONIODEFRANCA,39,M3539,191,3:46:15,,AMIGOSQUECORREM
804,1366,CARLOSFUADCHAIBEN,34,M3034,149,3:46:16,,
805,4838,MARCOSEDUARDODESANTIS,44,M4044,142,3:46:18,,
806,6144,ROMULOFERREIRADASILVA,32,M3034,150,3:46:21,,EquipeCE+3
807,3935,RICARDOFORTESBUSTAMANTESA,52,M5054,72,3:46:22,,ALBERTOCAMPOS
808,1229,JOSELUISBERTONCELLOS,39,M3539,192,3:46:25,,noiasrun
809,5314,MÁRCIOSOUZAMONTEIRO,41,M4044,143,3:46:25,,PEDURO
810,1712,SERGIOLUISFRANCISCODASILVA,47,M4549,98,3:46:26,,
811,5158,FERNANDOHENRIQUEBORGES,28,M2529,66,3:46:27,,SWIMBIKERUN
812,808,MARCIOPEREIRAROSEIRA,40,M4044,144,3:46:30,,2ºGMar
813,1735,ANTONIOJOSEFERREIRASANTOSJUNIOR,35,M3539,193,3:46:34,,FARNEZIASSESSORIAESPORTIVA
814,6559,LUIZFERNANDODAPENHADELARA,40,M4044,145,3:46:40,,MLMIXRUN
815,1520,ANDERSONKIKUCHI,36,M3539,194,3:46:41,,CTPF
816,3950,FERNANDOJOSEROLANDDEOLIVEIRA,41,M4044,146,3:46:41,,HABILITE
817,4794,JONASRIBEIROPORTO,28,M2529,67,3:46:43,,JOAQUIMFERRARI
818,6445,LUCIANOFAGUNDESDEPAULA,36,M3539,195,3:46:43,,HFTREINAMENTOESPORTIVO
819,2396,RAMILIOJOAOPIRESFILHO,45,M4549,99,3:46:44,,CORREBRASIL
820,3372,SERGIOOLIVEIRADAROCHA,53,M5054,73,3:46:51,,PcerjRunners
821,4787,RAFAELFERREIRADEOLIVEIRA,28,M2529,68,3:46:59,,TWITTERSRUN
822,4969,MARCOSSAKUMA,38,M3539,196,3:47:01,,U.F.A
823,6873,LEANDRODASILVAPIRES,37,M3539,197,3:47:02,,Lince
824,6555,PATICKPIERROVIGIO,29,M2529,69,3:47:02,,MLMIXRUN
825,2261,FRANCISCOMARTINSTEIXEIRA,44,M4044,147,3:47:04,,
826,5994,SIDINYCEZARDAS.SOUZA,41,M4044,148,3:47:04,,CORPUSVITALLE
827,1305,RAFAELGODOYDALBONIDELIMA,32,M3034,151,3:47:05,,WALTERTUCHE
828,484,JARDELDEMOURAOLIVEIRA,29,M2529,70,3:47:07,,JARDELMOURAASSESSORIAESPORTIVA
829,4680,ARTHURCARNEIRO,33,M3034,152,3:47:10,,RUN
830,4745,ADAILTONAGUIAR,44,M4044,149,3:47:11,,GREMIOMUMITANHAEM
831,6116,SERGIORODRIGUESMAGGESSI,39,M3539,198,3:47:12,,EMBRATEL
832,2370,GUSTAVOFIGUEIREDO,34,M3034,153,3:47:14,,D&lAssessoria
833,4844,ALEXANDREMARCOSFARIADESOUZA,44,M4044,150,3:47:18,,EricssonRunning
834,6156,LEONARDOROCHA,34,M3034,154,3:47:19,,EQUIPEHELAYNEEARYANE
835,2439,MURILOFERNANDOGROMBONI,29,M2529,71,3:47:21,,RAMON/AQUARUNNING
836,4843,EDILSONDESOUZABIAS,57,M5559,34,3:47:22,,FAMÍLIASECUNDO
837,6635,LUISANTONIOD?ANGELOJUNIOR,26,M2529,72,3:47:31,,R5EXPRESSEVENTOSESPORTIVOS
838,6844,DIEGOANTONIOMAIACARVALHODEALMEIDA,31,M3034,155,3:47:33,,CAIXA
839,4657,FELIPEMAURICIOFRANCO,34,M3034,156,3:47:35,,
840,7302,BRUNOABUD,37,M3539,199,3:47:35,,
841,5144,JOSÉROBERTOBUENOPELOSO,57,M5559,35,3:47:37,,SPACERUNNERS
842,7186,RODRIGOARAUJO,47,M4549,100,3:47:38,,42KASSESSORIAESPORTIVA
843,3387,ANDERSONLEAL,43,M4044,151,3:47:38,,
844,2867,JORGEVALENTE,46,M4549,101,3:47:40,,SPRINT
845,4804,IGORDEALMEIDAFERREIRA,28,M2529,73,3:47:41,,
846,5512,PEDROBERREDO,39,M3539,200,3:47:43,,RABUGENTOSDOCERRADO
847,4328,LUCIOFLAVIOBARBIZANDAROCHA,32,M3034,157,3:47:43,,DERMOFORMULAS
848,508,RODRIGOGONCALVESNEVES,31,M3034,158,3:47:45,,MovementeRun
849,1832,JUANDELACRUZTRINCADOHEVIAJUNIOR,39,M3539,201,3:47:46,,
850,6801,MARCOSDANIELEVANGELISTAGOMES,50,M5054,74,3:47:51,,START
851,7088,DANRODELL,47,M4549,102,3:47:53,,
852,6443,EMERSONGERALDODESENA,39,M3539,202,3:47:54,,GUANATRAINERASSESSORIAESPORTIVA
853,4573,ALEXANDREHARRISONDEMORAIS,44,M4044,152,3:47:54,,EQUIPEKURURUS
854,6038,DIOGONUNESMIGUELDEOLIVEIRA,29,M2529,74,3:47:54,,CORRERENTREAMIGOS
855,104,JONIQUIRINO,40,M4044,153,3:47:55,,SULGIRO
856,5738,NILSONPAULODELIMA,62,M6064,13,3:47:59,,PARKIDIOMAS
857,7214,JOSEATAÍDESPEREIRALIMA,27,M2529,75,3:48:02,,Rocinha
858,7211,FRANCISCODEASSISSILVA,50,M5054,75,3:48:02,,Rocinha
859,6141,LEONARDOMICHELSENMONTEIRODEBARROS,40,M4044,154,3:48:05,,EquipeCE+3
860,6867,RONEYDEOLIVEIRAGRANEMANN,53,M5054,76,3:48:05,,
861,1865,ADENILSONLEOCADIO,27,M2529,76,3:48:08,,Bartaacessória
862,6563,THIERRYFIGUEIRA,37,M3539,203,3:48:09,,MLMIXRUN
863,5413,ADEVANSILVAPEREIRA,40,M4044,155,3:48:12,,ADEVANPEREIRA
864,1878,ALIRIODEFREITASCASTRO,64,M6064,14,3:48:13,,
865,4824,ANDERSONBOS,38,M3539,204,3:48:14,,CORREBRASIL
866,795,GILBERTOAMITRANO,47,M4549,103,3:48:14,,ProfessorGilberto
867,6428,CASSIOCOSTADINIZ,36,M3539,205,3:48:18,,AVULSO
868,5391,JOSÉELÍSIOFERREIRAJUNIOR,53,M5054,77,3:48:22,,LOPOTRAS
869,4693,CICEROFRANCISCXOFILHO,51,M5054,78,3:48:23,,DEUSMEAJUDE
870,496,PETTERSONAMARAL,37,M3539,206,3:48:27,,RunnersClub
871,5116,MARCELOGIGLIO,32,M3034,159,3:48:28,,Self.run
872,426,CASSIOHENRIQUEVAZLEMES,24,M2024,12,3:48:35,,Caveira
873,656,PAULOTITOMACHADO,49,M4549,104,3:48:36,,
874,1778,CLAUDIOGUTHER,37,M3539,207,3:48:37,,
875,5285,ALEXANDREMENDES,41,M4044,156,3:48:37,,SAFORTALEZA
876,2353,ADILSONNANTES,38,M3539,208,3:48:37,,
877,1095,WARISONLUIZNOGUEIRASILVA,31,M3034,160,3:48:40,,UCR
878,1043,ALEXANDREPAULINO,42,M4044,157,3:48:40,,
879,4775,SANDROPAULA,42,M4044,158,3:48:40,,CORPODEBOMBEIROS-SP
880,858,BARTOLOMEUMARQUESRODRIGUES,35,M3539,209,3:48:45,,AcorjaRecife-PE
881,2412,MARCELOKOBAYASHI,37,M3539,210,3:48:46,,ZTRACK
882,2138,PAULOBEKMESSIANPINHEIRO,34,M3034,161,3:48:46,,BKSports
883,2105,PAULOSERGIOFALCAO,44,M4044,159,3:48:47,,
884,4926,DANILOJOSELIBARDI,34,M3034,162,3:48:49,,Insanos
885,674,VICTORDASILVABARROS,33,M3034,163,3:48:52,,STUDIOLIFE
886,2984,MIGUELCANEDO,37,M3539,211,3:48:53,,FernandoDiniz
887,4182,RONALDOCESAROLIVEIRASANTANA,46,M4549,105,3:48:57,,SULCARIOCA
888,5810,ZAILTONCAVALCANTEDESOUZA,52,M5054,79,3:49:03,,AcademiaSanchesSports
889,6269,MARCOSJOSEDEMELO,42,M4044,160,3:49:06,,E.C.TAVARES
890,393,SAMUELDOMINGOSLEAL,35,M3539,212,3:49:08,,CORRERVIVER
891,3664,DANIELCAUSINAZEVEDO,31,M3034,164,3:49:09,,ALBERTOCAMPOS
892,5735,SIDNEYPEREIRADESOUZA,60,M6064,15,3:49:10,,CATRACASDOSERTÃO
893,6511,CASSIODEOLIVEIRAESOUZA,42,M4044,161,3:49:10,,LOBOASSESSORIA
894,7123,LUÍSSERGIORODRIGUESDASILVA,48,M4549,106,3:49:10,,ALBERTOCAMPOS
895,372,SERGIOMENDES,42,M4044,162,3:49:15,,STARK
896,771,FLAVIOMATSUHASHI,42,M4044,163,3:49:15,,SportFitness
897,2852,ANDREMARTINSBASTOS,37,M3539,213,3:49:17,,ALTAVELOCIDADE
898,6003,HEGLISSONALVESGOMES,42,M4044,164,3:49:17,,CORREDORESAMIGOS
899,7307,CARLOSHENRIQUEJUNIOR,41,M4044,165,3:49:18,,Legrand
900,5812,GUILHERMENAKASHIMABELINI,33,M3034,165,3:49:19,,AcademiaSanchesSports
901,1004,JULIOCEZAR,33,M3034,166,3:49:21,,EquipeAguia
902,5750,LAUMIRDASILVACERTO,62,M6064,16,3:49:21,,APPAI/CBMERJ
903,921,LEONARDOPAIVAOLIVEIRAAZEVEDOCAMPOS,30,M3034,167,3:49:21,,FÔLEGOZERO
904,6693,ALEXANDREDASILVAASSIS,44,M4044,166,3:49:29,,JUIZDEFORA
905,176,NEILBENNETT,50,M5054,80,3:49:30,,none
906,3709,MICHAELSPENCER,45,M4549,107,3:49:30,,none
907,1952,RAONIFERREIRA,31,M3034,168,3:49:31,,SOUTRI
908,4305,FLÁVIOLUIZDASILVABORBA,45,M4549,108,3:49:35,,
909,2958,JOAONETO,41,M4044,167,3:49:50,,
910,5266,JORGEDENNISPINTODANTAS,41,M4044,168,3:49:52,,TRIATIVO
911,1222,GUSTAVOBORGES,29,M2529,77,3:49:54,,morroacima
912,407,PEDROCARLOSPAIXAOJUNIOR,39,M3539,214,3:49:55,,MARCHALENTA
913,3051,MIGUELBARRETO,36,M3539,215,3:49:55,,LosRojos
914,4255,RODRIGOZANELLI,40,M4044,169,3:49:59,,
915,384,GUSTAVOMILEGOPEREIRA,34,M3034,169,3:50:01,,RUNUP
916,2117,VICTORDEANTONI,26,M2529,78,3:50:04,,FortesTraining
917,4607,OSWALDOMANTUANOJUNIOR,42,M4044,-,3:50:05,DAU,VALORIZANDOASDIFERENÇAS
918,2241,VAGNERLOPESFARIA,33,M3034,170,3:50:07,,#VAIQDA
919,4747,ALEXANDREEMERSONDASILVA,43,M4044,170,3:50:11,,PINDARUN
920,5378,RENATODEMELLOSANTOS,57,M5559,36,3:50:12,,
921,4423,EDUARDOOLIVEIRADEFREITAS,38,M3539,216,3:50:13,,
922,1940,CHRISTOPHERROBINCHOW,27,M2529,79,3:50:20,,NOVAEQUIPE
923,1663,PAULOCESARDECASTRO,47,M4549,109,3:50:21,,correprajesus
924,3529,APRIGIOTRAJANODACUNHANETO,42,M4044,171,3:50:21,,CORPORESANO
925,1039,BRUNOGUIMARAESMACIEL,33,M3034,171,3:50:22,,
926,4464,MARCELOJORDÃOLOPESDASILVA,48,M4549,110,3:50:25,,RFALSARELLA/NATPEDROBALDO
927,1717,JULIOCESARFERREIRADOSPASSOS,34,M3034,172,3:50:25,,Porqueamamoscorrida
928,5796,JULIOBALDI,46,M4549,111,3:50:26,,4ANY1ASSESSORIAESPORTIVA
929,1224,ULISSESCHAVESGUZELLA,43,M4044,172,3:50:26,,
930,4205,FREDERICOROCHAJORGE,41,M4044,173,3:50:27,,EQUIPESULCARIOCA
931,6654,CARLOSANDREEYERDEARAUJO,45,M4549,112,3:50:29,,RUN&FUN
932,4322,MARCIOVIEIRAHOLLANDA,39,M3539,217,3:50:31,,GUERREIROS
933,2918,RUYFACHININETO,31,M3034,173,3:50:32,,PACER
934,3287,CLEOMARGOMESDASILVA,44,M4044,174,3:50:33,,
935,4864,LUISROGERIOSILVEIRA,41,M4044,175,3:50:35,,ESPORTIVUSINDAIATUBASP
936,1342,LUIZFERNANDOSILVAVIEIRADOSSANTOS,42,M4044,176,3:50:38,,RENATOMAIATREINAMENTOINDIVIDUALIZADO
937,6043,EUFRAZIOSANTOS,63,M6064,17,3:50:39,,CORRERENTREAMIGOS
938,6828,RODRIGOFABIANOBARUFFI,39,M3539,218,3:50:43,,TRIBUSADVENTURE
939,1992,LAWRENCEFERREIRACORDEIRO,41,M4044,177,3:50:43,,Asufepar2
940,1922,MARCELOJACOBDASILVA,43,M4044,178,3:50:44,,DANIBARCELOS
941,1967,EDUARDOLAVORSEGURA,37,M3539,219,3:50:46,,TRIACTION
942,5557,GUILHERMECUNHACAMPOLINAMARQUES,44,M4044,179,3:50:48,,
943,3010,IVANBORGES,57,M5559,37,3:50:48,,RitmoRun
944,2951,AMARILDOCORREA,53,M5054,81,3:50:50,,CompanhiadaCorrida
945,4940,JOSEMAURODEOLIVEIRAJUNIOR,33,M3034,174,3:50:53,,EQUIPEU.F.A.!
946,2245,EDUARDOBARBOSA,40,M4044,180,3:50:53,,4ANY1ASSESSORIAESPORTIVA
947,2482,GUILHERMEFUNGACHEBRUSSOLO,23,M2024,13,3:50:59,,
948,4425,ROGERTOLEDOGISSONI,33,M3034,175,3:50:59,,MILHAS
949,1813,THIAGODEAQUINOCABRAL,29,M2529,80,3:50:59,,UPSPORTS
950,473,GUSTAVOGASPARINIMENEGON,35,M3539,220,3:51:01,,FamíliaBuscapé
951,416,GILBERTOCARLOSDEOLIVEIRA,50,M5054,82,3:51:04,,CEMIGENERGIAVITAL
952,3567,DIEGOFELIPEPAULINO,27,M2529,81,3:51:10,,Bagaceiras
953,4604,LEONARDODEDEUSDONASCIMENTO,41,M4044,-,3:51:14,DAU,
954,2872,ESDRABARBOSADESANTANA,33,M3034,176,3:51:14,,
955,408,GERMANOSMACHADO,49,M4549,113,3:51:16,,
956,1497,WELDERAUGUSTO,26,M2529,82,3:51:18,,SNAYKS/REFERENCIALOCADORA
957,1436,JACKSONKAMMERS,33,M3034,177,3:51:19,,performance/abtri
958,3877,PEDROMARTINEZ,28,M2529,83,3:51:23,,RACE
959,4918,EDESIOCERVINOJUNIOR,53,M5054,83,3:51:23,,Bksports
960,7104,VILMARPEREIRADAROCHA,54,M5054,84,3:51:24,,CAIXA/TOPSports
961,5235,AÉRCIORODRIGUESBRAGA,54,M5054,85,3:51:29,,AERCIO
962,4180,LUIZFELIPEMOURA,57,M5559,38,3:51:29,,
963,2610,MARCOSFELIPES.DOSSANTOS,25,M2529,84,3:51:31,,"Nuts,Correndoporumavidamelhor"
964,7367,ANTONIOCARLOSMDESOUZA,56,M5559,39,3:51:36,,
965,5567,EMERSONDOSSANTOSMARIA,42,M4044,181,3:51:36,,MAGOOMARTELINHODEOURO
966,1055,FILLIPECARLOSG.DEM.ROCHA,34,M3034,178,3:51:36,,OzônioRunning
967,6748,GEDAIRSOARESDOSREIS,60,M6064,18,3:51:36,,SINTUFEJUF
968,2174,ALANSPINOLACOSTADASILVA,37,M3539,221,3:51:37,,KaymbrasdoCerrado
969,5827,FLAVIOFAEDA,32,M3034,179,3:51:39,,VELOXFITNESS
970,747,ALEXANDREMONTEIRO,41,M4044,182,3:51:42,,
971,4416,LELIOFELIPEDOSSANTOSRODRIGUES,31,M3034,180,3:51:43,,FÔLEGOZERO
972,6826,JORGEARNALDEDEOLIVEIRADUTRA,55,M5559,40,3:51:54,,TRIBUSADVENTURE
973,3457,ROQUENUNESDESOUZA,53,M5054,86,3:51:55,,TRIACAO
974,6520,CHRISTIANOMARQUESCHEDIAC,38,M3539,222,3:51:55,,MarkesRunning+
975,5353,LUIZCLÁUDIODECASTROFERREIRAJR,36,M3539,223,3:51:57,,SANTIAGOASCENÇO
976,773,WILLIANRODRIGUES,42,M4044,183,3:52:03,,
977,5404,RICARDOGUEDESGONCALVES,54,M5054,87,3:52:05,,
978,4162,RENATOFERREIRABORGES,43,M4044,184,3:52:07,,BNDES
979,4463,FABIOARREBOLALOUREIRO,39,M3539,224,3:52:10,,EQUIPEDECORRIDADAVALE
980,4265,ALVAROSANTOSJUNIOR,52,M5054,88,3:52:14,,Dinamica
981,996,CLAUDIOONA,56,M5559,41,3:52:14,,Barbeito
982,1954,PAULORICARDOOLIVEIRA,51,M5054,89,3:52:14,,PRCORUNNER
983,6561,GUSTAVOBAYAO,39,M3539,225,3:52:15,,MLMIXRUN
984,3449,MARCOSJOSEDEALMEIDALACERDA,39,M3539,226,3:52:16,,RUNNERS/OSASCO-SP
985,3686,RAMZIRAMZIABDINE,43,M4044,185,3:52:16,,none
986,6093,WILDERDOSSANTOSGOMES,40,M4044,186,3:52:16,,DELPHOS
987,1088,HELIOALEX,35,M3539,227,3:52:18,,
988,6280,EDENFERNANDESRONCADOR,47,M4549,114,3:52:18,,E.C.TAVARES
989,1058,AFRANIORAMOS,45,M4549,115,3:52:19,,
990,475,LUIZNORMANDOZANDONAIFERREIRA,36,M3539,228,3:52:19,,BODYMOVEMENTASSESSORIAESPORTIVA
991,5165,SAMUELMACIELSOARES,54,M5054,90,3:52:20,,ASUFEPARTRIATHLON
992,4095,CAIOMARXROCHAMOREIRA,31,M3034,181,3:52:25,,FITONETREINAMENTOPERSONALIZADO
993,3068,ICAROSPORCH,30,M3034,182,3:52:27,,LONGLIFE
994,840,MARCUSVINICIUSNTENORIO,44,M4044,187,3:52:28,,
995,931,MARCELOGARRIDODEOLIVEIRA,52,M5054,91,3:52:33,,Equipex
996,4862,RICARDOALEXANDREDEMANT,42,M4044,188,3:52:33,,DEMANTBROTHERS
997,3823,JUANLMUNOZ,49,M4549,116,3:52:33,,none
998,2646,PEDROQUAGLIATO,38,M3539,229,3:52:37,,BANZERUNNERS
999,2892,ERICHCHRISTIANOMADRUGADEMELO,40,M4044,189,3:52:38,,FARNEZIASSESSORIAESPORTIVA
1000,3839,JONATHANSIMONJORDAN,30,M3034,183,3:52:38,,none
1001,540,GABRIELSALGADOOLIVEIRA,33,M3034,184,3:52:40,,VoltaMonitorada
1002,6002,ISAQUEDEATAYDEFERREIRA,39,M3539,230,3:52:42,,kaymbrasdocerrado/corredoresamigos
1003,6215,CHRISTIANOMARTINSRIBEIRO,39,M3539,231,3:52:44,,NOVEDEJULHO
1004,2084,LEANDRONOGUEIRA,33,M3034,185,3:52:47,,AssessoriaMárciaProençaRunningeFitn
1005,488,JOAOBATISTAGEOVANINI,50,M5054,92,3:52:47,,
1006,2440,MARCELOTRAUTMANN,43,M4044,190,3:52:52,,Alameda
1007,5933,MARCOANTONIODOSSANTOSBARCELOS,46,M4549,117,3:52:52,,CHÃODOATERRO
1008,1869,EDREIPEREIRASILVA,26,M2529,85,3:52:52,,
1009,5388,REGINALDOCUNHATORRESQUINTANILHA,51,M5054,93,3:52:54,,START
1010,6591,DARCISIMAO,50,M5054,94,3:52:55,,NEWRUNNERSTEAM
1011,1983,FELIPETEIXEIRARIBEIRO,36,M3539,232,3:52:57,,MÁRCIAROSARUNNERS
1012,1278,PAULOANDREGOMES,38,M3539,233,3:52:58,,okboy
1013,6164,MICHAELDENISGOMESDASILVA,35,M3539,234,3:53:01,,EQUIPEHELAYNEEARYANE
1014,6295,ALEXANDREABALLONUNES,49,M4549,118,3:53:03,,EQUIPETOSCANO
1015,435,PAULOMARCELOLANTYERMARQUES,52,M5054,95,3:53:03,,100JUIZO
1016,2010,ROBERTOBEZERRA,44,M4044,191,3:53:04,,PULSERUNNING
1017,6580,PAULOGILTOSSUVE,39,M3539,235,3:53:04,,MTFITRUNASSESP
1018,392,ALDIRJOSEDESOUZA,50,M5054,96,3:53:04,,OSMADRUGADEIROS
1019,5106,RICARDOAUGUSTONALIATOVELLOSO,31,M3034,186,3:53:06,,RTRAINING/16ºGRUPAMENTODEBOMBEIROS-SP
1020,3157,MARCOSOLIVEIRAVILELA,46,M4549,119,3:53:06,,ESPAÇORUNNING
1021,5673,PAULOCESARVANNUCCIJUNIOR,47,M4549,120,3:53:07,,CORRIDARUSTICA.COM.BR
1022,6838,WANROUXINOL,39,M3539,236,3:53:08,,TOSCANO
1023,3947,CARLOSALBERTOMAGALHAESDEMELO,37,M3539,237,3:53:09,,Noteam
1024,1736,CLAUDIOCARNEIRO,37,M3539,238,3:53:10,,
1025,998,PEDROGOMES,48,M4549,121,3:53:10,,JULIOCASTRO
1026,1249,ALCEUCONCEICAOMACHADONETO,37,M3539,239,3:53:11,,4ÔES
1027,5594,GONÇALOBENÍCIODEMELONETO,34,M3034,187,3:53:12,,TRIATIVO
1028,4465,PETERTHOMASAWETZLAR,42,M4044,192,3:53:15,,MARCIAFERREIRA
1029,477,MARCELOALVAREDO,49,M4549,122,3:53:16,,VENTOESPIRITO
1030,664,SILVIOGASTALDI,51,M5054,97,3:53:17,,PACER-ARPAM
1031,1067,GUILHERMETEIXEIRA,29,M2529,86,3:53:17,,
1032,6668,MARCELOMELLOMENDES,37,M3539,240,3:53:17,,RunnersClub
1033,1701,MATEUSLUISMOREIRA,36,M3539,241,3:53:19,,MPR
1034,4584,JORGEANTONIOMARQUESJUNIOR,34,M3034,188,3:53:20,,
1035,2395,ANDERSONGARCIA,35,M3539,242,3:53:25,,CELIOLOBATO
1036,4705,LEIDIMARDESOUZASOARES,30,M3034,189,3:53:25,,MRRUNNER
1037,7357,JAIMEDEANDRADEFILHO,46,M4549,123,3:53:25,,
1038,3937,WENDELDESOUZAPERNAMBUCO,41,M4044,193,3:53:27,,UFLA
1039,2314,RODRIGOMARTINSDEOLIVEIRAALMEIDA,36,M3539,243,3:53:27,,Ozônio
1040,2908,HIGORJOSELEALMETODIO,36,M3539,244,3:53:30,,FamíliaMetódio
1041,5842,MARCIOANTONIOPEREIRAJUNIOR,34,M3034,190,3:53:34,,ACORUJA
1042,1817,ROMEUJOSEBALDISSERA,56,M5559,42,3:53:35,,MocotóRunners
1043,354,WILLIANVINICIUSBORDIN,27,M2529,87,3:53:35,,NEXTRUN
1044,4244,MATEUSMARQUES,40,M4044,194,3:53:35,,
1045,2326,DANIELMOULIN,30,M3034,191,3:53:38,,HANGOVER
1046,494,FABIOROGERIOMARTINS,34,M3034,192,3:53:40,,CORREGABS
1047,5976,EDUARDOCALILMAIATARDELLI,26,M2529,88,3:53:40,,CMxAssessoriaEsportiva
1048,1741,MARCOANTONIOPEREIRAGOES,42,M4044,195,3:53:42,,SemprenaLuta!!!!
1049,2309,EDILSONDURANTE,48,M4549,124,3:53:42,,100JUIZO
1050,6910,JORGEDOSSANTOS,49,M4549,125,3:53:42,,UPSPORTSCLUB
1051,2095,RENATODEMENEZESMENDONCA,42,M4044,196,3:53:42,,
1052,1556,CARLOSMAURICIOGASPARADOLPHO,44,M4044,197,3:53:49,,VILAREJOACASAESUA
1053,450,FRANCISCOANTONIOPASQUARELLIVIEIRA,50,M5054,98,3:53:50,,SPEED
1054,5824,MAUROA.PILAOCORREA,39,M3539,245,3:53:53,,VELOXFITNESS
1055,6314,FLAVIOVOLPATODASILVA,38,M3539,246,3:53:53,,FFSPORTS
1056,7068,CARLOSVELENCIA,26,M2529,89,3:53:54,,
1057,1225,RODRIGOSANTOS,34,M3034,193,3:53:57,,
1058,4514,SERGIODECASTROMOURA,36,M3539,247,3:54:00,,BRUGAU
1059,2092,ADALBERTONOGUEIRA,41,M4044,198,3:54:04,,EquipeFly
1060,4260,ANDREFLORESRODRIGUES,41,M4044,199,3:54:06,,SCIENCE&SPORT
1061,2488,SERGIOMURILODAC.CAMARGO,53,M5054,99,3:54:08,,
1062,6485,ALEXANDREMENDESGUIMARAES,40,M4044,200,3:54:09,,LIFECONSULTORIAESPORTIVA
1063,2841,RODRIGOCARNEIRORAMOS,31,M3034,194,3:54:10,,FAMA
1064,428,EGNOVALDOSOUZASANTOS,50,M5054,100,3:54:12,,
1065,5147,RAFAELMOREIRAUSSIER,29,M2529,90,3:54:12,,STUDIOFITNESSTEAM
1066,2804,THIAGOMAXDEOLIVEIRAAMARO,28,M2529,91,3:54:13,,BodySoulSports
1067,3304,GELCIOMENDES,46,M4549,126,3:54:16,,
1068,6755,SIDNEIBARBOSASANTOS,45,M4549,127,3:54:19,,JUIZDEFORA
1069,1281,JOAOADLBERTOPIRESDECAMPOSJUNIOR,36,M3539,248,3:54:20,,Corredoresdavam
1070,5755,JOSÉMAURÍCIOPINHATAROFERREIRA,62,M6064,19,3:54:21,,BR-50
1071,5405,JONASHENRIQUEDASILVA,46,M4549,128,3:54:26,,
1072,4815,OTACIRDEPAULAMALTA,46,M4549,129,3:54:27,,
1073,860,RENATODEFANTIDEALMEIDA,29,M2529,92,3:54:31,,BoiaRunners
1074,4675,BRUNODASILVAROCHA,34,M3034,195,3:54:31,,
1075,3807,ANDREASGIERSBERG,50,M5054,101,3:54:32,,Grosse-CoosmannSportreisen
1076,7296,ANTONIODORRGOLGENSTEIN,39,M3539,249,3:54:33,,
1077,2764,ELDSONMARTINS,27,M2529,93,3:54:33,,MARUN
1078,779,HUMBERTOJOSENUNES,47,M4549,130,3:54:33,,GETRUNNING
1079,1162,REGINALDOJOSEANGELOTICAMACHO,33,M3034,196,3:54:35,,ReginaldoCamachoPersonalTrainer
1080,6419,JOSERAIMUNDODOSSANTOSSOUZA,51,M5054,102,3:54:37,,JUIZDEFORA
1081,3910,TSUYOSHIYAMAMOTO,53,M5054,103,3:54:39,,none
1082,5659,ALESSANDROJORGESALVINO,41,M4044,201,3:54:40,,
1083,5443,JOSESANTOSDEJESUS,54,M5054,104,3:54:42,,LJL
1084,5548,DANIELMARQUESFRANÇA,38,M3539,250,3:54:43,,
1085,6351,DIEGOBOYDPECANHACOSTA,34,M3034,197,3:54:45,,FILHOSDOVENTO
1086,1264,RONALDODASILVACHAGAS,39,M3539,251,3:54:46,,sportnaveia
1087,6847,LEONARDOMEDEIROSSEREJO,32,M3034,198,3:54:47,,TORRESTRAILRUN
1088,5998,FRANCIVANDINIZALMEIDA,45,M4549,131,3:54:49,,osTora/corredoresamigos
1089,2027,FERNANDOLUIZSEIXASFARIADECARVALHO,50,M5054,105,3:54:50,,Granbery
1090,6013,TIAGOTOLEDOVEIGA,30,M3034,199,3:54:53,,CITIUSASSESSORIAESPORTIVA
1091,6135,FABIOBARUCKE,43,M4044,202,3:54:53,,EquipeCE+3
1092,592,ANDERSONLOPESDEMELO,41,M4044,203,3:54:54,,BHRACE
1093,2897,SILVEIRAJOAODESOUZA,65,M6569,6,3:54:55,,
1094,7243,RODRIGOSILVAROCHA,36,M3539,252,3:54:56,,
1095,1769,THIAGOFIGUEREDODECARVALHOPARAISO,33,M3034,200,3:54:57,,CLUBDECORRIDAPLANET
1096,5825,PEDROABOIM,24,M2024,14,3:54:58,,VELOXFITNESS
1097,4801,BRENOBARBOZAJALES,27,M2529,94,3:55:01,,BJPERSONAL
1098,576,CARLOSJOSEDACRUZ,51,M5054,106,3:55:03,,
1099,478,ANDERSONFERREIRA,32,M3034,201,3:55:04,,CORDELLATEAM
1100,652,NELSONLUIZCASTILHOJUNIOR,50,M5054,107,3:55:10,,zezinhomateriais/guaraclin
1101,399,WELTHONLEMES,24,M2024,15,3:55:10,,Caveira
1102,5340,MÁRCIOLINHARESTÁVORA,29,M2529,95,3:55:11,,M6-FITNESS
1103,2696,MARCIOMATUNAGA,41,M4044,204,3:55:12,,BRANCAESPORTES
1104,4235,ALEXANDREDOVALLEFARIA,43,M4044,205,3:55:14,,BACCO
1105,6906,LEONARDOGIMENEZ,39,M3539,253,3:55:15,,UPSPORTSCLUB
1106,2671,MARCELOBACHIR,35,M3539,254,3:55:16,,MAXIMIZE
1107,155,JUNISHII,33,M3034,202,3:55:18,,NO
1108,6336,RAMIRODESOUZACARVALHO,50,M5054,108,3:55:18,,FILHOSDOVENTO
1109,5207,FLAVIOJADAOBARBOSA,44,M4044,206,3:55:22,,MILHAS
1110,6630,LUIZFERNANDOFARINA,44,M4044,207,3:55:23,,R5EXPRESSEVENTOSESPORTIVOS
1111,4338,CARLOSEDUARDORIBAS,33,M3034,203,3:55:24,,
1112,1733,TIAGOREIS,38,M3539,255,3:55:25,,CORRIDACARREIRINHA
1113,6609,IVANLUISDASILVAPAULA,43,M4044,208,3:55:27,,PéCarioca
1114,1352,TIAGOBATISTA,31,M3034,204,3:55:28,,pmgubh
1115,1371,BRUNODESOUZAMODENA,33,M3034,205,3:55:31,,MADDOG
1116,4159,TIAGODEMELOTAVARES,30,M3034,206,3:55:31,,
1117,3252,WANDERLEYFELIPE,38,M3539,256,3:55:32,,
1118,4122,DAVIDPAULBARGUENO,30,M3034,207,3:55:34,,ALUTACONTINUA
1119,2937,JOSEHUMBERTODUTRA,55,M5559,43,3:55:35,,RISSATO
1120,5136,FERNANDOMONTALVÃO,30,M3034,208,3:55:37,,5WAYS
1121,2375,RODRIGOSANTOS,31,M3034,209,3:55:38,,
1122,3777,RENATONEVARESGALVAO,39,M3539,257,3:55:40,,CORPORESANO
1123,6489,ANATOLIDIASORLOVAS,41,M4044,209,3:55:41,,LOBOASSESSORIA
1124,3447,JOAOBATISTABORGES,57,M5559,44,3:55:43,,EQUIPEGUSTAVOBORGES
1125,5922,ROBSONLUIZMORELO,44,M4044,210,3:55:44,,CASADOCORREDOR
1126,6100,FERNANDOALVESFREIRE,60,M6064,20,3:55:44,,Eletrobras
1127,434,GUILHERMEMASSADYNAKATA,27,M2529,96,3:55:44,,RUNUP
1128,2398,DARLANSOUZA,34,M3034,210,3:55:46,,DSXASSESSORIAESPORTIVA
1129,683,LENILSONVEIGAMATTOS,42,M4044,211,3:55:51,,
1130,753,LUIZCARLOSDOSSANTOS,51,M5054,109,3:55:55,,RicardoSardaAssessoria
1131,997,GASTONLIPRANDI,41,M4044,212,3:55:55,,Martinbarbéiitoteam
1132,427,THIAGOOLIVEIRAARAUJO,30,M3034,211,3:55:55,,SALUSRUNNING
1133,2602,OSVALDOMORAESDASILVAJR,40,M4044,213,3:55:59,,
1134,5709,MARCSCHWERDTFEGER,32,M3034,212,3:56:00,,
1135,380,ROBSONFABIANO,45,M4549,132,3:56:01,,SALUSRUNNING
1136,639,VALTERFERNANDESMEIRA,49,M4549,133,3:56:02,,FLONAdeIpanema
1137,1370,ALYSONDEPAULAVELOSO,32,M3034,213,3:56:02,,professoravania
1138,3187,GILBERTOGARCIAPEREIRA,36,M3539,258,3:56:05,,
1139,179,PAULGAVRIANI,48,M4549,134,3:56:05,,none
1140,5678,ELIASAMORIMDOSSANTOS,57,M5559,45,3:56:08,,PMMG-RESERVA
1141,5354,LEONDENISVICENTEJUNIOR,43,M4044,214,3:56:08,,WAYSOFT
1142,7208,RICARDOCARDOZOCORDEIRO,40,M4044,215,3:56:09,,IMBUHY/CIOpEsp
1143,1565,MAUROMIGUELDEMOURA,44,M4044,216,3:56:13,,PERFORMANCE&SIMETRIA
1144,482,OSVALDONALLIMDUARTE,63,M6064,21,3:56:14,,4Ões
1145,3722,ROBERTPRIEST,47,M4549,135,3:56:17,,MaadiRunners
1146,4173,ANGELOCUOZZOCOMUNALE,45,M4549,136,3:56:19,,RafinhaRunning
1147,815,DARIOCOUTINHOLENZA,48,M4549,137,3:56:21,,
1148,2608,EDMARANTONIOMARTINSCARDOSO,47,M4549,138,3:56:23,,FERA
1149,682,DANILOLCAMARGO,37,M3539,259,3:56:28,,PACER
1150,361,CARLOSFERNANDOZUMADESOUZA,45,M4549,139,3:56:30,,START
1151,914,DIEGOBRETASDEA.CARVALHO,23,M2024,16,3:56:30,,
1152,223,ALBERTOALVESDECARVALHOJUNIOR,49,M4549,140,3:56:31,,AleLima
1153,1164,ANDERSONLIMA,30,M3034,214,3:56:32,,AL3T
1154,5400,PAULOROBERTOPEREIRA,39,M3539,260,3:56:32,,VelozAssessoriaEsportiva
1155,3865,LEANDROCAMPOSARAUJO,32,M3034,215,3:56:35,,none
1156,2995,JEANPRIMOSARTORI,30,M3034,216,3:56:36,,Proesporte
1157,6638,PEDROHENRIQUEVAZLORENA,27,M2529,97,3:56:37,,R5EXPRESSEVENTOSESPORTIVOS
1158,6429,ANDERSONDAMATTA,26,M2529,98,3:56:38,,GUANATRAINER
1159,1960,MALAQUIASFERREIRA,31,M3034,217,3:56:39,,NUTSRUNNER
1160,6917,LEONARDODEABREURIBEIRO,39,M3539,261,3:56:40,,VO2ADVENTUREASSESSORIAESPORTIVA
1161,5722,VALDOMIRORODRIGUES,68,M6569,7,3:56:40,,SINTAPMT
1162,574,ALEXANDERACHILLESDEALMEIDA,34,M3034,218,3:56:40,,START
1163,3720,ERTEKINULUER,38,M3539,262,3:56:42,,Grosse-CoosmannSportreisen
1164,6007,FLAVIODEALMEIDAPRADOMENDES,36,M3539,263,3:56:42,,CitiusASSESSORIADECampinas
1165,4403,JULIERMEGONÇALVESPINHEIRO,34,M3034,219,3:56:44,,
1166,6742,FABIOMENDESGOMESCALIARO,36,M3539,264,3:56:46,,JUIZDEFORA
1167,4769,FELIPEDOSSANTOSFERNANDES,23,M2024,17,3:56:46,,
1168,2324,BRUNOLUCAS,24,M2024,18,3:56:50,,EquipeMarcioPuga
1169,1664,TIAGOBARBOSADUTRA,32,M3034,220,3:56:51,,UBERLANDIA
1170,4789,MARCOSANDRÉCARVALHOSILVA,42,M4044,217,3:56:53,,ZONAALVO
1171,2688,MARCALVASCONCELOS,31,M3034,221,3:56:53,,
1172,3802,CARLOSEDUARDOGUTIERREZGIRALDO,54,M5054,110,3:56:56,,TopTeamRunners
1173,3298,RAFAELROCHADEALMEIDA,33,M3034,222,3:56:56,,EquipeStart
1174,2604,ANTONIOFRANCISCODEMACEDO,47,M4549,141,3:56:58,,EMGEPRONEMMOVIMENTO
1175,509,MARCIOGUIMARAES,37,M3539,265,3:56:59,,M&ARUNNER
1176,500,LUIDISANTOS,38,M3539,266,3:57:00,,ATPRUN
1177,5343,ALEXANDRECUNHAFARIA,48,M4549,142,3:57:03,,FLRUNNERS
1178,1697,THIAGODEARAUJOSENA,37,M3539,267,3:57:06,,T-runner
1179,6461,FRANCISCOBURGOSSANDEDEOLIVEIRA,29,M2529,99,3:57:07,,INTHEGRA
1180,678,JOAODASILVA,51,M5054,111,3:57:07,,equipeostora
1181,4691,FELIPESANDOVALDEQUEIROZ,33,M3034,223,3:57:08,,MILHAS/VALE
1182,7318,DANIELSANTOSDASILVA,27,M2529,100,3:57:08,,#NOME?
1183,6608,JORGELUISSEQUEIRAMARTINS,49,M4549,143,3:57:10,,PéCarioca
1184,2719,VINICIUSPIGNATONCOSTA,28,M2529,101,3:57:13,,MULTIESPORTIVA/VALE/L3ONARDORODRIGU
1185,4786,EDUARDODECASTROBORGESSAMPAIOVIANNA,28,M2529,102,3:57:13,,RAFINHARUNNING
1186,1434,LUIZCOLLIER,39,M3539,268,3:57:16,,SA/CROSSGYM
1187,2090,PAULOANTONIODUARTE,36,M3539,269,3:57:21,,CORPAM
1188,3530,GUSTAVOSILVAARAUJO,37,M3539,270,3:57:21,,CORPORESANO
1189,4563,MICHELLRAPOSO,35,M3539,271,3:57:21,,MRRUNNER
1190,867,DILMARMAGALHAESFRANCO,62,M6064,22,3:57:23,,AVENTURA
1191,4901,LUIZVILLALTANETO,41,M4044,218,3:57:27,,ASCORT
1192,6716,CARLOSEDUARDOHOLANDA,38,M3539,272,3:57:31,,JUIZDEFORA
1193,3183,VALDIRFERREIRADEARAUJO,30,M3034,224,3:57:32,,ADEVANPEREIRAASSESSORIAESPORTIVA
1194,3433,MARCIODINIZ,45,M4549,144,3:57:32,,CORRPIQUERI
1195,6956,JEFFERSONPINTO,52,M5054,112,3:57:35,,OLYMPIKUS
1196,4370,MATEUSGONÇALVESDASILVA,34,M3034,225,3:57:37,,LAURARUN
1197,1062,EDUARDODOSSANTOS,37,M3539,273,3:57:38,,IT´SPOSSIBLE
1198,679,JULIODECASTRO,50,M5054,113,3:57:41,,AMESPORTES
1199,734,BRUNOTEIXEIRADEPAIVA,37,M3539,274,3:57:41,,TARSOMATOS
1200,1630,MARCELOMACEDO,48,M4549,145,3:57:42,,TEAMVAQUEIRO
1201,2895,RENATOCAMPOSOLIVEIRA,31,M3034,226,3:57:43,,TRIATIVO
1202,5098,FIORECIARDIDESOUZA,32,M3034,227,3:57:43,,
1203,4406,FRANCOISHAAS,58,M5559,46,3:57:48,,
1204,1957,LUCASVITORIANODASILVAFIGUEIREDO,23,M2024,19,3:57:52,,
1205,6950,PAULOAURÉLIORAMADASDACRUZ,42,M4044,219,3:57:53,,
1206,2088,LUISEDUARDORODRIGUES,37,M3539,275,3:57:53,,RUNUP
1207,1519,AZEMARDASILVAROCHA,41,M4044,220,3:57:55,,SERGIOSPORTS-AM
1208,6800,LENILTONALVESPEREIRA,38,M3539,276,3:57:55,,
1209,5424,SANTIAGOSCHNEIDER,44,M4044,221,3:57:56,,SANTIAGO
1210,6795,EDUARDOLUIZSEQUEIRAALVES,47,M4549,146,3:57:59,,START
1211,5169,GLAUBERCESARRUIZ,27,M2529,103,3:58:00,,
1212,889,TIAGOCALVENTE,33,M3034,228,3:58:00,,CUBASBR
1213,5865,PIERREBAILLET,32,M3034,229,3:58:01,,AVULSO
1214,5349,JEAN-BRICESAINT-MARTIN,38,M3539,277,3:58:01,,
1215,4766,PEDROHENRIQUEWALTER,30,M3034,230,3:58:02,,
1216,4418,IGORDEAMORIMFREITASPEREIRA,33,M3034,231,3:58:02,,IGORTEAM
1217,6639,FABIORIBEIRODIAS,38,M3539,278,3:58:02,,R5EXPRESSEVENTOSESPORTIVOS
1218,7025,VICTORPOMARICOUCHOA,34,M3034,232,3:58:04,,Webtreino
1219,465,FABRICIODIASDAROCHA,39,M3539,279,3:58:09,,PEDRÃO
1220,4469,SASCHAKALINOWSKI,39,M3539,280,3:58:09,,BNDES
1221,5565,ALEXANDREJOSESOARESPEREIRA,42,M4044,222,3:58:09,,ASP
1222,5135,ANDRESINOPOLIDESOUSA,29,M2529,104,3:58:14,,CORRE+(SESCPOMPÉIA-SP)
1223,743,CARLOSANTONIOMILHORATOABREU,39,M3539,281,3:58:16,,
1224,3861,PATRICKASHCROFT,28,M2529,105,3:58:19,,none
1225,3816,MARCIODEMORAESPALMEIRA,40,M4044,223,3:58:20,,RunnersClub
1226,2273,PEDROVICTORCARNEIROFERREIRA,24,M2024,20,3:58:20,,
1227,2250,RENATOGIOVANNINI,43,M4044,224,3:58:21,,BHRACE
1228,4490,RODRIGOLARANGEIRABRUM,39,M3539,282,3:58:21,,
1229,524,MAURICIOALANDEPAULA,37,M3539,283,3:58:22,,GamboaSports/H20
1230,3610,ORESTESMACIELCAMARAFREIRE,39,M3539,284,3:58:25,,NO
1231,4089,MARCOSVENICIOSRAMOSLIMA,46,M4549,147,3:58:26,,M&ARUNNER
1232,6891,ANTONIOSENEMDACRUZ,56,M5559,47,3:58:28,,Insanos
1233,3794,RODRIGOCOSTAOLIVEIRA,36,M3539,285,3:58:32,,UNIMEDMINAS
1234,2943,MILTONOSAMUOKUMURAJUNIOR,30,M3034,233,3:58:32,,
1235,1122,RONALDOSANTOS,38,M3539,286,3:58:32,,IRONLIFEASSESSORIAESPORTIVA
1236,6403,EDIVALDODOSSANTOSSILVA,40,M4044,225,3:58:32,,JUIZDEFORA
1237,2745,ALLANCAMILORODRIGUES,38,M3539,287,3:58:33,,
1238,3121,BERROSPIJUAN,43,M4044,226,3:58:35,,BERROSPISPORTIVO
1239,5438,OSVALDOVIEIRADASILVA,47,M4549,148,3:58:36,,PRATIQUE
1240,2991,FELIPECOELHOGRECO,45,M4549,149,3:58:36,,BORA
1241,1270,PIERREEMMANUELJACQUIN,33,M3034,234,3:58:40,,CHARLESLEGEND
1242,5049,JOÃOPAULOORLANDO,36,M3539,288,3:58:40,,
1243,387,EMERSONSALOMAODEFREITAS,43,M4044,227,3:58:41,,AMMP
1244,5670,ANTONIOMARCOSANDRADECEZAR,45,M4549,150,3:58:41,,MACAETERRAQUERIDA!!!
1245,5663,WARNERSTUDARTMAIAFILHO,48,M4549,151,3:58:45,,OTREINO
1246,4618,AURÉLIODOSSANTOSCOSTA,49,M4549,-,3:58:48,DVI,Ventodoespírito
1247,2667,JOSEHENRIQUEDOSSANTOS,33,M3034,235,3:58:49,,youenjoy
1248,3292,EDSONFRANCISCODEFREITASFILHO,37,M3539,289,3:58:50,,esposende
1249,4426,RODRIGODINIZLARA,32,M3034,236,3:58:50,,DEZTEMIDOS
1250,2516,ANTONIOFERNANDOMARTINSDACOSTAGONTIJOSOARES,51,M5054,114,3:58:51,,JulioCastroBeloHorizonte
1251,1114,DANIELALVARODEOLIVEIRA,35,M3539,290,3:58:52,,DANIELOLIVEIRA
1252,1976,RODRIGOUCEDABETTI,38,M3539,291,3:58:53,,Mooca
1253,852,BENEDITONUNESPEREIRAFILHO,55,M5559,48,3:58:53,,pegasus
1254,6110,RODOLFOTALLARIDASERRAPEREIRA,28,M2529,106,3:58:54,,EMBRATEL
1255,793,CARLOSOTAVIODECASTROBRITO,51,M5054,115,3:58:54,,COPASÃOLOURENÇO
1256,1422,DANIELAZEVEDO,40,M4044,228,3:58:56,,RAJARUNNERS
1257,2662,ANDREMILANI,36,M3539,292,3:58:56,,PercursoLivre/Horizonte
1258,3316,DIOGOPINHEIRORODRIGUES,33,M3034,237,3:58:56,,Brothers
1259,7165,RODRIGOPONCEBUENO,37,M3539,293,3:58:57,,ALTAINTENSIDADE
1260,6752,CARLOSALBERTOPINTOBRANDAOJUNIOR,36,M3539,294,3:58:57,,JUIZDEFORA
1261,6604,RENATOAMANTE,31,M3034,238,3:58:57,,RAC
1262,6665,ROBERTOMELLO,49,M4549,152,3:58:58,,RunnersClub
1263,526,ANTONIOSOUZADOSSANTOS,48,M4549,153,3:58:59,,RUNNERS=OSASCO
1264,2123,LUISCARLOSPEDRINOJUNIOR,35,M3539,295,3:59:01,,GAMAASSESSORIAESPORTIVA
1265,3663,RONALDODEMELOSILVA,43,M4044,229,3:59:01,,none
1266,4566,IRANXAVIERLOPES,37,M3539,296,3:59:06,,PÉNOCHÃO
1267,788,ERICOSILVEIRA,34,M3034,239,3:59:06,,
1268,6327,BRUNOTANNO,34,M3034,240,3:59:06,,FILHOSDOVENTO
1269,3225,FRANCOANDREDOSSANTOS,45,M4549,154,3:59:09,,
1270,6579,REINALDOCARINHANHA,40,M4044,230,3:59:10,,MRFitnessTrainer
1271,2721,MARCIOROGERIOANTUNESRIBEIRO,37,M3539,297,3:59:11,,PERSONALCENTERJAÚ
1272,458,ALMIRSFALSIN,52,M5054,116,3:59:12,,CBN
1273,5064,MIGUELLUISFOLCHETTIFILHO,33,M3034,241,3:59:12,,PACEFIT5WAYS
1274,2132,GERALDODELIMAJUNIOR,33,M3034,242,3:59:17,,LIMASRUNFAMILY
1275,2567,ARLENPALAGARARAUJO,38,M3539,298,3:59:17,,
1276,823,IVOANTONIOBARATELA,46,M4549,155,3:59:20,,TEAMVAQUEIRO
1277,2275,ANTONIOCARLOSROQUEDASILVA,42,M4044,231,3:59:22,,R80
1278,4927,FLAVIORIBEIROBRAGANCASILVA,34,M3034,243,3:59:23,,
1279,1925,OTACILIOCHAVESDASILVAJUNIOR,47,M4549,156,3:59:23,,Deten/Triplaforma
1280,3464,RONALDOLIVEIRA,33,M3034,244,3:59:24,,TRIATIVO
1281,5437,FABIOHIROSHI,36,M3539,299,3:59:25,,YOUENJOY
1282,6196,ELTONDEOLIVEIRA,33,M3034,245,3:59:27,,EquipeMárciaFerreira
1283,1633,FABIOLAIA,41,M4044,232,3:59:27,,ECTAVARES
1284,1123,MARCELOHENRIQUECALIXTOGUMIERO,33,M3034,246,3:59:28,,
1285,331,RENEMARTINSMIGUEL,50,M5054,117,3:59:30,,INFINITYASSESSORIAESPORTIVA
1286,3224,MARCOSAURELIOFORNAZARO,43,M4044,233,3:59:30,,
1287,4699,FELIPESANTOSFIGUEIREDO,31,M3034,247,3:59:34,,SULCARIOCA
1288,2221,JARDELFELISBERTOHENRIQUES,45,M4549,157,3:59:36,,ACORLAFJARDEL
1289,7323,CLEBERTONSOUZADEOLIVEIRA,37,M3539,300,3:59:40,,#NOME?
1290,1694,BRUNOPARRA,27,M2529,107,3:59:40,,
1291,685,MARCOANTONIOBISPODEMOURA,54,M5054,118,3:59:43,,UNIQUE
1292,1465,TIAGOMEDEIROSMACHADO,32,M3034,248,3:59:43,,LESMAS
1293,1198,RANIEREDESANTANASILVA,29,M2529,108,3:59:43,,GrupodecorridaNixonFernandes
1294,6931,MARCUSDANTAS,47,M4549,158,3:59:45,,
1295,4398,VASCOALEXANDRECASTRODASILVA,33,M3034,249,3:59:45,,RUNNERSRIO
1296,5954,CRISTIANORODRIGUESLIMA,54,M5054,119,3:59:47,,CHÃODOATERRO
1297,5614,ANDRÉANDRADEDEAZEVEDO,40,M4044,234,3:59:52,,VALE/MILHAS
1298,1260,DANILOCOSTAASSISDEOLIVEIRA,26,M2529,109,3:59:56,,DANILOFARIA
1299,1103,DANIELPAULINO,33,M3034,250,3:59:57,,
1300,2104,EDIMARLISBOADASCHAGAS,46,M4549,159,3:59:57,,BRT-BrazilianRunnersTeam
1301,1393,CARLOSGOYA,35,M3539,301,3:59:58,,SHIROTRI
1302,5247,CARLOSALBERTOSIMOESRODRIGUESJUNIOR,41,M4044,235,3:59:58,,FITRUN
1303,2128,FERNANDOVIGGIANO,44,M4044,236,4:00:00,,ANDREVILLARINHO
1304,5245,JOELSANTANADAMASCENOSANTOS,42,M4044,237,4:00:02,,JARDELMOURAASSESSORIAESPORTIVA
1305,515,GILCHARDSONPEREIRADASILVA,46,M4549,160,4:00:02,,EQUIPEALBERTOCAMPOS
1306,5981,FILIPEGUSTAVODIAS,33,M3034,251,4:00:03,,Cooltraining
1307,3036,BRUNOWEBER,50,M5054,120,4:00:03,,
1308,7215,MANOELRIOMARPDEOLIVEIRA,46,M4549,161,4:00:05,,Rocinha
1309,6067,DORIOCARDOSODESAJUNIOR,50,M5054,121,4:00:05,,AABB-SP
1310,3785,HUGOALDAYNIETO,40,M4044,238,4:00:07,,SEAHORSESCANCUN
1311,4118,GUSTAVOACIOLICANAMARY,30,M3034,252,4:00:07,,ASSESSORIADIOGOPORTO
1312,5269,ELIASFERREIRADESOUSA,43,M4044,239,4:00:10,,
1313,1532,WAGNERMIRANDADECASTRO,42,M4044,240,4:00:10,,TEAMVIAJAPAN
1314,492,LUISCLAUDIOCOLLODETTI,47,M4549,162,4:00:11,,CORREDORESDERUADECASTELO-ES
1315,2926,MARCUSALESSANDRONASCIMENTODACOSTA,38,M3539,302,4:00:15,,RIBEIROTEAM
1316,4274,BERNARDOBBMELO,39,M3539,303,4:00:18,,
1317,3069,JOSELUIZMARTINSDASILVA,64,M6064,23,4:00:20,,
1318,5323,SIDNEYMOTTAPEIXOTO,55,M5559,49,4:00:21,,PcerjRunners
1319,1082,MARIANOCRISTIANTOLEDO,41,M4044,241,4:00:24,,Minimalteam
1320,2391,MARIOSALGUEIRO,52,M5054,122,4:00:26,,PERCURSOLIVRE
1321,2469,PAULOFLORESCASTELLOBRANCO,39,M3539,304,4:00:26,,ClubedeCorridaFormacco
1322,4809,JOSÉPAULOPIRESPERESTRELO,44,M4044,242,4:00:27,,SÓCORRO
1323,7320,RAFAELDESOUZACAMPOS,26,M2529,110,4:00:34,,#NOME?
1324,3175,JONASAFONSOCIPRIANI,57,M5559,50,4:00:36,,METALURGICACIPRIANI
1325,3302,SERGIOPIMENTADELIMA,28,M2529,111,4:00:39,,
1326,5841,REGINALDOGOMESDEJESUSPRAXEDES,33,M3034,253,4:00:40,,ACORUJA
1327,4331,CIDMARIATEIXEIRAMOTTAFILHO,31,M3034,254,4:00:41,,
1328,5646,DÁVSONAGUILARGUIMARÃES,38,M3539,305,4:00:41,,AGUILAR
1329,547,JOSELUIZSARAIVA,69,M6569,8,4:00:46,,EQUIPE100
1330,5341,MARCÍLIOLINHARESTÁVORA,32,M3034,255,4:00:46,,M6-FITNESS
1331,6438,LUIZHENRIQUESILVEIRA,51,M5054,123,4:00:46,,GUANATRAINER
1332,1774,WELINGTONSILVAMENEZES,54,M5054,124,4:00:47,,JYMMYSLOPESTEAM
1333,3758,GUSTAVOBAQUERO,40,M4044,243,4:00:47,,Non
1334,4324,THIAGOLOPESDAMASCENO,35,M3539,306,4:00:47,,INFINITY
1335,2270,BRENOAGRA,35,M3539,307,4:01:05,,
1336,4532,GUSTAVOFEITOSAFELIZZOLA,38,M3539,308,4:01:05,,ADEVANPEREIRAASSESSORIAESPORTIVA
1337,4972,FRANCISCODEASSISSILVAFILHO,38,M3539,309,4:01:06,,QUINTESSÊNCIA
1338,3593,RAFAELSANTOSPALMIERI,33,M3034,256,4:01:10,,bettytraining
1339,5761,PAULOROBERTODACONCEICAO,62,M6064,24,4:01:19,,
1340,382,ASSISALVESDECASTRO,36,M3539,310,4:01:20,,CORREGALERA
1341,2864,DAVIDSALES,43,M4044,244,4:01:20,,ZTRACK
1342,2840,HAROLDOMACHADOFERREIRAJUNIOR,51,M5054,125,4:01:22,,ZKSPORT-PARAÍBA
1343,2157,ARIDESOUZA,67,M6569,9,4:01:22,,
1344,4015,EMILIANORAULCRISTALDI,31,M3034,257,4:01:22,,MEGATLON
1345,521,JUANANDRESABSI,39,M3539,311,4:01:22,,MegatlonRunningteam
1346,2632,BRUNOPEREIRANAREZZI,33,M3034,258,4:01:24,,NarezziRunner
1347,4806,BALTAZARNOLETODOSSANTOS,58,M5559,51,4:01:25,,
1348,6335,JOSEDECARVALHOESTEVEZ,38,M3539,312,4:01:28,,FILHOSDOVENTO
1349,2256,JOSEROBERTOFERREIRA,49,M4549,163,4:01:32,,PACER
1350,6437,SAULLODAVIDSONZANETTI,35,M3539,313,4:01:35,,GUANATRAINER
1351,415,MARCOSDECIMONI,55,M5559,52,4:01:39,,GAROTOSDOPARQUE
1352,123,MARCELOCAMPIONI,40,M4044,245,4:01:41,,
1353,212,FRANKLINOLIVEIRACUNHA,40,M4044,246,4:01:42,,IDEALEVITA
1354,1754,CARLOSHENRIQUEDOSSANTOS,47,M4549,164,4:01:44,,
1355,6780,MARCOANTONIODESOUZACINTRA,54,M5054,126,4:01:48,,Eletronuclear
1356,2167,EDUARDOVIEIRARODRIGUES,37,M3539,314,4:01:49,,
1357,1287,MAURICIOALVINO,30,M3034,259,4:01:53,,SA/Crossgym
1358,3236,VALDIRTORQUATOJUNIOR,34,M3034,260,4:01:55,,ItapemaTriathlonTeam
1359,2400,FABRICIOLIMA,26,M2529,112,4:01:56,,
1360,4783,ANGELOJUDAIJUNIOR,42,M4044,247,4:01:57,,U.F.A.
1361,5712,JUAREZHENRIQUEPLASSMANN,69,M6569,10,4:01:58,,SBSTOLEDORUNNERS
1362,2183,JULIOFERREIRAPINTOJUNIOR,51,M5054,127,4:02:01,,GrupodecorridaNixonFernandes
1363,5418,JAIROIVANMARTINEZCORTES,49,M4549,165,4:02:02,,
1364,1624,JOSEREINALDODOSSANTOSTIXEIRA,52,M5054,128,4:02:02,,
1365,6080,LUISFERNANDODASILVARIBAS,49,M4549,166,4:02:04,,DEFAVERIRUNNERS
1366,2300,JOAOHENRIQUEBERTOLINI,44,M4044,248,4:02:06,,PACER
1367,3300,LEANDROMESSIASDASILVA,31,M3034,261,4:02:09,,KALUANÃRUNNING
1368,423,MIGUELHUANG,42,M4044,249,4:02:09,,maratobodes
1369,1874,PEDROLEGEY,28,M2529,113,4:02:11,,EquipeMarcioPuga
1370,5498,ROBLEDOARTHURPEREIRADASILVA,39,M3539,315,4:02:12,,PÉDUROASSESSORIAESPORTIVA
1371,7021,DANIELCLERC,62,M6064,25,4:02:13,,
1372,4497,LUCIANOSAADPEIXOTO,40,M4044,250,4:02:13,,VelozAssessoriaEsportiva
1373,3049,JOSEMARIAARAYA,45,M4549,167,4:02:13,,BarbeitosTeam
1374,7042,THIAGOOLIVEIRA,37,M3539,316,4:02:15,,EPJCORRIDAPIRACICABA
1375,3900,HUGOLEONARDOCARVALHO,36,M3539,317,4:02:18,,MILHASASSESSORIAESPORTIVA
1376,1959,LUCASAUGUSTOCASELIRIBEIRO,25,M2529,114,4:02:22,,Milesordie/AlbanoTreinamento
1377,2062,FELIPETEIXEIRA,37,M3539,318,4:02:24,,StartPoint
1378,3642,PHILIPPECHAMBERTLOIR,32,M3034,262,4:02:24,,none
1379,3153,ILDEFONSOJOSEDEARAUJOFERREIRAJUNIOR,44,M4044,251,4:02:24,,R80CORRIDAECAMINHADA
1380,3026,LUISTORREALBA,42,M4044,252,4:02:25,,PERURUNNERS
1381,5988,ALDERMANCOSMERIBEIRO,49,M4549,168,4:02:27,,CORPUSVITALLE
1382,1515,ALEXANDRECARNEIROSPINDOLA,37,M3539,319,4:02:28,,
1383,757,RODRIGOPINHEIROLACERDA,45,M4549,169,4:02:34,,defaveri
1384,2466,RODRIGOCHIQUIEALI,34,M3034,263,4:02:35,,It'sPossible!
1385,5077,RAFAELNUNESGONÇALEZ,33,M3034,264,4:02:36,,MARCHALENTABOTUCATU
1386,3307,TIAGOFRANCOEMERICHDEANDRADE,33,M3034,265,4:02:40,,nutsrunners
1387,6618,RODRIGONASCIMENTO,38,M3539,320,4:02:44,,PONTOCORRIDO
1388,5435,GILBERTODEAQUINOLEITE,55,M5559,53,4:02:44,,SPEED
1389,1675,LEANDROROQUINI,41,M4044,253,4:02:45,,EquipeLinceVoltaRedonda
1390,2818,RAFAELCARNEIROLEAOMAIA,30,M3034,266,4:02:46,,
1391,991,MARCIOJOSECRUZCAVALCANTE,34,M3034,267,4:02:47,,PAPA-LÉGUAS-RORAIMA
1392,3632,MARCELOEIITHGARCIA,37,M3539,321,4:02:51,,none
1393,1466,ANDERSONFERREIRAPETENE,21,M2024,21,4:02:52,,
1394,7370,VINICIUSREIS,34,M3034,268,4:02:53,,EQUIPELEGRAND
1395,1348,WAGNERVIEIRACOGO,37,M3539,322,4:02:55,,AMOREESPORTE
1396,2821,PAULOPEREIRATIBURCIOJUNIOR,46,M4549,170,4:02:57,,OsSetas
1397,940,RONALDOPINHEIRODESOUZA,48,M4549,171,4:02:57,,CIAATHLETICA
1398,6431,LEONARDOVINICIUSFERREIRAVIANA,41,M4044,254,4:02:59,,GUANATRAINER
1399,6174,GIOVANNIBERNI,46,M4549,172,4:03:01,,EQUIPELEGRAND
1400,6746,ALDIVIOTEIXEIRAEDUARDO,50,M5054,129,4:03:02,,JUIZDEFORA
1401,4174,JOSÉEDIVALVIEIRABARBOSA,45,M4549,173,4:03:03,,
1402,885,BRUNOALMEIDARESGALLA,35,M3539,323,4:03:05,,ASCOREI
1403,3149,ANDREBORGESFREIRE,33,M3034,269,4:03:09,,CORDELLATEAM
1404,3094,TAIGUARADELPHINO,37,M3539,324,4:03:09,,PRFNOE/RJ
1405,4486,GUSTAVOSIQUEIRASIMÕES,39,M3539,325,4:03:11,,LESMAS
1406,724,CHRISTIANAUGUSTODOSSANTOSCRAVO,42,M4044,255,4:03:16,,
1407,4903,JOSECARNEIRODORNELES,58,M5559,54,4:03:20,,PAPA-LÉGUAS-RR
1408,2854,MARCELOBREGAPESSOA,41,M4044,256,4:03:21,,
1409,3654,ABDULRAHMANYASIRMALMANSOURI,27,M2529,115,4:03:22,,none
1410,2796,JULIOCESARESPINOSAMORAES,34,M3034,270,4:03:22,,SALUSRUNNING
1411,4007,MARIOANDRESMARTINO,36,M3539,326,4:03:23,,GRUPOSACCHI
1412,166,BRIANMDONLAN,42,M4044,257,4:03:24,,none
1413,939,IGORFERREIRADOSANJOS,35,M3539,327,4:03:24,,2anjos
1414,1144,YANLEDUC,35,M3539,328,4:03:25,,SPRINT/ABTRI
1415,5840,AMILCARLOURENCODEALMEIDAFILHO,47,M4549,174,4:03:25,,ACORUJA
1416,5398,DANIELNEVESSTEHLING,45,M4549,175,4:03:25,,FISIOFITNESS
1417,2337,FELIPEPAGIOLADEOLIVEIRA,37,M3539,329,4:03:26,,FOX
1418,6647,ELITORRESALVES,51,M5054,130,4:03:26,,RECICLADOSPORCORRIDA
1419,5631,FRANCISCOPAULODOSSANTOS,48,M4549,176,4:03:27,,EQUIPEROCINHA
1420,4590,DENISBSILVEIRA,34,M3034,271,4:03:28,,ATPMULTIESPORTES
1421,3824,CEMHACIOGLU,45,M4549,177,4:03:29,,none
1422,525,KLEBERCARDOSOPINTO,39,M3539,330,4:03:31,,CORINTHIANS
1423,4297,SILVIOHENRIQUESEGRETTI,54,M5054,131,4:03:32,,TURMADOBOIA
1424,6440,GUILHERMETADEU,30,M3034,272,4:03:32,,GUANATRAINER
1425,6391,MOISESLEONARDODACRUZ,41,M4044,258,4:03:33,,JUIZDEFORA
1426,6661,MAURICIOMONTEIROAZEVEDO,45,M4549,178,4:03:35,,RunnersClub
1427,1861,MARCELOSILVEIRABARBOSA,46,M4549,179,4:03:37,,MCLRunner's
1428,487,WALISSONFERREIRADECARVALHO,45,M4549,180,4:03:37,,DeigoBorgesAssessoria
1429,1570,AIRTONJORGEBARBOSA,54,M5054,132,4:03:40,,AVULSA
1430,2842,MAURÍCIOROSALIMA,38,M3539,331,4:03:40,,
1431,7163,EDILSONTEIXEIRA,56,M5559,55,4:03:41,,MELHORMERCADO
1432,3979,ALEXANDREMACHADOBARTHOLOMEI,44,M4044,259,4:03:43,,
1433,4688,LEANDROFRANCISQUINIDACOSTA,24,M2024,22,4:03:48,,CORPODEFUZILEIROSNAVAIS
1434,6053,EDUARDOGARCIALEAL,39,M3539,332,4:03:51,,CORRERENTREAMIGOS
1435,3704,GLENNGIBSON,49,M4549,181,4:03:51,,none
1436,1484,MARCOSBATISTADOSSANTOS,44,M4044,260,4:03:52,,GCMosascoplaza
1437,1157,JOSEVILELADEOLIVEIRA,70,M7074,1,4:03:53,,ASCORT
1438,1852,LEONILDORICARDOOLIVEIRADESOUZA,49,M4549,182,4:03:55,,LACARRERA
1439,6516,HEBERTFERREIRABRAZJR,42,M4044,261,4:04:00,,MARCIOPUGA
1440,2761,WENDERANTERODEMOURA,37,M3539,333,4:04:03,,
1441,6722,ADILSONSINHEISERIKIAKU,46,M4549,183,4:04:03,,JUIZDEFORA
1442,3571,MAURICIOJARDIM,32,M3034,273,4:04:09,,none
1443,5387,CLÁUDIOFERREIRARAIS,55,M5559,56,4:04:09,,
1444,3436,CARLOSQUEIROS,40,M4044,262,4:04:15,,SANTIAGOASCENÇO
1445,2663,VALDINEIJOSEFERREIRA,34,M3034,274,4:04:19,,TRIACTION
1446,2064,EDILSONFERNANDESMAIA,49,M4549,184,4:04:20,,
1447,2188,SILVIONATAL,40,M4044,263,4:04:20,,AMIGOSCORREDORES
1448,2871,RAFAELMARCELINODEARAUJO,27,M2529,116,4:04:20,,BodySoulSports
1449,5879,ARTHURDELMONACO,32,M3034,275,4:04:22,,athlonassessoriaesportiva
1450,4323,GILBERTOVARANDABARBOSAJUNIOR,37,M3539,334,4:04:23,,AuthenticRun
1451,5849,HENRIQUECRUZ,38,M3539,335,4:04:23,,O2FIT
1452,4538,ALEXANDRESILVADESOUZA,38,M3539,336,4:04:25,,BIO2
1453,5005,CAIOMÁRCIODAVIDLOPES,37,M3539,337,4:04:26,,TURMADOBÓIA
1454,935,RAPHAELASSIMOSDASNEVESSILVA,32,M3034,276,4:04:27,,
1455,5579,GILENOMONCORVODEOLIVEIRAJÚNIOR,43,M4044,264,4:04:30,,
1456,3297,LEONARDOFERNANDESCARVALHO,40,M4044,265,4:04:30,,CentrodeAvaliaçõesdoExército
1457,2286,DIEGOSUCENAPITA,28,M2529,117,4:04:31,,DLNUNES
1458,4250,JORGELUISGOMESDEPINHO,52,M5054,133,4:04:31,,SEBRAEQUALIDADEDEVIDA
1459,422,LUCIOGERALDODOCARMOSILVERIO,51,M5054,134,4:04:33,,Silvérios
1460,550,ELDERFARIA,50,M5054,135,4:04:33,,
1461,3476,LUIZCARLOSANDRADE,50,M5054,136,4:04:36,,Baleias/NeoSaúde
1462,2701,SERGIOKRUSCHEWSKY,50,M5054,137,4:04:40,,LBRUNNING
1463,4143,BRUNOBATISTADEHOLLANDACAVALCANTI,34,M3034,277,4:04:41,,
1464,2938,ROBSONCOELHO,38,M3539,338,4:04:42,,
1465,3961,FRANCISCONUNES,43,M4044,266,4:04:44,,Noteam
1466,1262,NICOLASMAGNORAMOS,27,M2529,118,4:04:45,,GRUPODECORRIDADIEGODANIEL
1467,6772,LUISGERALDOCASTILHOMANSOR,44,M4044,267,4:04:48,,SPEED
1468,221,HIDEAKISAKATA,63,M6064,26,4:04:49,,HANUYRIKU-KYOU
1469,4743,ANTONIOJOSEBARROCODEPAULADAFLON,31,M3034,278,4:04:50,,SUPERA
1470,442,JAMESALFREDOMACEDOLEALFILHO,34,M3034,279,4:04:51,,RUNNERS
1471,5632,JORGEANDRÉALVESDAFROTA,48,M4549,185,4:04:52,,CORPO&CIAEENERGIAACADEMIA
1472,5381,JOSEAFONSOCARLOSCANDIDO,47,M4549,186,4:04:53,,
1473,3404,DANIELCOSTABEZERRA,36,M3539,339,4:04:54,,LESMAS
1474,3113,ALEXGAMA,45,M4549,187,4:04:54,,cheiroverde
1475,2397,JOSECARLOSPEREIRAMARCONIDASILVA,51,M5054,138,4:04:54,,Hidra
1476,214,LUIZCARLOSTHOMAZETTEJUNIOR,32,M3034,280,4:04:58,,
1477,2468,PEDROHENRIQUEDOSSANTOSRAMOS,23,M2024,23,4:05:00,,RangelRacingTeam
1478,4295,ANDRELUIZDEASSUNCAO,42,M4044,268,4:05:01,,
1479,6743,FERNANDOCOSTADESOUZA,49,M4549,188,4:05:03,,superamigos
1480,124,VIRGINIOFRANCISCOGOMES,46,M4549,189,4:05:04,,PECCHIORUN
1481,4172,CLAUDIOROBERTODELIMA,44,M4044,269,4:05:04,,
1482,3754,FERNANDOEDYE,50,M5054,139,4:05:06,,none
1483,3913,OMARUYARTENORIEGA,35,M3539,340,4:05:06,,none
1484,1513,MARCUSVINICIUSRAMOS,50,M5054,140,4:05:08,,EVOLUA
1485,6879,ROGERIORUIZDEFREITAS,45,M4549,190,4:05:09,,CLUBEDACORRIDADOTRT
1486,3844,WAGNERROGERIOBRAGA,36,M3539,341,4:05:09,,none
1487,830,JULIOSTRAUSSNEVESJUNIOR,47,M4549,191,4:05:12,,
1488,5719,DOMINGOSPINTOMARTINS,62,M6064,27,4:05:12,,RELOVOUX
1489,3460,JANUARIOMEGALENETO,49,M4549,192,4:05:13,,
1490,2237,MAURICIOSPERB,41,M4044,270,4:05:19,,TOSCANO
1491,1121,JOSÉS.MOREIRAJUNIOR,49,M4549,193,4:05:19,,GustavoBorges-Palmas-TO
1492,5503,MAURICIOBITTENCOURT,44,M4044,271,4:05:20,,ClubedeCorridaFormacco
1493,4798,WANDERPESSOA,44,M4044,272,4:05:21,,TRIACTIONTEAM
1494,6416,ANDERSONFRANCISCODELIMA,30,M3034,281,4:05:22,,JUIZDEFORA
1495,6346,ANDRECAMPANELLADESIQUEIRA,35,M3539,342,4:05:28,,FILHOSDOVENTO
1496,792,JOAOPAULOMONT'ALVAOVELOSORABELO,35,M3539,343,4:05:29,,FalsarellaTreinamentoEsportivo
1497,1654,JOSEEDUARDONUNESARAUJOMOREIRA,47,M4549,194,4:05:34,,
1498,1011,SERGIOCONRADO,42,M4044,273,4:05:34,,
1499,1647,FERNANDOANTONIOSEBASTIAONETO,43,M4044,274,4:05:36,,
1500,2282,EDUARDOPIRES,40,M4044,275,4:05:36,,Adrennoncorridadeaventura
1501,3106,CHRISTIANOSAVASTANONAVES,39,M3539,344,4:05:36,,PRAIACLUBEUBERLÂNDIA
1502,6283,KYOJITAKAI,57,M5559,57,4:05:39,,E.C.TAVARES
1503,5671,RICARDOAUGUSTODONASCIMENTO,42,M4044,276,4:05:43,,AQUIÉGALO!!!
1504,2427,CLAUDINEIDEOLIVEIRA,26,M2529,119,4:05:44,,EquipeD2
1505,2047,CLAYTONOLIVEIRA,33,M3034,282,4:05:44,,EquipeD2
1506,4478,PAULOSERGIODASILVALESSA,46,M4549,195,4:05:51,,
1507,2899,COSMERODRIGUES,51,M5054,141,4:05:52,,CARN
1508,2930,ELEAZARLUCASGURECK,53,M5054,142,4:05:52,,V8assessoriaesportiva
1509,6473,OSMARFERNANDOBARBOSA,38,M3539,345,4:05:52,,KDM
1510,1938,CASTORMEDUZAHOMEMARANHA,41,M4044,277,4:05:54,,LUCELIOCROSARIOL
1511,1787,TIAGOALVES,27,M2529,120,4:05:56,,
1512,1038,ODILONAMARAL,40,M4044,278,4:06:00,,BORA
1513,801,LUCASRICORDIRICORDI,28,M2529,121,4:06:02,,
1514,6143,RODRIGOGOLIVIOPEREIRA,39,M3539,346,4:06:05,,EquipeCE+3
1515,3827,HENRIQUEDEALBUQUERQUEPIMENTEL,42,M4044,279,4:06:06,,CORPORESANO
1516,466,ELCIORUIVERISSIMORIBEIRO,52,M5054,143,4:06:06,,Hidra
1517,947,FERNANDOCHANG,48,M4549,196,4:06:09,,MORONE
1518,4788,RICARDOWITTLERCONTARDO,42,M4044,280,4:06:15,,ZAIA&TITA
1519,832,WILLISARAUJO,47,M4549,197,4:06:21,,
1520,6487,ROBERTOGONCALVESVELLOZO,45,M4549,198,4:06:22,,LIFECONSULTORIAESPORTIVA
1521,132,EDUARDOSABOIA,48,M4549,199,4:06:25,,
1522,1475,JOAOJULIOARAUJO,36,M3539,347,4:06:25,,BORA
1523,4700,GLAUBERNIERO,31,M3034,283,4:06:26,,ROCKYBALBOA
1524,4268,LEONARDODOCARMOMACEDO,40,M4044,281,4:06:26,,AMIGOSDOCOLEGIOTIRADENTES
1525,2581,RAUFESALESRIBEIRO,42,M4044,282,4:06:26,,
1526,1136,ALBERTOMARTINHAGOVIEIRA,35,M3539,348,4:06:28,,CarmemLealAssessoria
1527,7185,ANTONIOLUIZDEOLIVEIRAJUNIOR,41,M4044,283,4:06:32,,PULSAR/TRF4-POA/RS
1528,3862,PABLOBERNACCHIA,48,M4549,200,4:06:32,,CorrerViviendo
1529,2637,IAGOGRAVINADIBOVA,27,M2529,122,4:06:38,,
1530,4128,MARCIOPORTOARAUJO,33,M3034,284,4:06:40,,NILTONUNESPORT
1531,3624,MATHEUSPEREIRAROLIMCASTANHO,28,M2529,123,4:06:40,,STARTPOINT
1532,2544,LUIZCARLOSSANT'ANNAJUNIOR,33,M3034,285,4:06:43,,PACEFIT
1533,2103,NATANIELSOUSA,49,M4549,201,4:06:46,,PLANETASSESSORIA
1534,5367,LUÍSFERNANDODIAS,49,M4549,202,4:06:47,,ENERGIAVITAL
1535,3264,PAULOROBERTODEABREU,54,M5054,144,4:06:49,,AlexandreRibeiro
1536,2785,LEANDROFERREIRADEALMEIDA,37,M3539,349,4:06:51,,
1537,4131,FILIPEAVILAGALLO,31,M3034,286,4:06:56,,RAFAELPERALVAASSESSORIAESPORTIVA
1538,2107,SERGIOGALIANORAMALHO,46,M4549,203,4:07:02,,PésnoChão
1539,4955,MARCELOGERALDODASILVAOLIVEIRA,48,M4549,204,4:07:03,,
1540,1721,JOSEARMANDODEOLIVEIRAFILHO,40,M4044,284,4:07:09,,Dilsonparatri
1541,2264,KLEVERTONVIANAARAUJO,46,M4549,205,4:07:09,,Dilsonparatri
1542,3435,PAULOROBERTORAMOSSERPA,44,M4044,285,4:07:12,,PÉDECANA
1543,6146,FLAVIONARCIZO,41,M4044,286,4:07:12,,EquipeCE+3
1544,7236,GILBERTOGOMESDONASCIMENTO,61,M6064,28,4:07:13,,SMELL
1545,3955,PEDROEDUARDOLEALDESOUSARODRIGUES,35,M3539,350,4:07:14,,IRONLIFEASSESSORIAESPORTIVA
1546,6892,WILSONBOMFIM,60,M6064,29,4:07:16,,BSBParque
1547,601,THIAGOTADEUDECARVALHOFERREIRA,35,M3539,351,4:07:18,,
1548,1600,RODRIGORAMOSARAUJO,36,M3539,352,4:07:19,,YESSASSESSORIAESPORTIVA
1549,6659,THIAGOJOSEDOMINGOSRAMALHO,37,M3539,353,4:07:20,,RunnersClub
1550,1046,JOAOCARLOS,39,M3539,354,4:07:20,,FACERUNNERS
1551,3232,GLAUBERLUISPEREIRALIMA,32,M3034,287,4:07:22,,LoboSolitário
1552,800,RAMIROFALCO,44,M4044,287,4:07:23,,BarbeitoTeam
1553,5723,JOSEDEMONTIERARAGÃOPONTES,61,M6064,30,4:07:23,,CARCARÁ
1554,1610,JOAOPAULOSHIHARUTOMA,35,M3539,355,4:07:24,,EvoluçãoCONAN/PangarésBauru
1555,5925,REGISRONCONEPINTO,36,M3539,356,4:07:32,,CASADOCORREDOR
1556,2268,AURELIOFERREIRABRAGA,42,M4044,288,4:07:32,,Glória
1557,4933,DANIELKASCHELCOUTO,37,M3539,357,4:07:33,,EUCORROEVC?
1558,4973,ARTURDACUNHARUFINOJUNIOR,42,M4044,289,4:07:34,,
1559,1234,RODRIGOJOSEFERNANDESSOARES,36,M3539,358,4:07:34,,SESCUNIVERSITÁRIO
1560,2589,AUGUSTOCESARLISITA,59,M5559,58,4:07:35,,SESC-SETORUNIVERSITÁRIO
1561,4233,FLÁVIODEALMEIDASIRQUEIRA,41,M4044,290,4:07:36,,
1562,6094,REYNALDOREISPINTO,52,M5054,145,4:07:36,,DELPHOS
1563,4484,EDUARDODEALMEIDAPINTO,40,M4044,291,4:07:37,,Varff
1564,6209,EDUARDOGUILHONARAUJO,41,M4044,292,4:07:38,,EquipeMárciaFerreira
1565,2712,CARLOSEDUARDODASILVATAVARES,41,M4044,293,4:07:41,,IRONLIFEASSESSORIAESPORTIVA
1566,1755,ALESSANDROSALESGENGO,38,M3539,359,4:07:43,,ADRIANOBASTOSASSESSORIAESPORTIVA
1567,6182,MARCUSCOSTA,35,M3539,360,4:07:44,,EQUIPELEGRAND
1568,1812,LEONARDODOSSANTOSPONTESLIMA,30,M3034,288,4:07:46,,ASCOM
1569,1696,IATAANDERSONMOURADASILVA,38,M3539,361,4:07:47,,
1570,6652,FREDERICOAUGUSTOSILVADALE,47,M4549,206,4:07:54,,RIOSAÚDE
1571,6393,VALMIRCARLOSDASILVA,51,M5054,146,4:07:56,,JUIZDEFORA
1572,692,THIAGODECASTROMOREIRA,38,M3539,362,4:07:56,,FOX
1573,6794,FELIPEMEDINAPAESRANGEL,37,M3539,363,4:07:59,,START
1574,6244,ALCIMARSOUZADASILVA,50,M5054,147,4:08:04,,EQUIPERUNNERSRIO
1575,3747,MARCOCAMPOS,39,M3539,364,4:08:07,,CARGOLOAD
1576,2540,SIDNEYMARTINSFERREIRA,54,M5054,148,4:08:09,,EQUIPEMARIADOSREMÉDIOS
1577,413,RICARDODECARVALHOSILVEIRA,31,M3034,289,4:08:09,,
1578,7197,VALDEZJULIODEMEDEIROS,43,M4044,294,4:08:09,,BLOG
1579,6707,THIAGOHENRIQUENOBREGADESALES,26,M2529,124,4:08:13,,JUIZDEFORA
1580,4301,ALEXANDREVEIGA,39,M3539,365,4:08:17,,STUDIOPHOENIXTRAINING
1581,4706,MARCOSVINICIOSOUZAAMORIM,30,M3034,290,4:08:19,,
1582,4441,RONALDTADEUALVES,33,M3034,291,4:08:20,,RRUNNERS
1583,5065,JÚLIOCÉSARSILVADEMENESES,47,M4549,207,4:08:20,,MILHAS
1584,2042,RODRIGORAMOSRIBEIRO,35,M3539,366,4:08:22,,chãodoGericino
1585,2078,CARLOSHENRIQUEMACANEIRO,59,M5559,59,4:08:23,,companhiadacorridadejoinville
1586,6248,CARLOSA.CESAR,53,M5054,149,4:08:23,,EQUIPERUNNERSRIO
1587,5554,ALEXBARBOSADACONCEIÇAO,50,M5054,150,4:08:23,,EQUIPEGERDAU
1588,2029,HENRIQUEHIPOLITORBIZARRIADEMORAIS,36,M3539,367,4:08:24,,ADRIANOBASTOSTREINAMENTOESPORTIVO
1589,772,RODRIGOHENRIQUESFERREIRA,40,M4044,295,4:08:25,,PACER
1590,4523,ANDERSONDOPARTODASILVADUARTE,38,M3539,368,4:08:25,,CHÃODOATERRO
1591,394,FELIPESOARES,34,M3034,292,4:08:26,,
1592,424,JOSESERGIODEOLIVEIRA,49,M4549,208,4:08:28,,ACRIITAJUBÁ
1593,3364,LEONARDOMAURMANNSPECK,34,M3034,293,4:08:29,,COREESPORTES
1594,6864,CLAUDIOULISSESSCALDINI,54,M5054,151,4:08:29,,LOSPANGAS
1595,2113,LAMARTINEFALLEIROCEZARJUNIOR,54,M5054,152,4:08:30,,IRONMIND
1596,527,MARCIOCHICRALLA,46,M4549,209,4:08:34,,SPEED
1597,3398,AUGUSTOCESARPEREIRADECASTRO,32,M3034,294,4:08:35,,
1598,5801,JOAOLUIZTEIXEIRANETTO.,35,M3539,369,4:08:37,,A&TENDURANCE
1599,3488,WAGNERIZABELFERREIRA,51,M5054,153,4:08:41,,SPEEDUAI
1600,4076,VELTMANSOUZABRANDANITENORIO,40,M4044,296,4:08:42,,WAYSOFT
1601,6916,MARCELOREISDASILVA,46,M4549,210,4:08:42,,VIDAMAIS
1602,4731,VLAMIRALVESCHAGAS,50,M5054,154,4:08:47,,CHÃODOGERICINÓ
1603,729,ARILDOANTONIOLEAL,47,M4549,211,4:08:48,,TSK
1604,7097,ADEMIRHERCULANODEOLIVEIRA,60,M6064,31,4:08:50,,AMIGOSDAILHA
1605,6206,LINCOLNBASTOSDESOUZA,54,M5054,155,4:08:50,,EquipeMárciaFerreira
1606,5885,WALDIRMARCIOPEREIRADEMELO,44,M4044,297,4:08:51,,athlonassessoriaesportiva
1607,6221,VALDECIELIASDACRUZ,60,M6064,32,4:08:51,,NOVEDEJULHO
1608,2378,MARCELOBELEM,46,M4549,212,4:08:53,,Mongeral/TFT
1609,2312,PAULODETARSOCHAGASDEALMEIDA,47,M4549,213,4:08:54,,
1610,6541,RENATOCOELHO,54,M5054,156,4:08:55,,MDRUNNERS
1611,886,FERNANDOJOSEPACHECOFONTES,43,M4044,298,4:09:01,,CORREREVIVER
1612,2278,VITORBOTTI,30,M3034,295,4:09:02,,
1613,5559,MARCELOCOSTATARGINO,34,M3034,296,4:09:02,,AVEXADOS
1614,2156,PAULOANTONIOLACERDA,48,M4549,214,4:09:04,,Tupã-PoliciaMilitar
1615,2628,PAULOROBERTORODRIGUES,55,M5559,60,4:09:05,,
1616,4357,RAFAELNACIFDONASCIMENTOTEIXEIRAALVES,34,M3034,297,4:09:08,,BHRUNTRAINING
1617,1250,LEOPOLDOHENRIQUEKERBER,36,M3539,370,4:09:12,,RissatoAssessoria
1618,6521,FAIROOLIVEIRABRASIL,35,M3539,371,4:09:14,,MAXIMIZEASSESSORIAESPORTIVA
1619,5524,MARCELOSPAVIERFERREIRA,36,M3539,372,4:09:15,,O2FIT
1620,681,HAROLDOLEAO,54,M5054,157,4:09:15,,FOX
1621,2801,RODRIGOLUISSANFURGODECARVALHO,41,M4044,299,4:09:15,,NúcleoAventura
1622,3136,ADAOSANTANA,37,M3539,373,4:09:16,,WoltersKluwerProsoft
1623,5737,JOSÉANTONIODASILVABASTOS,64,M6064,33,4:09:17,,BIO2
1624,3219,JULIUSCEZARDORERODRIGUES,52,M5054,158,4:09:18,,100JUIZO
1625,2425,JAIMEANTONIO,44,M4044,300,4:09:19,,
1626,6519,LUIZFERNANDOFREITASGUEDES,49,M4549,215,4:09:20,,MAXIMIZEASSESSORIAESPORTIVA
1627,2195,ANGELOJMALBUQUERQUE,39,M3539,374,4:09:20,,Macambira
1628,2389,JOSUEBENVINDODESOUZA,55,M5559,61,4:09:20,,Petrobras/Maximize
1629,451,ALEXANDREDASILVAPEREIRA,43,M4044,301,4:09:23,,SCANA
1630,3074,RICARDODOSSANTOS,45,M4549,216,4:09:24,,STARK
1631,3269,JECIMARSILVACUNHA,47,M4549,217,4:09:26,,ACFORMAS
1632,6394,SEBASTIAODOSSANTOSCALDEIRA,34,M3034,298,4:09:27,,JUIZDEFORA
1633,4319,JOEFISONEDVALDOMENDONCAPEREIRA,37,M3539,375,4:09:29,,
1634,2343,EMANUELCAPISTRANOCOSTAJUNIOR,32,M3034,299,4:09:29,,AG
1635,150,RODRIGOA.R.SANTOS,38,M3539,376,4:09:30,,NunageRunning
1636,3696,LUCASLEPORE,31,M3034,300,4:09:32,,NO
1637,2518,LAZAROMARIANO,31,M3034,301,4:09:33,,EQUIPEJULIOCASTRO
1638,2471,MAURICIOGILBERTOROMANROSS,35,M3539,377,4:09:35,,
1639,6277,MOISESALEXANDREMORAESLIMA,49,M4549,218,4:09:36,,E.C.TAVARES
1640,130,MARCOTULIOELIAS,46,M4549,219,4:09:40,,TR3
1641,443,ANDREMAXIMO,39,M3539,378,4:09:40,,BMTreinamento
1642,7324,RAFAELVINÍCIUSCOELHOARGUELLESCOSTA,37,M3539,379,4:09:44,,#NOME?
1643,3956,ANTONIOMACIEL,34,M3034,302,4:09:50,,CORPORESANORUNNING
1644,6249,JORGEDUARTESANTOS,24,M2024,24,4:09:50,,EQUIPERUNNERSRIO
1645,4115,FILIPELOPESDECUSATI,31,M3034,303,4:09:54,,JOAQUIMFERRARI
1646,5399,MILTONRIBEIROMARQUES,46,M4549,220,4:09:55,,FASTCORREDORES
1647,4686,LAURIRAPOSOJUNIOR,46,M4549,221,4:09:59,,UFA
1648,175,RAFAELGUSTAVOKRAVETZ,43,M4044,302,4:10:03,,TRAINERASSESSORIA
1649,6152,LEANDROSOUZAAMORIM,35,M3539,380,4:10:04,,EQUIPEHELAYNEEARYANE
1650,3279,MARCELODASILVA,31,M3034,304,4:10:04,,TheUntouchables/GarçaRunners
1651,4593,ANGELOBASILIOGARCIA,34,M3034,305,4:10:05,,JESUSTEAM
1652,551,ADEMIRALCALDE,43,M4044,303,4:10:07,,PeixePro
1653,6465,SIDNEILOPESDACOSTA,41,M4044,304,4:10:08,,INTHEGRA
1654,5431,SERGIOGALIZA,40,M4044,305,4:10:08,,
1655,1564,MOACIRGOBORJUNIOR,54,M5054,159,4:10:10,,MAXXYMA
1656,1431,DENISONDOSSANTOSALVES,31,M3034,306,4:10:11,,GAMAASSESSORIAESPORTIVA
1657,480,RAFAELSILVA,35,M3539,381,4:10:13,,
1658,2281,TIMOTEOWESTINDECAMARGOCESAR,34,M3034,307,4:10:15,,PapaLéguasRoraima
1659,1849,NEIANTONIODESOUZA,43,M4044,306,4:10:15,,RUNNINGCUIABA
1660,534,RODRIGOAUGUSTUSDOSSANTOSCRUZ,38,M3539,382,4:10:20,,JuriOutlet/NovoCéu
1661,1084,RICARDOBALDINI,62,M6064,34,4:10:22,,AltoRunningMendoza
1662,1269,FABIANOUNDICIATTI,41,M4044,307,4:10:23,,FITRUNNER
1663,5617,FRANCISCOFÁBIOVIEIRABESERRA,33,M3034,308,4:10:23,,1ªCIAENGCMBPQDT
1664,2606,BRUNODREUX,24,M2024,25,4:10:23,,
1665,2531,ANDERSONALONSOGOMESDESOUZA,29,M2529,125,4:10:24,,GAIVOTARUN
1666,1140,MAUROBALDINI,37,M3539,383,4:10:24,,AltoRunningMendoza(Argentina)
1667,3479,NEYCAIRESSOUSA,58,M5559,62,4:10:25,,TriathltonAss
1668,4964,JACOMOLEMESJUNIOR,40,M4044,308,4:10:27,,TRIATHON
1669,2263,JORGEDOSSANTOS,38,M3539,384,4:10:27,,Nurmi
1670,2904,SAULOMARCOSPEREIRADESOUZA,40,M4044,309,4:10:27,,VO2
1671,6078,ALBERTODASILVEIRAJUNIOR,42,M4044,310,4:10:28,,DEFAVERIRUNNERS
1672,1363,DANIELSINDEAUX,34,M3034,309,4:10:29,,EquipeSelva
1673,1272,VINICIUSNOGUIERA,22,M2024,26,4:10:30,,NAOTENHO
1674,3716,SERGIOSAFFE,44,M4044,311,4:10:31,,ACTSanJuan
1675,3048,DAMIANCESARINFANTE,47,M4549,222,4:10:31,,BarbeitosTeam
1676,1591,LEONARDODEMELLOALEXANDRE,23,M2024,27,4:10:37,,Endorfanáticos
1677,1642,ALEXANDREDESOUZAMELLO,40,M4044,312,4:10:37,,Endorfanàticos
1678,5766,SILVANOGOMESDASILVA,66,M6569,11,4:10:38,,PETROBRAS
1679,502,DOWERARAUJO,44,M4044,313,4:10:38,,PULSARRUNNING
1680,3268,ROMILDODOSSANTOSSANTANA,41,M4044,314,4:10:39,,ACFORMAS
1681,404,OTAVIOAYRESDASILVANETO,52,M5054,160,4:10:39,,RUNUP
1682,6688,RICARDOYURIFONSECARODRIGUES,30,M3034,310,4:10:40,,SESI
1683,4997,FRANCISCODEPAULAPEREIRAFILHO,37,M3539,385,4:10:43,,ASCORT
1684,2832,ESTEVAOCYPRIANOMONTEIROCOSTA,29,M2529,126,4:10:44,,AERCBRAS-TECNHIP
1685,582,JOSEAUGUSTOTOVAR,35,M3539,386,4:10:46,,ViaQualys
1686,2295,THIAGOBURATTOESTEVEZ,31,M3034,311,4:10:48,,Magrelos
1687,1145,AILTONPEREIRADOSSANTOS,44,M4044,315,4:10:50,,EQUIPEPENOCHÃO
1688,5234,JEORGEDAVYPORTODOSSANTOS,47,M4549,223,4:10:51,,EQUIPENOCHÃO
1689,3748,FABIOCAMPOS,41,M4044,316,4:10:52,,CARGOLOAD
1690,2277,BRUNONEGRETE,30,M3034,312,4:10:54,,BornToRun-FoxSG
1691,6271,JOSEMAURICIOJOPPERTCABRAL,56,M5559,63,4:10:55,,E.C.TAVARES
1692,3456,MARCOSVALERIODEOLIVEIRAALVES,46,M4549,224,4:10:58,,ManausAutomotive
1693,398,JOAOLUIZBENASSI,48,M4549,225,4:10:58,,AventuraEsportes
1694,535,ATILACAMPANAPORTELA,31,M3034,313,4:11:01,,
1695,4094,WILLIAMCARLOSALVESSANTANA,38,M3539,387,4:11:03,,
1696,5059,MARCOAURELIOZAMPIERI,33,M3034,314,4:11:10,,FITRUNNER
1697,5363,KEULEJOSÉDOCARMOROCHA,37,M3539,388,4:11:17,,SPRINTASSESSORIAESPORTIVA-PA
1698,6904,THIAGOSANTOSDASILVANUNES,35,M3539,389,4:11:17,,UPSPORTSCLUB
1699,4586,THIAGODECARVALHOLIMA,34,M3034,315,4:11:17,,
1700,4397,VINÍCIUSDECASTROTELLES,34,M3034,316,4:11:17,,
1701,1416,FILIPETHOMAZMALLET,40,M4044,317,4:11:17,,
1702,5104,WILSONDEALMEIDASOARES,44,M4044,318,4:11:19,,
1703,5999,ALEXANDREMAURICIOSIQUEIRA,41,M4044,319,4:11:19,,CORREDORESAMIGOS
1704,6340,MARCOANTONIOBIGATELLO,48,M4549,226,4:11:20,,FILHOSDOVENTO
1705,378,LUCASGARIMANNO,42,M4044,320,4:11:21,,Barbeito
1706,5408,LUISANTONIORODRIGUESDACOVA,53,M5054,161,4:11:22,,
1707,1407,LUDWIGCORREIALIMABEZERRAFREIRE,41,M4044,321,4:11:22,,TRIATIVO
1708,3606,CARLOSHENRIQUEANDRADE,41,M4044,322,4:11:23,,TRIATIVO
1709,3640,MARIOSCAFFIDI,41,M4044,323,4:11:26,,Goteampilar
1710,2381,CLAUDIODUARTE,43,M4044,324,4:11:32,,MARCIAPROENÇARUNNING
1711,2999,JOAOMORAIS,33,M3034,317,4:11:32,,
1712,6471,MILTONCEZIMBRAMARQUES,36,M3539,390,4:11:35,,INTHEGRA
1713,1561,MAURICIOLIMAFERREIRAPERES,40,M4044,325,4:11:37,,BRT
1714,837,RICARDODEFREITASREIS,61,M6064,35,4:11:37,,CaudadoCometa
1715,2403,FERNANDOMODESTODEAREU,53,M5054,162,4:11:39,,FERODONTO
1716,5619,JOSIASGONCALVESDONASCIMENTO,50,M5054,163,4:11:42,,
1717,6326,THIAGOLUIZPEREIRADASILVA,30,M3034,318,4:11:46,,FILHOSDOVENTO
1718,3579,DANIELHENRIQUECAPELLODEOLIVEIRA,29,M2529,127,4:11:48,,Bagaceiras
1719,370,EDUARDOBALTAZARDINIZ,46,M4549,227,4:11:48,,
1720,2168,FELIPELOPES,30,M3034,319,4:11:51,,INDAIARUN
1721,5846,ERIVELTONSANTOSLIMA,26,M2529,128,4:11:52,,Arcelormittal/Aest
1722,2139,DIEGODAVIN,27,M2529,129,4:11:52,,DiegoDavinPersonal
1723,2131,ANDREFALCAOFERRANDINI,41,M4044,326,4:11:52,,BrunoTreinos
1724,3174,ROBERTOCARLOSCORDEIRO,45,M4549,228,4:11:55,,ALTAVELOCIDADE
1725,6694,JOSEJAIDERDOCARMOAZEVEDO,59,M5559,64,4:11:55,,JUIZDEFORA
1726,6420,FERNANDOLOURENCOMAIADASILVA,43,M4044,327,4:11:58,,JUIZDEFORA
1727,306,HENRIQUEEUSTAQUIOPEREIRA,29,M2529,130,4:12:02,,VoltaMonitorada
1728,4825,JOSEDONIZETEDASILVA,46,M4549,229,4:12:04,,SUPERLAJE
1729,6270,ERICKMARQUESOLIVEIRA,50,M5054,164,4:12:04,,E.C.TAVARES
1730,1189,JULIANOREZENDE,28,M2529,131,4:12:06,,
1731,4179,VALDECIRNASCIMENTODASILVA,45,M4549,230,4:12:08,,
1732,983,CELSORICARDONOGUEIRAASCENCAO,35,M3539,391,4:12:09,,2anjos
1733,6947,ALEXANDREFERREIRA,0,M0015,3,4:12:10,,
1734,861,HELIOBRITO,50,M5054,165,4:12:11,,
1735,3260,CLAUDIOVIEIRARESENDE,43,M4044,328,4:12:13,,SOUTRI
1736,362,HELIOBORGESDELIMA,57,M5559,65,4:12:15,,Sup.Alvorada
1737,1116,NUNOHORTA,41,M4044,329,4:12:16,,CORBAMA
1738,5980,KLEBERFONSECAFERREIRA,53,M5054,166,4:12:18,,CMxAssessoriaEsportiva
1739,3231,LUISEDUARDODEOLIVEIRA,38,M3539,392,4:12:19,,
1740,1645,FABIANOBRITOMINARINI,38,M3539,393,4:12:20,,
1741,3833,MAXIMILIANODANIELOVIEDO,43,M4044,330,4:12:23,,none
1742,3801,TEUNSTIGTER,54,M5054,167,4:12:28,,none
1743,1784,DIONISIODASILVAREIS,39,M3539,394,4:12:30,,FILHOSDOVENTOS.T.LETRAS
1744,6255,EDGARDLUISDEARIGONICRAVO,44,M4044,331,4:12:30,,EQUIPERUNNERSRIO
1745,7171,MARCELOBARBOZADEOLIVEIRA,32,M3034,320,4:12:31,,LOBOASSESSORIAESPORTIVA
1746,6267,ROMILDOCARVALHO,52,M5054,168,4:12:32,,EQUIPERUNNERSRIO
1747,459,ALDOMAGNOFERNANDESLOPES,34,M3034,321,4:12:35,,100JUÍZO
1748,7079,JAMESGLENDON,67,M6569,12,4:12:35,,
1749,1496,DAMIANWILLIAMS,39,M3539,395,4:12:36,,
1750,4551,RAFAELBRAGASANTORONUNES,36,M3539,396,4:12:36,,Conception
1751,834,CLAUDIODECASTROREIFF,45,M4549,231,4:12:38,,
1752,5053,GUSTAVOLUIZSCATOLINIVIEIRA,35,M3539,397,4:12:42,,TRIACTION
1753,6799,ROBINSONRAYOLBRAGA,51,M5054,169,4:12:48,,START
1754,690,ROBERTOFRAGA,49,M4549,232,4:12:50,,IDEALEVITA
1755,430,LUIZFERNANDOMARTINS,35,M3539,398,4:12:51,,NOVAEQUIPE
1756,6329,JOSEOCTAVIOGUIMARAESJUNIOR,35,M3539,399,4:12:52,,FILHOSDOVENTO
1757,3396,EDUARDOCLEMENTEBUKAHI,32,M3034,322,4:12:52,,HANGOVER
1758,2017,RUBENSDEFREITASBRANDAO,51,M5054,170,4:12:53,,Papa-LeguasASSIS/SP
1759,3356,JOAOPAULODEOLIVEIRANEVES,52,M5054,171,4:12:55,,Guarani
1760,2656,SAMUELVALERIO,31,M3034,323,4:12:59,,EVOLUA
1761,7192,SELMODASILVAROCHAJUNIOR,32,M3034,324,4:12:59,,PIRAQUÊ
1762,7130,ALEXANDREARAUJO,35,M3539,400,4:12:59,,
1763,6737,FLAVIOHORTADECASTRO,54,M5054,172,4:12:59,,JUIZDEFORA
1764,691,GUILHERMERENNOAZEVEDO,27,M2529,132,4:13:01,,GETRUNNING
1765,5389,ANIBALSILVAREIGAS,53,M5054,173,4:13:03,,
1766,1844,IVAIRDOSSANTOSSOUZA,50,M5054,174,4:13:03,,
1767,6751,FERNANDOMARCHI,41,M4044,332,4:13:04,,JUIZDEFORA
1768,4166,BRUNOLOIOLAREGISFERREIRA,31,M3034,325,4:13:05,,TEOESPORTES
1769,5230,WALTERLUCASDASILVA,58,M5559,66,4:13:07,,
1770,2374,CARLOSEDUARDODEGODOISOUZA,36,M3539,401,4:13:07,,TRIACTION
1771,3473,JULIOPESSOAJUNIOR,47,M4549,233,4:13:09,,Acorja/Odontocape
1772,309,MARCUSVINICIUSPONTES,49,M4549,234,4:13:09,,ATP
1773,2562,JOSEROBERTOCESARPINHEIRO,46,M4549,235,4:13:16,,colégiomaristasantamariac.m.s.m
1774,4288,HENRYRIBEIROALVES,37,M3539,402,4:13:19,,
1775,3672,CARLOSROMEROFRANCODEALMEIDALEMOS,53,M5054,175,4:13:20,,UNIMEDMINAS
1776,5283,WALTERMARCELOMATOSALVES,44,M4044,333,4:13:20,,WMRUN
1777,785,HAMILTONJOSEPEREIRA,46,M4549,236,4:13:21,,
1778,5500,ANDRESAMPAIOSOUZA,36,M3539,403,4:13:22,,TRIAÇÃO
1779,4082,FRANKDIETER,51,M5054,176,4:13:23,,
1780,5030,DANILOSVERZUT,36,M3539,404,4:13:23,,
1781,4311,TADEUINACIOVIANA,35,M3539,405,4:13:24,,ALICEPAPAITEAMAMUITO!
1782,1748,CARLOSHENRIQUEMOTASILVA,45,M4549,237,4:13:28,,ZONAALVO
1783,6366,RICARDOSOUZACAVALCANTIDEALBUQUERQUE,38,M3539,406,4:13:28,,FILHOSDOVENTO
1784,1261,ADEMARDANGONE,36,M3539,407,4:13:29,,TitioRulesTeam
1785,5987,ANTONIOFERNANDESMACIEL,57,M5559,67,4:13:32,,CORPUSVITALLE
1786,6696,CRISTIANODEOLIVEIRAPAULA,25,M2529,133,4:13:32,,JUIZDEFORA
1787,1006,TOMEMANUEL,45,M4549,238,4:13:33,,
1788,5375,JOSADACHALVESDEALBUQUERQUEJUNIOR,40,M4044,334,4:13:34,,ZONAALVOARACAJU
1789,6108,ANTONIOCARLOSDESOUZARANGEL,49,M4549,239,4:13:38,,EMBRATEL
1790,7182,PIERREDESCAVES,56,M5559,68,4:13:38,,CATHOLICRUNNERS
1791,5268,MARCOSDECASTROEPEREIRA,52,M5054,177,4:13:41,,ClubeBomPastor
1792,6690,LUIZGONZAGADEOLIVEIRAJUNIOR,30,M3034,326,4:13:45,,JUIZDEFORA
1793,3420,JOSEFRANCISCO,63,M6064,36,4:13:48,,CORREDORESDOVULCÃO
1794,3009,JOAOMALIGO,45,M4549,240,4:13:50,,SimoneMachadoassessoriaesportiva
1795,2226,MAURODEPAULA,47,M4549,241,4:13:51,,MOCOTORUNNERS
1796,409,LEONARDOMARTINS,38,M3539,408,4:13:53,,STREETRUNNERS
1797,4096,ARTHURSILVAXAVIER,44,M4044,335,4:13:55,,SAÚDE2000TRIATHLONTEAM
1798,4479,DOUGLASLEONARDOMOREIRACANCIOPEREIRASOARES,38,M3539,409,4:13:56,,
1799,900,MANUELCADESCUNHAVITAL,45,M4549,242,4:13:57,,
1800,552,ANDRELUISMIRANDADEFREITAS,38,M3539,410,4:13:58,,LOUCOSPORCORRIDAMANAUS
1801,5986,ANDREDEALMEIDAARAUJO,52,M5054,178,4:13:58,,CORPUSVITALLE
1802,1500,JOAOPAULODEPAIVAMELO,36,M3539,411,4:13:59,,FernandoDiniz
1803,2383,GUSTAVODESOUZAESPINDOLA,38,M3539,412,4:13:59,,FernandoDiniz
1804,439,JAILSON,48,M4549,243,4:14:04,,CorridaDiversão&Beer
1805,1944,EDGARDIASDEABREU,32,M3034,327,4:14:05,,ASCORT
1806,2417,CARLOSALEXANDREDEMELO,38,M3539,413,4:14:07,,ASCORT
1807,1868,CLAUDIOSILVAMELO,51,M5054,179,4:14:08,,ALAMEDARUNNING
1808,1569,MARIOLUISTEIXEIRAFERREIRA,33,M3034,328,4:14:08,,CORRERENTREAMIGOS
1809,1528,RAFAELMATOSDELIMA,27,M2529,134,4:14:09,,ALAMEDARUNNING
1810,1429,SERGIOGODOYMENDES,58,M5559,69,4:14:09,,MORGANAASSESSORIAESPORTIVA
1811,5788,CRISTIANOBATISTADASILVA,40,M4044,336,4:14:09,,#NOME?
1812,4220,RENATOCOHEN,43,M4044,337,4:14:14,,ADEVANPERERIRAASSESSORIAESPORTIVA
1813,5527,THIAGOSFACHINIGOMES,38,M3539,414,4:14:14,,FAMILIANERUDAGRUPODECORRIDAMS
1814,6263,DOUGLASAMARALMOREIRA,39,M3539,415,4:14:14,,EQUIPERUNNERSRIO
1815,4990,LUCIANOORNELAS,38,M3539,416,4:14:14,,
1816,4748,MATHEUSAUGUSTONOGUEIRADESOUZA,21,M2024,28,4:14:21,,CAJURUFITNESS
1817,1534,DIEFERSONUMBELINA,32,M3034,329,4:14:21,,VITAESPORTES
1818,786,ALEXANDREMARTINSDASILVA,45,M4549,244,4:14:23,,
1819,6886,MARCIOJOSÉPEDROZABRAGA,54,M5054,180,4:14:24,,
1820,3670,DANIELCHIAPPARA,62,M6064,37,4:14:25,,NINGUNO
1821,2467,YGORBARROS,32,M3034,330,4:14:27,,TIADANI
1822,6113,HUGOLEONARDORAMOSPERIN,32,M3034,331,4:14:29,,EMBRATEL
1823,2251,ANDRELUISTRINDADEDOSSANTOS,46,M4549,245,4:14:30,,CélioLobato
1824,6063,LUIZFELIPERODRIGUESFERNANDES,32,M3034,332,4:14:33,,CORRERENTREAMIGOS
1825,583,PAULOJOSEDEDEUS,60,M6064,38,4:14:33,,COPASãoLourençoMG
1826,6254,EVANILDOROCHA,57,M5559,70,4:14:36,,EQUIPERUNNERSRIO
1827,7105,ALANDELFINODOSSANTOS,36,M3539,417,4:14:45,,
1828,6192,ANDREBUENO,39,M3539,418,4:14:46,,EQUIPELEGRAND
1829,3077,JOSECARLOSPRATASARINHO,46,M4549,246,4:14:48,,Legrand
1830,7173,GENIVALDOROSA,52,M5054,181,4:14:50,,lojadetenis
1831,706,JOSEDOMINGOSGOMESRIBEIRO,48,M4549,247,4:14:50,,FÔLEGOZERO
1832,5357,DRAUZIOBARROSLEALNETO,33,M3034,333,4:14:51,,
1833,3586,MARCOGOMES,36,M3539,419,4:14:51,,Nãotenhopatrociinio.
1834,3367,ABDONPRAZERES,44,M4044,338,4:14:54,,
1835,5221,HELDERSANDROCMOTA,44,M4044,339,4:14:58,,ZONAALVO
1836,2823,RUMENIGNEGREIROS,24,M2024,29,4:14:58,,
1837,3309,ADAOBORGESDOSSANTOSJUNIOR,38,M3539,420,4:14:59,,MARCHALENTABOTUCATU
1838,6081,RAFAELPROENCADOSSANTOS,28,M2529,135,4:14:59,,DEFAVERIRUNNERS
1839,1090,JORGEVINICIUSHAIDER,44,M4044,340,4:15:00,,
1840,6671,RICARDODEANDRADELINHARES,39,M3539,421,4:15:01,,TEAMTAVARES
1841,1948,GUSTAVOHENRIQUECCAVALCANTI,38,M3539,422,4:15:02,,BDAPQDT
1842,6548,FLAVIOBACELAR,46,M4549,248,4:15:02,,MLMIXRUN
1843,1751,RAFAELDASILVATEIXEIRA,31,M3034,334,4:15:02,,BOLARUNNING
1844,1246,FELIPECRESTANI,36,M3539,423,4:15:03,,AcademiaGustavoBorges
1845,1505,KAYOROCHAFERREIRA,27,M2529,136,4:15:04,,CORRIDAEPROSA
1846,3388,MATHEUSBARRETO,42,M4044,341,4:15:05,,AlcatelLucent
1847,2672,GEORGEMARMELSTEINLIMA,38,M3539,424,4:15:09,,PLANET
1848,1909,CELSOADRIANOGOMESDEFREITAS,39,M3539,425,4:15:09,,CENTOPEIA
1849,131,HELDERANDRADE,50,M5054,182,4:15:11,,Acorja
1850,3602,EDSONSILVESTREBORGONOVI,53,M5054,183,4:15:14,,CAFFE&CIA
1851,7194,CESARSCHWENCK,34,M3034,335,4:15:14,,Nike/BrutalCorre
1852,4866,DANIELSARTIGONÇALVESDESOUZA,44,M4044,342,4:15:15,,MPR
1853,4871,CLEITONPENIDOCUNHA,41,M4044,343,4:15:16,,
1854,490,DANIELLIRADASILVA,44,M4044,344,4:15:17,,CorpodeBombeiros19GBM
1855,3185,AMAURILIOCOSTA,55,M5559,71,4:15:17,,
1856,1843,LUCIANOFERREIRADOSSANTOS,31,M3034,336,4:15:18,,Acrimet/AgnaldoSampaio
1857,850,MURILOJOSEROSA,50,M5054,184,4:15:20,,ASCORREI
1858,803,FERNANDOARAUJO,52,M5054,185,4:15:20,,ZONAALVO
1859,2896,FELIPEPEREIRAARMELIN,34,M3034,337,4:15:20,,
1860,6816,FERNANDOANTONIODEFARIAS,54,M5054,186,4:15:23,,TELEX
1861,5344,JOSEVICENTEQUADRO,49,M4549,249,4:15:23,,
1862,7223,ANTONIOCARLOSFERREIRADASILVA,41,M4044,345,4:15:24,,Rocinha
1863,1200,LEONELWALLAUNORONHA,41,M4044,346,4:15:24,,PACESPORT
1864,5889,JOSENELSONNETO,41,M4044,347,4:15:26,,BarraEmpreendiemtos
1865,1293,MAICOLCOELHOLOURENCO,33,M3034,338,4:15:26,,ParkFitness
1866,2978,MARCIODOURADO,43,M4044,348,4:15:33,,RissatoAssessoria
1867,3222,EVERALDOCAMELOSILVA,47,M4549,250,4:15:37,,SULCARIOCA
1868,5891,RONNIEEVANGELISTA,35,M3539,426,4:15:38,,BarraEmpreendiemtos
1869,3858,JOSEANTONIOSOARESTRANNIN,54,M5054,187,4:15:39,,COREINTELIGENCIA
1870,1094,JOSEROBERTOMATEUSDASILVA,47,M4549,251,4:15:39,,RISSATO
1871,5486,JOSERICARDOBESSADASILVEIRA,51,M5054,188,4:15:41,,
1872,4368,JOSÉANTONIONASCIMENTO,53,M5054,189,4:15:43,,RIBEIRÃOPIRES
1873,6872,LUIZHENRIQUERIBEIROGALDEANO,45,M4549,252,4:15:44,,TENHO
1874,6104,RUIFONSECALOYOLA,35,M3539,427,4:15:46,,Eletrobras
1875,1985,EDILSONJOSEDASILVA,47,M4549,253,4:15:49,,Papa-leguasASSIS
1876,5449,JUAREZSARAIVADEJESUSJR,43,M4044,349,4:15:51,,ZONAALVO
1877,2406,JOAOVENCESLAUMEIRA,51,M5054,190,4:15:58,,Sesc-Bauru
1878,5409,DIEGOMORAISDUARTE,36,M3539,428,4:15:58,,CAVALARIA-ESAO
1879,3116,LUIZEDUARDOSILVAQUEIROZ,39,M3539,429,4:15:59,,PERSONALCLUB
1880,3527,THOMASJOSEMICHAELIS,57,M5559,72,4:15:59,,BRANCAESPORTE
1881,7152,GUILHERMEFONTENELLE,32,M3034,339,4:16:06,,
1882,5239,ERNANDOMIGUEL,52,M5054,191,4:16:06,,NAFAR
1883,7245,CLAYTONNEVESMARTINS,33,M3034,340,4:16:08,,ClaytonTeam
1884,2289,GUILHERMEMARTINSDEANDRADE,41,M4044,350,4:16:11,,PÉNARUA-SÃOJOSÉDOSCAMPOS
1885,4329,WAGNERCOELHODEOLIVEIRA,38,M3539,430,4:16:11,,
1886,768,PAULORENATOFERRAZNASCIMENTO,44,M4044,351,4:16:15,,RUNUP
1887,6624,FERNANDOSAMPAIO,36,M3539,431,4:16:16,,R5EXPRESSEVENTOSESPORTIVOS
1888,4682,DANIELCLAYTONSOUZAMACEDO,33,M3034,341,4:16:17,,MORONEBEMESTARESAÚDE
1889,5233,FRANCISCOBARROSODAMASCENOFILHO,44,M4044,352,4:16:18,,TRIATIVO
1890,4314,RODRIGOMOREIRALANSDOWNE,38,M3539,432,4:16:18,,M9ESPORTES
1891,2415,RONALDOSANTOSRIBEIROPINTO,49,M4549,254,4:16:19,,CORREIOS
1892,5694,MAURICIOPINTOJOAO,58,M5559,73,4:16:19,,FOLEGOZERO
1893,573,JOHNAROLSEN,47,M4549,255,4:16:19,,SCANA
1894,5318,ALEXANDREHOLANDAMONTENEGROMISERANI,47,M4549,256,4:16:21,,F2RUNNERS
1895,5380,AFONSOHERMESSALGADOMAGALHÃES,34,M3034,342,4:16:22,,CORRENDOPARACRISTO
1896,2580,ALTAIRCAMARGOFILHO,31,M3034,343,4:16:25,,
1897,1527,ALESSANDROATILADOSSANTOSVIEIRA,38,M3539,433,4:16:27,,
1898,796,JOAQUIMDAROCHACAVALCANTI,33,M3034,344,4:16:30,,#RUNJOCA
1899,1766,LUIZGUILHERMEDEOLIVEIRAPUGA,34,M3034,345,4:16:32,,
1900,660,IRINEUFERREIRADOSSANTOS,51,M5054,192,4:16:33,,DEVAGAR+CHEGA
1901,4238,RODNEILUISALMEIDADESOUZA,43,M4044,353,4:16:33,,CANELAFINA
1902,2568,ANDERSONCAETANODONASCIMENTO,30,M3034,346,4:16:34,,MAGNUS
1903,3995,ROBERTODANIELMURER,39,M3539,434,4:16:37,,ATENEORUNNINGTEAM-HAEDO-BUENOSAIRES
1904,1563,DIRCEUCARDOSOPEREIRA,53,M5054,193,4:16:38,,jrautopeças
1905,3699,ORLANDOCESARCUKLA,41,M4044,354,4:16:40,,none
1906,1345,EDUARDOSREZENDE,32,M3034,347,4:16:40,,
1907,6109,DENISMANSO,36,M3539,435,4:16:47,,EMBRATEL
1908,2874,GUSTAVOHENRIQUESCHELLE,31,M3034,348,4:16:49,,
1909,4266,FÁBIOLUIZBERNARDODASILVA,36,M3539,436,4:16:50,,VOLKSWAGEN/ASSESSOCOR
1910,4144,JOÃOBOSCODELIMACARDOSOFILHO,34,M3034,349,4:16:56,,SAUDEPERFORMANCE
1911,6441,MARCUSVINICIUSOLIVEIRASOUZA,42,M4044,355,4:16:57,,GUANATRAINER
1912,1089,FERNANDOPIVA,40,M4044,356,4:16:58,,KTS
1913,6803,JOILTONCASTRODASILVA,47,M4549,257,4:17:00,,START/MERCK
1914,1590,ANDRÉMACHADO,31,M3034,350,4:17:00,,CORRERENTREAMIGOS
1915,3516,NICOLASBRUNNER,36,M3539,437,4:17:01,,YAGUARETERUNNINGTEAM
1916,6785,MAURICIOMAGALHAESDEPAIVA,44,M4044,357,4:17:03,,SPEED
1917,3091,RAIMUNDOFERREIRADESOUZAFILHO,38,M3539,438,4:17:08,,PENOCHAO
1918,5305,CLÁUDIOCASTRODECARVALHO,43,M4044,358,4:17:09,,
1919,6268,RODRIGOSAVIOLOMOREIRA,35,M3539,439,4:17:13,,EQUIPEINSANOS
1920,4219,ROMULODESOUZAPIRESFILHO,42,M4044,359,4:17:14,,
1921,6767,ALEXANDRELANCADOSSANTOS,40,M4044,360,4:17:18,,SPEED
1922,1758,ALEXANDREBONIFACIODASILVA,42,M4044,361,4:17:19,,AhMuleke!
1923,4501,ANDERSONALEXDEJESUSPEREIRACAMPOS,37,M3539,440,4:17:19,,ASCS
1924,2661,RENATOMIYASHIRO,32,M3034,351,4:17:22,,4ANY1
1925,5546,RUBENSAMARALBORDIERI,60,M6064,39,4:17:22,,
1926,2705,CARLOSMESQUITA,46,M4549,258,4:17:24,,MarciaFerreiraMizuno
1927,2817,ARIVALDONEVES,47,M4549,259,4:17:25,,QUARK
1928,4655,RODRIGOFERREIRAGALVÃO,35,M3539,441,4:17:27,,EquipeStart
1929,3039,AGUSTINSORIA,46,M4549,260,4:17:29,,IRONSPORT
1930,927,GABRIELVALLADARES,37,M3539,442,4:17:32,,ProfessorGabriel
1931,7242,GERSONRODRIGUESLEONARDO,52,M5054,194,4:17:33,,
1932,3132,THIAGOCOUTO,33,M3034,352,4:17:34,,
1933,5668,SIDNEIDOSSANTOS,47,M4549,261,4:17:35,,EQUIPEJOTAEFE
1934,4415,RAFAELKAPPSVIEIRADIAS,33,M3034,353,4:17:35,,HYPERIONRUNNING
1935,6005,EMILIOAPARECIDOANTUNES,35,M3539,443,4:17:35,,CORREDORESAMIGOS
1936,4492,RONALDOSOUSASAMPAIO,40,M4044,362,4:17:36,,
1937,4154,ELOISIORODRIGUESDEOLIVEIRAFILHO,33,M3034,354,4:17:36,,ATTACKSPEED
1938,680,EDMILSONROCHA,52,M5054,195,4:17:39,,LoneRunner
1939,1841,JOSECARLOSROCA,61,M6064,40,4:17:40,,PangarésdeAraraquara
1940,6946,ROGERIOLOPESDOSSANTOSLARANJA,37,M3539,444,4:17:42,,
1941,2865,ALANLINDSEY,34,M3034,355,4:17:44,,MPR
1942,2596,VAGNERCHIODI,36,M3539,445,4:17:47,,CHIODIRUN
1943,3261,JOSEFRUTUOZODACUNHA,60,M6064,41,4:17:48,,EQUIPECOM-DOR
1944,2039,DELMARDICKEL,44,M4044,363,4:17:49,,
1945,2980,ELTONLOPESNASCIMENTO,32,M3034,356,4:17:51,,MaestroFitBag
1946,3017,JUANPABLOGIMENEZ,35,M3539,446,4:17:52,,ALTORUNNING
1947,449,EDUARDOACHEASSUMPCAO,34,M3034,357,4:17:53,,
1948,3728,SALOMAOBEZERRADUARTE,36,M3539,447,4:17:55,,TARSOMATOS
1949,6157,ILDOMARDECASTRO,47,M4549,262,4:18:02,,EQUIPEHELAYNEEARYANE
1950,1997,DAVICARLOSEVANGELISTA,47,M4549,263,4:18:03,,FITRUN
1951,1743,DIEGOLORENAVILELA,24,M2024,30,4:18:05,,avengedsevenfoldrunning
1952,3730,RENATOFAERODRIGUES,45,M4549,264,4:18:05,,StudioCarbonari
1953,510,JOSEALFREDOSCHLEMMGUEDES,54,M5054,196,4:18:06,,Bioecoesportes
1954,4353,MURIELRIBEIROALVES,34,M3034,358,4:18:08,,EQUIPEUFUDECORRIDADERUA
1955,7048,MARCELOBARTOLOMESANCHEZVELAZQUEZ,39,M3539,448,4:18:08,,
1956,7047,ALFREDOMARTINCANOSA,38,M3539,449,4:18:08,,
1957,4651,RAPHAELDESOUZAPEREIRA,34,M3034,359,4:18:10,,
1958,5570,FABIOPONTESRAMOS,35,M3539,450,4:18:10,,DIOGOPORTOTEAM
1959,1780,GLAUCOQUADROSSAPUCAHYDASILVA,43,M4044,364,4:18:12,,
1960,6868,SANDROFERNANDESDEMIRANDA,40,M4044,365,4:18:13,,
1961,5086,BRENOFERREIRABARCELLOS,34,M3034,360,4:18:13,,CORREBRASIL!
1962,6715,MARCELODEOLIVEIRAESILVA,37,M3539,451,4:18:13,,JUIZDEFORA
1963,6575,RICARDOROSADEOLIVEIRA,39,M3539,452,4:18:13,,MPR
1964,5010,GUSTAVOREYDECARVALHO,40,M4044,366,4:18:15,,ADRIANOBASTOS
1965,1742,ALEXANDREVINAGRE,37,M3539,453,4:18:15,,ADRIANOBASTOSTREINAMENTOESPORTIVO
1966,2456,ANDRELUISFEDELI,38,M3539,454,4:18:19,,ADALBERTOGARCIA
1967,2797,ALEXDEBRITODASILVA,39,M3539,455,4:18:19,,RUNLIFE
1968,6747,LUISFERNANDOSOARESBARTOLOMEU,53,M5054,197,4:18:19,,EQUIPEBOMPASTOR
1969,3381,ALEXANDERMAIA,37,M3539,456,4:18:20,,
1970,5990,FABIONAVARRODELIMA,45,M4549,265,4:18:20,,CORPUSVITALLE
1971,3196,RUBEMSANTOSFILHO,55,M5559,74,4:18:20,,
1972,3557,LUISCLAUDIODOSSANTOSALVES,37,M3539,457,4:18:20,,GrupodecorridaNixonFernandes
1973,4355,JOSEROBERTOFERNANDESDASILVA,32,M3034,361,4:18:25,,
1974,7024,RODRIGOPEREIRACAMPOSDEALMEIDA,32,M3034,362,4:18:26,,
1975,2473,GUSTAVOLANAFERREIRA,37,M3539,458,4:18:27,,
1976,3146,MARCELORAMOSRODRIGUES,42,M4044,367,4:18:28,,MarcioSoares
1977,5166,ANDREMORO,29,M2529,137,4:18:31,,
1978,6459,JOAOFELIPESILVADESOUZA,28,M2529,138,4:18:33,,INTHEGRA
1979,4006,JOSÉIGNACIOBELLORINI,37,M3539,459,4:18:34,,TIKHO
1980,6648,ALEXANDRESILVADERESENDE,43,M4044,368,4:18:35,,RECICLADOSPORCORRIDA
1981,4681,CARLOSALBERTOGOMESDASILVAFILHO,33,M3034,363,4:18:37,,
1982,5817,MARCELODESOUZA,43,M4044,369,4:18:39,,AcademiaSanchesSports
1983,4003,SANTIAGOFEDERICOCOROLEU,37,M3539,460,4:18:41,,
1984,6940,VAGNERMACHADODELIMA,43,M4044,370,4:18:42,,
1985,5763,EMILSONMACHADOCAVALCANTI,62,M6064,42,4:18:42,,PAPALÉGUAASSISSP
1986,3070,MARIOCOUTO,39,M3539,461,4:18:43,,carmemlealassesoriaesportiva
1987,4696,LUIZCARLOSALVESDASILVA,31,M3034,364,4:18:44,,
1988,1022,MICHELPROVOST,63,M6064,43,4:18:45,,RUNNERS
1989,4344,JOAOALBERTO,24,M2024,31,4:18:49,,TRIATIVO
1990,4993,FERNANDOHENRIQUEMARTINS,36,M3539,462,4:18:51,,TIMEASSESSORIA
1991,556,CRISTIANORIBEIRODASILVA,39,M3539,463,4:18:56,,Eumesmo
1992,1958,LEONARDODESOUZACUNHA,36,M3539,464,4:18:58,,RENATOMAIA
1993,575,FERNANDOMARQUESDOSSANTOS,38,M3539,465,4:18:59,,
1994,4345,REGINALDOGAMATEODORO,42,M4044,371,4:18:59,,EQUIPEABENÇOADA
1995,883,WALTERBARBOSA,50,M5054,198,4:19:00,,BALEIAS
1996,890,IRINEURASERAJUNIOR,47,M4549,266,4:19:02,,JABAESPORTES
1997,1728,FELIZARDOFREIREDECARVALHO,52,M5054,199,4:19:03,,MILHAS
1998,4282,IVODEOLIVEIRABRITOJUNIOR,41,M4044,372,4:19:05,,
1999,5020,ROBERTOCHRISTIANDEMANT,37,M3539,466,4:19:05,,DEMANTBROTHERS
2000,3005,LEONARDOSPERLEFERREIRALAGE,31,M3034,365,4:19:05,,
2001,2202,WANDREIROBERTVANESKI,45,M4549,267,4:19:10,,PYHORSE
2002,7046,JACKSONBRASILJACOBINAAIRES,62,M6064,44,4:19:18,,TIMEASSESSORIAESPORTIVA
2003,6296,JOÃOLUISBENATTOTORRES,37,M3539,467,4:19:18,,EQUIPETOSCANO
2004,654,BOIAKEVORKEKIZLERIAN,56,M5559,75,4:19:18,,EQUIPEJABAQUARADECORRIDAS
2005,4014,HERNÁNWILISZCZUK,33,M3034,366,4:19:19,,MEGATLÓN
2006,6301,ELIASNEMI,37,M3539,468,4:19:19,,EQUIPETOSCANO
2007,1529,RODRIGOVIERA,26,M2529,139,4:19:20,,Olimpia
2008,3108,EDISONLEANDRO,43,M4044,373,4:19:21,,PACER
2009,6187,FABIANOSILVA,36,M3539,469,4:19:25,,EQUIPELEGRAND
2010,109,LAUROMIZUNO,50,M5054,200,4:19:26,,CLUBEDACORRIDABERTOLINOLONDRINA
2011,6676,ANDRETAFFARELINACIODOSSANTOS,38,M3539,470,4:19:26,,SAUDE2000
2012,2144,JOSELUIZGUIMARAESFILHO,40,M4044,374,4:19:27,,MARATHONCLUB
2013,3733,ROGERSCHOLTZ,44,M4044,375,4:19:28,,none
2014,6771,PEDROOLIVEIRAPY,43,M4044,376,4:19:28,,SPEED
2015,3079,MARCOSANTONIOCANDIDO,59,M5559,76,4:19:30,,PACERASSESSORIA
2016,684,LUCIANOPEREIRAGOMES,44,M4044,377,4:19:30,,THURY
2017,461,EDUARDODEMENEZESVAZ,57,M5559,77,4:19:31,,
2018,1845,JUBIRACYPAIM,47,M4549,268,4:19:32,,BIRAPAIM
2019,577,HENRIQUEOLIVEIRADAHORA,61,M6064,45,4:19:35,,BALEIAS
2020,1745,MARCIOALBER,34,M3034,367,4:19:35,,EQUIPEZERO
2021,3559,RICARDILSONJOSESILVASOUZA,44,M4044,378,4:19:36,,grupodecorridasNixonFernandes
2022,994,WAGNERFALCI,37,M3539,471,4:19:39,,HopHunters
2023,4452,PAULOHENRIQUEMACHADODIASCHAVES,32,M3034,368,4:19:40,,ACRIITAJUBÁ
2024,1419,LUCIANOBOECHATDEALMEIDATEIXEIRA,31,M3034,369,4:19:41,,RMASSESSORIAESPORTIVA
2025,2731,LUIZFELIPEVANELI,25,M2529,140,4:19:47,,PERSONALFITCO.
2026,2723,RODOLFOCARVALHO,46,M4549,269,4:19:49,,CasaTemporada-ChapadadosVeadeiros
2027,206,ADRIANOABRAMAVICUS,38,M3539,472,4:19:50,,
2028,537,MARCOANTONIOOLIVEIRACHAVES,39,M3539,473,4:19:51,,LESMAS
2029,4393,DIEGOSANTOSMARCIALSANTANA,33,M3034,370,4:19:55,,
2030,4575,LEONARDOCASTRODEPAULA,34,M3034,371,4:19:56,,
2031,2176,CARLOSFELIPEDEAZEVEDOCASTILHO,34,M3034,372,4:19:58,,MOVEMENTE
2032,6250,MICHELPERESPEIXOTO,46,M4549,270,4:19:58,,MORONE
2033,3274,ANDERSONROCHADOSACRAMENTO,34,M3034,373,4:19:59,,
2034,3712,JOHNJMINI,52,M5054,201,4:20:02,,none
2035,3842,JUANALEJANDROBATTAGLIA,41,M4044,379,4:20:02,,ALTORUNNING
2036,4841,CAIOFERNANDESARANTES,43,M4044,380,4:20:03,,CORDELLATEAM
2037,3014,EFRAINMARIOGHIO,38,M3539,474,4:20:03,,FuerzaNatural
2038,1625,MARCELODILUCA,41,M4044,381,4:20:06,,LONGEVITTA-PORTOALEGRE
2039,4498,JOSEMARIAMENDEZ,31,M3034,374,4:20:06,,MEXICANOCARIOCA
2040,599,ROBSONSILVAVEJA,36,M3539,475,4:20:07,,facerunners/JoãodoPulo
2041,5366,PAULOCESARGONCALVESFERNANDES,45,M4549,271,4:20:07,,BORA/FRIENDSRUNNERS
2042,4009,MARTINROCCA,36,M3539,476,4:20:07,,BELEZARARA
2043,851,MARCOSCHICONELLIBAILER,37,M3539,477,4:20:08,,TeMove/LibertySeguros
2044,5392,LUCIANOSANDER,55,M5559,78,4:20:10,,
2045,5011,CLELIOHENRIQUESEMENSATOMOREIRA,39,M3539,478,4:20:11,,
2046,7328,JYEMERRODRIGUESDEOLIVEIRA,38,M3539,479,4:20:18,,CORREDORESMINALBA
2047,7063,KEVINMCLEISH,61,M6064,46,4:20:18,,
2048,5487,DAVIDPONTESEUGENIO,37,M3539,480,4:20:19,,CHRONOSTEAM
2049,2965,ORLANDODECARVALHOFILHO,50,M5054,202,4:20:20,,Kainagua
2050,5918,CLAUDIOANTONIOVIANA,49,M4549,272,4:20:20,,CASADOCORREDOR
2051,2599,RAFAELBISCONTIRODRIGUES,31,M3034,375,4:20:24,,
2052,7196,ERNESTODEBARROSNETO,46,M4549,273,4:20:25,,
2053,1166,CRISTIANORAPOSO,37,M3539,481,4:20:25,,RISSATOASSESSORIA/INSANOS
2054,352,RICARDOLARA,33,M3034,376,4:20:26,,ZDCRunningClub
2055,6450,HELIOMUNIZDAPAIXAO,49,M4549,274,4:20:27,,AVULSO
2056,1995,GUILHERMESOARES,29,M2529,141,4:20:27,,RUNNINGCUIABÁ
2057,6718,MOISESFERNANDESPEREIRA,40,M4044,382,4:20:27,,JUIZDEFORA
2058,5626,EVERSONROGÉRIODASILVA,43,M4044,383,4:20:30,,ASUFEPAR-CURITIBA
2059,1218,MARCOSDEJESUSLINS,43,M4044,384,4:20:30,,LinsInteractiveInformatica
2060,4029,ROBSONPACHECONASCIMENTO,45,M4549,275,4:20:33,,SPEED
2061,6328,JOSEMIGUELDEOLIVEIRA,47,M4549,276,4:20:34,,FILHOSDOEVNMTO
2062,3000,JOSEALVESDEOLIVEIRA,55,M5559,79,4:20:34,,
2063,2348,ROMULOBEZERRA,45,M4549,277,4:20:34,,AGASSESSORIAESPORTIVA
2064,2735,PEDRODOMINGOSDASILVA,65,M6569,13,4:20:36,,
2065,4242,SÉRGIODEMELOESOUZA,43,M4044,385,4:20:36,,
2066,4803,WELDERINACIOABREU,25,M2529,142,4:20:36,,ULTRASPORTS
2067,5505,VALMIRAPARECIDOFRANCO,58,M5559,80,4:20:39,,
2068,5183,THIAGOINACIODESOUZA,27,M2529,143,4:20:39,,
2069,4227,JEANCARLOSDANTASMENDES,38,M3539,482,4:20:43,,
2070,4223,LIANDERSONCARLOSGALHANO,41,M4044,386,4:20:44,,INFRAERO
2071,303,FABIOLUIZBISCAIA,44,M4044,387,4:20:47,,MAXXYMA
2072,5446,JOÃOEDUARDOGOMESDECAMARGOSSILVEIRA,33,M3034,377,4:20:53,,
2073,1359,DENISPLEC,30,M3034,378,4:20:55,,NÃOTENHO
2074,812,JOAONOVATO,52,M5054,203,4:20:56,,
2075,1171,BENOITCHOAIN,35,M3539,483,4:20:59,,Conquista
2076,3590,MATTHIASHENZE,50,M5054,204,4:21:04,,PEDROTOURS
2077,6188,ALEXANDERROCHA,33,M3034,379,4:21:04,,EQUIPELEGRAND
2078,1718,SAMUELHAMU,32,M3034,380,4:21:05,,EQUIPEDANIELCOSTA
2079,4598,JOSAFATEFRAIMMAIAFRANÇA,33,M3034,381,4:21:05,,EQUIPENICO
2080,4321,LUCIOCOELHO,54,M5054,205,4:21:06,,PAPALEGUASASSIS
2081,2812,ADAUTOLUCIOUCHOACOUTO,37,M3539,484,4:21:07,,TRIATIVOASSESSORIAESPORTIVA
2082,1280,HUGOMACIELSIMAO,28,M2529,144,4:21:09,,
2083,3975,ALEJANDRABARBAGLIA,51,M5054,206,4:21:09,,IRONSPORT
2084,4294,MARCUSDAMATTAABREU,37,M3539,485,4:21:15,,HYPERIONRUNNING
2085,5533,MAURÍCIODAROCHARIBEIRO,50,M5054,207,4:21:18,,
2086,5520,GELSONVENTURAGARCIA,50,M5054,208,4:21:20,,
2087,989,PAULONUNESSANTOS,53,M5054,209,4:21:21,,RUNBORA
2088,345,APARECIDOBATISTAFEITOSA,54,M5054,210,4:21:23,,BolaRunningS.Paulo
2089,5108,ALBERTOJOSÉCAVALCANTEJÚNIOR,47,M4549,278,4:21:28,,DIOGOPORTO
2090,4581,ANDREDESOUZAAGUALUZA,34,M3034,382,4:21:28,,CAKERUNNER
2091,4889,FRANCISCORODRIGUESFILHO,49,M4549,279,4:21:29,,VAGALUME
2092,898,RICARDOSOARESDASILVA,51,M5054,211,4:21:30,,_
2093,2114,JOSEMARIOSANTOSDEASSIS,26,M2529,145,4:21:32,,CORJARunning
2094,2576,ROBERTOVIEIRALOPES,47,M4549,280,4:21:36,,Nurmi
2095,7076,LARRYHINKLE,55,M5559,81,4:21:37,,
2096,3160,DENILSONCORREADOSSANTOS,48,M4549,281,4:21:39,,6ciamat
2097,4906,ENIOVIANADEARÊALEÃO,36,M3539,486,4:21:42,,TRIATIVO
2098,4474,LUCIOMAURODASILVAJUNGER,40,M4044,388,4:21:42,,
2099,715,JOSEMAURICIOLEAL,59,M5559,82,4:21:47,,KM42RIBEIRÃOPRETOS.P.
2100,3296,GIOVANNIESTEVES,36,M3539,487,4:21:49,,rex
2101,5023,OSMARDESOUZAOLIVEIRA,36,M3539,488,4:21:49,,
2102,522,RENATORICCOMEDEIROS,45,M4549,282,4:21:49,,
2103,1133,LEVIDOUGLAS,31,M3034,383,4:21:50,,CORREIOS
2104,545,JOAOVANDERLEIBERTONI,50,M5054,212,4:21:54,,MOVINGRUN
2105,6689,WILLIANSDASILVAPERINA,38,M3539,489,4:21:56,,SESI
2106,6245,DOUGLASVIEIRADEMELLOCERQUEIRA,36,M3539,490,4:21:58,,EQUIPERUNNERSRIO
2107,5641,RICARDOBOUILLETDEORNELLAS,46,M4549,283,4:21:58,,TEAMTAVARES
2108,4754,THIAGODOSSANTOSVAZ,30,M3034,384,4:22:01,,
2109,1228,FABIOHEBFNER,41,M4044,389,4:22:03,,noiasrun
2110,853,ANTONIOCARLOSSATIAGODEMORAES,41,M4044,390,4:22:05,,
2111,598,LUISEDUARDOMARTINSPACHECOCARVALHO,43,M4044,391,4:22:10,,
2112,603,HIGOLOPES,33,M3034,385,4:22:11,,
2113,491,RAFAELFERNANDESDOSSANTOSDIAS,35,M3539,491,4:22:12,,MultiesportivaES
2114,6506,FELIPEAUGUSTOMARIOTO,31,M3034,386,4:22:12,,LOBOASSESSORIA
2115,4399,ALMIRDECARVALHOSILVA,34,M3034,387,4:22:13,,
2116,3357,JULIOCESARMOREIRACHRISTO,55,M5559,83,4:22:18,,SPACERUNNERS
2117,4462,CRISTIANCIRRONISPAIVA,31,M3034,388,4:22:19,,
2118,5217,RICARDOVARANDA,58,M5559,84,4:22:19,,
2119,5038,FAGNERROBERTOMELO,34,M3034,389,4:22:20,,CORRE+(SESCPOMPÉIA_SP)
2120,3020,MARCELOOBINU,46,M4549,284,4:22:21,,
2121,2825,RAPHAELPETRINIDAMASCENO,37,M3539,492,4:22:21,,
2122,6433,ROBERTLUIZCOSTA,41,M4044,392,4:22:24,,GUANATRAINER
2123,1426,JOAOPAULODEAVELAR,30,M3034,390,4:22:24,,GivaldoTriunfo
2124,6774,JANDERSONALMEIDA,36,M3539,493,4:22:24,,TIME
2125,6775,CLAUDIOREISDESANTANNA,50,M5054,213,4:22:24,,SPEED
2126,6103,MARCOSAJAJSAAD,51,M5054,214,4:22:25,,SPEED
2127,6791,WELLINGTONDASILVASAMPAIO,39,M3539,494,4:22:31,,START
2128,5830,RAFAELRUHL,32,M3034,391,4:22:35,,VELOXFITNESS
2129,369,JOSEWALTERBESSAMACEDOSA,41,M4044,393,4:22:39,,SANTIAGOASCENÇOASSESSORIA
2130,5021,PAULORICARDOMONTEIRO,37,M3539,495,4:22:40,,CLUBEESPERIA
2131,5934,RANULFOPEREIRADEOLIVEIRA,61,M6064,47,4:22:42,,CHÃODOATERRO
2132,1339,ALUIZIOGONCALVES,37,M3539,496,4:22:42,,R80
2133,5799,MAURICIOBORGESDEOLIVEIRAALVES,47,M4549,285,4:22:44,,4ANY1ASSESSORIAESPORTIVA
2134,6610,THIAGODEJESUSOLIVEIRA,31,M3034,392,4:22:46,,PéCarioca
2135,2462,ANTONIORUBENSDEPAULACAMPOSFILHO,39,M3539,497,4:22:54,,SPRINTASSESSORIAESPORTIVA
2136,2914,GABRIELTEIXEIRADACRUZESILVA,30,M3034,393,4:22:58,,CoreEsportes/CoreSussa
2137,1319,RAPHAELPEREIRA,43,M4044,394,4:22:59,,PangaresdeAraraquara
2138,314,MANOELGENY,39,M3539,498,4:23:03,,
2139,5286,JOSÉPAULOVIEIRA,49,M4549,286,4:23:03,,FILHOSDOVENTOS.T.LETRAS
2140,4752,CAIOCÉSARNASCIMENTOREZENDE,28,M2529,146,4:23:06,,CR.FAR
2141,5883,PETRUCIOMANDUDELIMA,40,M4044,395,4:23:08,,athlonassessoriaesportiva
2142,5379,BRUNOCALVOSOPAGANOANDREOZZI,36,M3539,499,4:23:15,,MOLEZA
2143,3243,ELEANDROSILVA,44,M4044,396,4:23:16,,
2144,3212,ARMANDOSALESMACEDOSOBRINHO,32,M3034,394,4:23:18,,HERBALIFERUNNERS
2145,3934,FERNANDODEAZEVEDOMONTEIRO,48,M4549,287,4:23:19,,RunnersClub
2146,4860,ANDREFONTESDOSSANTOS,41,M4044,397,4:23:20,,CRISTOÉPODER
2147,2385,ALEXMONTEIRO,37,M3539,500,4:23:21,,TURMADACORRIDADEPINDASP
2148,2782,WELLINGTONLUISCALDEIRA,34,M3034,395,4:23:23,,JUIZDEFORA
2149,6288,LUISCARLOSNUNES,55,M5559,85,4:23:29,,E.C.TAVARES
2150,5545,ROMILDOSALESFERREIRA,50,M5054,215,4:23:29,,
2151,5685,ROGERIOPAULINOCHAGAS,43,M4044,398,4:23:30,,BORAACESSORIAESPORTIVA
2152,5485,JOSECARLOSBATISTA,59,M5559,86,4:23:30,,Rtraining
2153,5302,ROBSONRICARDOLOBODASILVA,45,M4549,288,4:23:36,,UPMULTISPORTS
2154,1054,ANDRELUIZ,41,M4044,399,4:23:39,,
2155,7327,FABIOHOMEMDEMELLOMEDEIROS,41,M4044,400,4:23:45,,
2156,4567,MAUROHENRIQUESILVASANT'ANA,37,M3539,501,4:23:46,,
2157,1179,JOCIMARGUIMARAES,44,M4044,401,4:23:47,,JG
2158,5236,RICARDOJULIANOMOURA,59,M5559,87,4:23:47,,
2159,3397,JOABSILVA,45,M4549,289,4:23:53,,PinguçoCorredor
2160,2700,LEANDROGARCIA,42,M4044,402,4:23:53,,ADALBERTOGARCIA
2161,2171,FABIOVARALDADASILVA,34,M3034,396,4:23:55,,FÁBIORUNNING
2162,5518,LEONARDOVASCONCELOSMEIRELES,39,M3539,502,4:23:56,,MORGANAASSESSORIAESPORTIVA
2163,2236,FERNANDOCAVALEIRO,36,M3539,503,4:23:56,,EQUIPETOSCANO
2164,6203,IVANJOSEBATISTAFERRERA,61,M6064,48,4:23:58,,EquipeMárciaFerreira
2165,1005,FRANCISCOANDRECARNEIROMAGALHAES,44,M4044,403,4:23:58,,AG
2166,6861,MÁRCIONEVES,48,M4549,290,4:23:59,,LOSPANGAS
2167,2373,ALEXANDREJOSEDASILVA,41,M4044,404,4:23:59,,WellnessRunning
2168,3584,LINDIOBERGDEALMEIDAPRADO,48,M4549,291,4:24:02,,PMR-PauloMarceloRios
2169,2945,LUIZCESARDASILVAMOREIRA,44,M4044,405,4:24:04,,Birinhotri
2170,5795,JEANMIROSILVAPEREIRA,45,M4549,292,4:24:04,,4ANY1ASSESSORIAESPORTIVA
2171,3936,ANDERSONGABRIELREZENDE,42,M4044,406,4:24:04,,SPEEDUAI
2172,5914,LAFAIETEVALADARESDOSSANTOS,46,M4549,293,4:24:06,,CASADOCORREDOR
2173,156,JOSEMENEZESDANTAS,65,M6569,14,4:24:08,,mercadodantas
2174,3517,ANDREVINICIUSDEOLIVEIRAESILVA,38,M3539,504,4:24:09,,BRANCAESPORTES
2175,1835,ADONISOLIVEIRA,29,M2529,147,4:24:11,,EquipeRage
2176,5775,JOAOLUCENAARARUNA,60,M6064,49,4:24:12,,ZONAALVO
2177,4959,ALEXANDREHENRIQUEMACCHETTI,40,M4044,407,4:24:15,,
2178,3613,FRANKHOLZNER,41,M4044,408,4:24:15,,Grosse-CoosmannSportreisen
2179,3695,HEIKOWEINHAPPL,35,M3539,505,4:24:15,,BSZBietigheim-Bissingen
2180,5680,RALPHGUIMARÃESSIMÕES,46,M4549,294,4:24:15,,
2181,2846,FABRICIONETTOLOCHE,33,M3034,397,4:24:16,,
2182,2715,SAMUELELIASTIANGO,37,M3539,506,4:24:17,,VidativaJuizdeFora
2183,3988,JUANPABLOTEYSSEIRE,43,M4044,409,4:24:18,,
2184,4778,RENANPEREIRADANTAS,25,M2529,148,4:24:20,,FORTUNATRI
2185,6855,FABIOMIGUELELIASPEREIRA,30,M3034,398,4:24:21,,
2186,432,BRUNOCHAGASDONASCIMENTO,35,M3539,507,4:24:25,,Rota5kdofuturo
2187,943,JAMESSANTOSSILVA,43,M4044,410,4:24:26,,TEAMLOUCOSPORCORRIDAS
2188,5131,GUSTAVOANDRADEFEITOSA,31,M3034,399,4:24:26,,FORTESTRAININGELOACADEMIAADIDAS
2189,827,MATHEUSABRAHAODEARAUJO,29,M2529,149,4:24:27,,PACERASSESSORIAESPORTIVA
2190,5777,OTTOGOETSCH,69,M6569,15,4:24:27,,
2191,1988,HERMANNBARRETO,32,M3034,400,4:24:29,,GuruçaRunning
2192,7154,LEANDROLIMADASILVA,43,M4044,411,4:24:31,,
2193,6811,ALEXANDREMEIRELES,41,M4044,412,4:24:31,,STREETRUNNERS
2194,6736,CHRISPIMBORGESDOSSANTOS,59,M5559,88,4:24:34,,JUIZDEFORA
2195,5835,LUCIANOROBERTOR.DASILVA,36,M3539,508,4:24:36,,VELOXFITNESS
2196,3015,MARIOALBERTOMANSILLA,27,M2529,150,4:24:38,,IRONSPORT
2197,6363,MARCELODACOSTAOLIVEIRA,48,M4549,295,4:24:40,,FILHOSDOVENTO
2198,6464,ANDERSONASSISMATHIAS,42,M4044,413,4:24:44,,INTHEGRA
2199,1964,VINICIUSHENRIQUECRUCIOLVECCHIATTI,32,M3034,401,4:24:44,,LigadaCorrida
2200,1147,SERGIOFALCAOROLLONETO,32,M3034,402,4:24:45,,BRESPORTES
2201,5015,FERNANDOANTONIOCOSTAPEREIRA,48,M4549,296,4:24:46,,CORREFORCONTABILISTA
2202,1212,RICARDOPAPP,49,M4549,297,4:24:46,,BRANCAESPORTES
2203,1805,MARCELOLOPESVIEIRA,38,M3539,509,4:24:46,,CorredoresCariocas
2204,5080,MARCOAURÉLIOMARQUESDOSREIS,33,M3034,403,4:24:47,,DAMASPORTS
2205,1887,DJACIMATOS,53,M5054,216,4:24:52,,RunnersClub
2206,7102,NELSONFERREIRA,43,M4044,414,4:24:54,,AMIGOSDAILHA
2207,6493,RAFAELREISSCHULZ,32,M3034,404,4:24:54,,LOBOASSESSORIA
2208,2847,LUIZALBERTOALVESMOTA,56,M5559,89,4:24:55,,
2209,901,MARIOSERGIOMOSQUEIRA,47,M4549,298,4:24:56,,MHEX/FC
2210,6502,MARCIOAPARECIDOPAULAO,33,M3034,405,4:24:57,,LOBOASSESSORIA
2211,3085,PAULOCESARSADALAFERREIRA,37,M3539,510,4:25:00,,PACERASSESSORIA
2212,5595,RAFAELAGUIARLIMA,34,M3034,406,4:25:01,,AVEXADOS
2213,519,JOSEMILSONALCANTARA,60,M6064,50,4:25:03,,CRETOVALE/MULTIESPORTIVA
2214,5425,SILVIOCESARBUDALARINS,46,M4549,299,4:25:06,,FLORDEMAIOMODAIINTIMA
2215,4771,DANIELDUQUEESTRADAFERNANDESDEMELO,26,M2529,151,4:25:08,,
2216,912,YURIRODRIGUES,26,M2529,152,4:25:09,,PEGASUSP
2217,6888,DANIELFONSECADEMELLO,54,M5054,217,4:25:09,,AVULSO
2218,4317,RAFAELLEITE,41,M4044,415,4:25:11,,AEROBICA
2219,707,GABRIELJUNQUEIRA,35,M3539,511,4:25:13,,PACERRIBEIRÃOPRETO
2220,2586,MARCOAURELIODEANDRADE,34,M3034,407,4:25:13,,TriactionAssessoriaEsportiva
2221,2255,NELSIFRANCISCOSTRELOW,59,M5559,90,4:25:15,,Pacefit5WAYS
2222,1871,GUSTAVOPEREIRAGOMES,26,M2529,153,4:25:17,,
2223,6259,RAFAELDAVEIGAALBAO,34,M3034,408,4:25:17,,EQUIPERUNNERSRIO
2224,6703,PAULOSERGIODEPAULA,43,M4044,416,4:25:23,,JUIZDEFORA
2225,6687,LEANDRODESOUZACASTRODOSSANTOS,35,M3539,512,4:25:24,,SESI
2226,6176,ANTONIOMARCOSBARBOSA,41,M4044,417,4:25:25,,EQUIPELEGRAND
2227,5054,FABIOEDUARDONAKAMOTO,40,M4044,418,4:25:25,,
2228,3402,JOAOMANOELJOAQUIMXAVIER,49,M4549,300,4:25:26,,equipeguruçárunning
2229,6223,ROBERTOANTONIOPEREIRA,54,M5054,218,4:25:33,,NOVEDEJULHO
2230,7319,FABIANODASILVAHERMENEGILDO,38,M3539,513,4:25:33,,#NOME?
2231,6770,OTHONJOSEDECASTROSILVA,34,M3034,409,4:25:36,,SPEED
2232,3902,CARLOSHERMOSILLA,41,M4044,419,4:25:37,,none
2233,4078,RICARDOJOSÉNUNESSIQUEIRA,27,M2529,154,4:25:40,,.
2234,1834,JOAOSILVANETO,37,M3539,514,4:25:40,,CiaC/1RegiãoMilitar
2235,7026,FELIPEBASELICEPELICIONI,38,M3539,515,4:25:45,,
2236,6535,ALEXLINSDEARAUJO,42,M4044,420,4:25:46,,MDRUNNERS
2237,1830,VALERIODELLAGIUSTINA,41,M4044,421,4:25:49,,OSMADRUGADEIROS
2238,2588,MARCELOAMORA,33,M3034,410,4:25:52,,FitOneTreinamentoPersonalizado/DPTEAM
2239,6582,MARCELOGERALDOVIEIRAESILVA,47,M4549,301,4:25:57,,MTFITRUNASSESP
2240,2129,MARCELOBATISTA,40,M4044,422,4:25:57,,START
2241,3843,JOSERICARDOPEREIRADESOUSA,47,M4549,302,4:25:58,,NENHUM
2242,1325,ALVAROLUISROLLEMBERGSANTANA,54,M5054,219,4:25:59,,ZONAALVOARACAJU
2243,425,JORGEISSAMUKAWAMURA,50,M5054,220,4:26:01,,MPR
2244,4240,MARCELODECARLICAVALCANTI,37,M3539,516,4:26:01,,
2245,1279,ATEFYASSINNETO,32,M3034,411,4:26:01,,
2246,872,EDUARDOPROCOPIOSILVA,48,M4549,303,4:26:07,,MARCIAFERREIRA
2247,5325,HANDERSONCARLOSBRAÚNAMACIEL,24,M2024,32,4:26:10,,TRIATIVOASSESSORIAESPORTIVA
2248,6166,RENILDOAUGUSTODEARAUJO,57,M5559,91,4:26:11,,EQUIPEHELAYNEEARYANE
2249,2962,PAULOVITORQUINTALLUCKE,24,M2024,33,4:26:11,,COREESPORTES/TRICAIPIRAS
2250,5582,PAULOROBERTOBASTOSDEALMEIDAJUNIOR,30,M3034,412,4:26:12,,SPRINT
2251,208,SAMUELVILELAFERREIRA,48,M4549,304,4:26:14,,SPAÇORUN
2252,6463,LUIZHENRIQUEVICENTEDACOSTA,37,M3539,517,4:26:17,,INTHEGRA
2253,5543,STEFANZINK,51,M5054,221,4:26:17,,EUROCLASS
2254,3931,FRANCISCOSERGIOSALESANDRADE,56,M5559,92,4:26:20,,CELIOLOBATO
2255,3622,RAMONREYNALDOFERNANDEZBARBA,33,M3034,413,4:26:23,,none
2256,4782,WALLACEDEPAULAPEREIRA,29,M2529,155,4:26:29,,MSRUNNINGCHIVUNKRUNNERS
2257,7052,GERRITVANBEEK,54,M5054,222,4:26:29,,
2258,5534,CIRINOCARNEIROSOARES,52,M5054,223,4:26:30,,CHÃODOGERICINÓ
2259,6356,FILIPELAUDODECAMARGO,40,M4044,423,4:26:34,,FILHOSDOVENTO
2260,3352,ERNESTOGREINERTFILHO,62,M6064,51,4:26:39,,
2261,727,ANTONIOJOSEDESOUZA,49,M4549,305,4:26:40,,
2262,1719,MARCUSVINICIUSTAVARESGOMES,40,M4044,424,4:26:42,,RXEquipedeCorrida-ALUNOSePARCEIRO
2263,106,OLAFHANTEL,50,M5054,224,4:26:47,,FullrunnersChile
2264,3262,WILSONRODRIGUESDASILVA,54,M5054,225,4:26:48,,esposende
2265,6883,CANDIDOARCOVERDEDASILVA,59,M5559,93,4:26:48,,CAIXA
2266,5569,LUIZANDRETEIXEIRALEAO,52,M5054,226,4:26:51,,
2267,6119,DOUGLASESPIRITOSANTOJACINTHO,36,M3539,518,4:26:55,,EMBRATEL
2268,7066,JOSEPHSCHLERETH,65,M6569,16,4:26:56,,
2269,3034,RODOLFOFELIPELUZCO,50,M5054,227,4:26:57,,ateneorunningteamhaedo
2270,5682,LUIZCARLOSDAROCHASANTOS,49,M4549,306,4:27:01,,FURNAS
2271,6900,ANDRÉLUIZLOPES,48,M4549,307,4:27:08,,Equipex
2272,4239,EDUARDOAUGUSTOGIAVARINAALVES,40,M4044,425,4:27:09,,MT3RUNNERS
2273,6132,ADRIANSOMMAMOUTINHO,36,M3539,519,4:27:10,,EquipeActions
2274,5330,DOMINGOSQUEIROZDOSSANTOS,55,M5559,94,4:27:11,,BRUNALEAL
2275,7295,ANTONIOALVESDASILVAFILHO,64,M6064,52,4:27:12,,
2276,944,DIEGODOSSANTOSARAUJO,37,M3539,520,4:27:13,,ROCCA
2277,3233,JOSEOLIVEIRA,66,M6569,17,4:27:17,,ACORES
2278,5845,IGORMARQUESDASILVALIMA,28,M2529,156,4:27:21,,Arcelormittal/Aest
2279,2642,FERNANDOBURGOSPIMENTELDOSSANTOS,37,M3539,521,4:27:25,,SKARPTEAM
2280,5119,MARCOSANTONIOBORGES,32,M3034,414,4:27:28,,SBRUNNERS
2281,1544,GUSTAVOCOSTA,28,M2529,157,4:27:29,,
2282,168,SAIDTAKIEDDINE,48,M4549,308,4:27:33,,SAIDTAKIEDDINE
2283,3238,RANDALJOVINOOLIVEIRAANTONIO,60,M6064,53,4:27:35,,SERGIOSPORTS-AM
2284,2768,ANDRADESILVA,43,M4044,426,4:27:36,,
2285,6573,MARCELLODEALBUQUERQUE,42,M4044,427,4:27:38,,MPR
2286,4216,RAYNORBRAZPEDRUZZI,41,M4044,428,4:27:38,,OXIGENARASSESSORIAESPORTIVA
2287,2760,LUCIOCAMPELLO,46,M4549,309,4:27:40,,EVOLUAMULTISPORTS
2288,5802,OCTAVIOCUNHATFRANCA,40,M4044,429,4:27:45,,A&TENDURANCE
2289,843,LUIZROBERTOPINON,60,M6064,54,4:27:47,,VALEMULTIESPORTIVA
2290,5062,GILMARHENRIQUEBUTELLI,58,M5559,95,4:27:50,,WALTERTUCHÉASSESSORIAESPORTIVA
2291,4701,RAULRIZZOBASTOS,30,M3034,415,4:27:57,,
2292,3135,PABLORAMALDESLINS,35,M3539,522,4:27:58,,PABLO
2293,5099,MARCOANTONIOHILARIOMATTOS,55,M5559,96,4:27:58,,
2294,2410,MAURICIOPEREIRADATRINDADE,32,M3034,416,4:27:58,,GUEPARDONEGRO
2295,209,VALDOMIROVIEIRA,46,M4549,310,4:27:59,,
2296,6490,NILSONCARDOSOJUNIOR,43,M4044,430,4:27:59,,LOBOASSESSORIA
2297,7239,ANTONIOALVESDASILVAFILHO,51,M5054,228,4:28:01,,SMELL
2298,5650,EDGARMARIOMULLER,35,M3539,523,4:28:02,,NORETREATNOSURRENDER
2299,4335,IVANBRUNODEJESUSESANTOS,26,M2529,158,4:28:07,,RAFAELPERALVA
2300,4957,LUIZSERGIOOLIVEIRASANTANA,52,M5054,229,4:28:08,,
2301,6887,GREGORIOGOMESDASILVA,48,M4549,311,4:28:10,,5Ways/Pacefit
2302,3336,RICARDOMACHADOFERREIRA,43,M4044,431,4:28:18,,PeixePróAssessoriaEsportiva
2303,6121,HECTORPEDRORODRIGUEZMALDONADO,38,M3539,524,4:28:20,,EMBRATEL
2304,2082,FRANCISCOEDINALDO,42,M4044,432,4:28:21,,tioflavilho
2305,6882,RODRIGOMARINHOALONSOSANTOS,35,M3539,525,4:28:23,,EMGEPRONEMMOVIMENTO
2306,3348,JOAOINOCENTEDEANDRADE,32,M3034,417,4:28:23,,RUNNINGCUIABÁ
2307,6629,GILBERTODONIZETTIARAUJO,51,M5054,230,4:28:23,,R5EXPRESSEVENTOSESPORTIVOS
2308,6919,CESARCUSINATOGAUTERIOJUNIOR,41,M4044,433,4:28:28,,VO2ADVENTUREASSESSORIAESPORTIVA
2309,2759,DYMYTHROSOUZA,38,M3539,526,4:28:30,,KaymbrasdoCerrado
2310,1705,CESARGARCIA,35,M3539,527,4:28:30,,GSAC
2311,7303,EVERTONVALEDASILVA,37,M3539,528,4:28:30,,
2312,1687,DIEGOQUEIROZGUIETTI,32,M3034,418,4:28:31,,THEONE
2313,4687,RAFAELALVESDEOLIVEIRA,33,M3034,419,4:28:31,,CE+3
2314,4576,RAFAELDEOLIVEIRAMACEDO,29,M2529,159,4:28:31,,
2315,1255,ALLANRICARDODAMAIARODRIGUES,37,M3539,529,4:28:32,,
2316,725,RAFAELJESINI,38,M3539,530,4:28:34,,Jesini
2317,3062,EDIVALDONASCIMENTODOSSANTOS,65,M6569,18,4:28:38,,EQUIPEZEROKM-FORT-CE.
2318,6243,MICHELPOPULODACOSTASILVA,41,M4044,434,4:28:38,,EQUIPERUNNERSRIO
2319,2702,LUIZANTONIOGOMIDETEIXEIRA,56,M5559,97,4:28:41,,UNIMEDMINAS
2320,4384,PAULOHENRIQUEPEREIRADASILVA,35,M3539,531,4:28:45,,NACIONAL
2321,3047,PABLOAGONZALEZCONTESTABILE,41,M4044,435,4:28:47,,osde
2322,3284,ADRIANOLITTIG,34,M3034,420,4:28:49,,O2FIT
2323,1998,MAURICIOFRAGATA,43,M4044,436,4:28:49,,Insanos
2324,2214,GIOVANNIPACELLICOSTA,36,M3539,532,4:28:52,,ELITEMULTISPORTS
2325,3428,JAVIERARZEALCOCER,42,M4044,437,4:28:54,,NUTS
2326,5151,EDILIOWILERPERES,47,M4549,312,4:28:56,,CORRIDA&PROZA
2327,5950,CARLOSHENRIQUEDELIMA,56,M5559,98,4:29:00,,CHÃODOATERRO
2328,5331,GIOVANNIZEM,40,M4044,438,4:29:02,,CORRIDAEPROSA
2329,1221,WAGNERDASILVAESPINDOLA,32,M3034,421,4:29:05,,SESC
2330,5107,PAULOROBERTOALEXANDREGADELHA,52,M5054,231,4:29:09,,AURIGA/ARION
2331,1061,LEOPOLDODEALMEIDABASQUES,54,M5054,232,4:29:15,,UNIMEDMINAS
2332,3001,MAUROCELSOFERREIRA,44,M4044,439,4:29:17,,VAMOSRODAR
2333,2428,ALEXANDRESCARPELLIGROSSO,45,M4549,313,4:29:20,,VITORIAAUTOMOVEL
2334,2810,EDILSONSANTOS,45,M4549,314,4:29:23,,ESASSESSORIAESPORTIVA
2335,1289,CLESIOJOSETEIXEIRADESOUSA,40,M4044,440,4:29:24,,KaymbrasdoCerrado
2336,4439,LOUISPAULMAURICEGÉNOT,35,M3539,533,4:29:25,,
2337,2686,OSMARJARDIMDEBRITTO,51,M5054,233,4:29:25,,RAFAELMORENOTRIATLO
2338,5911,JANIOALVESDASILVA,55,M5559,99,4:29:26,,CASADOCORREDOR
2339,1974,NELSONPINHEIROMENDES,52,M5054,234,4:29:28,,
2340,3337,GILMARAPARECIDODEPAULA,37,M3539,534,4:29:28,,
2341,3701,GUSTAVOBELTRAN,51,M5054,235,4:29:29,,none
2342,5436,LEANDROCUNHAMELO,44,M4044,441,4:29:30,,TENDENCIAOUTDOORTEAM
2343,3145,ROGERIOGALUPPOFERNANDES,49,M4549,315,4:29:33,,M9ESPORTES
2344,4562,GUILHERMELEITESABOYA,36,M3539,535,4:29:33,,
2345,814,SARTOBRAYNER,48,M4549,316,4:29:35,,PÉDURO
2346,1756,DIEGOFONSECA,25,M2529,160,4:29:36,,Recicladosporcorridaderua.
2347,2996,CARLOSTESTA,30,M3034,422,4:29:39,,
2348,1332,DANIELFERNANDOMAAS,41,M4044,442,4:29:39,,
2349,2601,PEDROGUILHERMEABRAMIDESNIELSEN,50,M5054,236,4:29:41,,
2350,3371,RONYPEREIRADACRUZ,35,M3539,536,4:29:41,,CicleItaipu
2351,6704,ALBERTOGARCIASIMOESBARATA,62,M6064,55,4:29:43,,JUIZDEFORA
2352,4218,JOAODEDEUSARAUJONOBREGA,38,M3539,537,4:29:44,,AURIGA/ARION
2353,5087,RICARDOHENRIQUERASSELE,31,M3034,423,4:29:45,,ASCOBRAPABRAGANÇAPAULISTA
2354,1110,MAUROSKUJIS,49,M4549,317,4:29:46,,RUNEFUN
2355,4011,ESTEBANLEANDROMONZON,35,M3539,538,4:29:46,,MEGATLÓN
2356,2912,PATRICKRAMONSIQUEIRASTANGE,27,M2529,161,4:29:48,,
2357,4362,PABLOCOUTOFERREIRA,40,M4044,443,4:29:50,,CORROPARAANINHA
2358,6257,WLADIMIRDASILVA,57,M5559,100,4:29:55,,EQUIPERUNNERSRIO
2359,5982,GABRIELSARZEDAS,26,M2529,162,4:29:57,,COOLTRAINING
2360,1531,RAPHAELSANCHEZ,40,M4044,444,4:29:58,,
2361,2670,WANDERLEYRODRIGUESDOSSANTOS,66,M6569,19,4:30:02,,
2362,6466,ANDRELUISPIRESGUIMARAES,46,M4549,318,4:30:02,,INTHEGRA
2363,5820,ATTILIONELSONPACCINIJR,42,M4044,445,4:30:07,,AcademiaSanchesSports
2364,3306,ZAQUEUSANTIAGO,42,M4044,446,4:30:10,,DETMil
2365,5779,MARCIOSOUZA,37,M3539,539,4:30:11,,#NOME?
2366,2539,CARLOSEDUARDOOLIVEIRADIAS,47,M4549,319,4:30:13,,Clubrun
2367,1606,PAULOAFONSOSUTTER,32,M3034,424,4:30:15,,CORRERENTREAMIGOS
2368,4898,FABIOORNELAS,40,M4044,447,4:30:16,,
2369,1508,MATHEUSCARVALHOESILVA,39,M3539,540,4:30:21,,fcfc
2370,2644,AICROBARBOSACUNHAJUNIOR,43,M4044,448,4:30:23,,TR3ASSESSORIAESPORTIVA
2371,2364,FABRICIOBERNARDES,38,M3539,541,4:30:25,,MITOKONDRIA
2372,3983,CARLOSDANIELJAPAZE,44,M4044,449,4:30:29,,IRONSPORT
2373,3041,SERGIOOSCARROSSO,53,M5054,237,4:30:31,,TecnoSportRosarioArgentina
2374,1354,ROGERIOFERNANDOALVES,49,M4549,320,4:30:33,,Hidra
2375,870,ENOIRJOSEDOSSANTOS,48,M4549,321,4:30:35,,LAMARTINE
2376,4811,ROBERTOFERNANDESPACHECO,27,M2529,163,4:30:37,,WT
2377,6894,MARCELOAUGUSTORODRIGUESMENDES,41,M4044,450,4:30:38,,
2378,5844,RONDINELLEP.LAURINDO,33,M3034,425,4:30:39,,O2FIT
2379,1603,GUSTAVOCORDEIRONERIDEMESQUITA,33,M3034,426,4:30:39,,CORRERENTREAMIGOS
2380,1651,FRANCISCOGUILHERME,35,M3539,542,4:30:39,,JARDELMOURAACESSORIAESPORTIVA
2381,6896,HIGORDESOUZARODRIGUES,33,M3034,427,4:30:40,,AMIGOSDOWALDIR
2382,2493,VINICIUSMACHADOARIAS,31,M3034,428,4:30:40,,
2383,4258,LUIZCLAUDIOBATISTADOSSANTOS,43,M4044,451,4:30:44,,CACAUPROPAGANDAS
2384,6041,WASHINGTONMOROROLIMA,30,M3034,429,4:30:46,,CORRERENTREAMIGOS
2385,1086,HENRIQUEBONITZ,33,M3034,430,4:30:48,,
2386,5465,ROBERTOMIRANDASOARES,52,M5054,238,4:30:51,,RUBRONEGRODECORAÇÃO
2387,1524,CARLOSLEANDROOLIVEIRA,34,M3034,431,4:30:53,,FilhoTeAmo
2388,5226,RONALDOBARBOSADESIQUEIRA,44,M4044,452,4:30:53,,ARION/AURIGA
2389,4755,PEDROANTONIOCOSTAMOURA,30,M3034,432,4:30:54,,
2390,553,CASTORINOMOACIRTEIXEIRA,67,M6569,20,4:30:54,,PRAIACLUBE
2391,6753,WANTUIRALVESDEASSIS,46,M4549,322,4:30:55,,JUIZDEFORA
2392,3859,WILLIAMBRITO,41,M4044,453,4:30:56,,Cardiocore
2393,1018,DANILOVERGILIO,39,M3539,543,4:30:57,,RissatoAssessoria
2394,6814,CARLOSMAGNOGONCALVESDACRZ,36,M3539,544,4:30:57,,TELEX
2395,2009,DIOGOFABRICIOCAMPOS,33,M3034,433,4:31:00,,PerformanceTreinamentoQualidadeVida
2396,968,LEANDROBARROS,36,M3539,545,4:31:00,,ENERGIA
2397,1160,ADILSONROBERTOGOMESFILHO,38,M3539,546,4:31:03,,S3
2398,562,DONIZETTESANTANA,41,M4044,454,4:31:03,,
2399,775,MARCELOBRAZAO,54,M5054,239,4:31:04,,9EsqdCavMec(ES)
2400,7037,MANUELDELUCCHI,38,M3539,547,4:31:05,,
2401,5228,RENATODEALMEIDASANTOSNEVES,51,M5054,240,4:31:10,,GUERREIRODEHEBRON
2402,4277,JOSEHERMINIORIBEIRO,43,M4044,455,4:31:14,,
2403,7050,JEFFREYROHLEDER,59,M5559,101,4:31:15,,
2404,5440,JORGELUISDEFARIA,53,M5054,241,4:31:23,,
2405,3745,GUSTAVOMELOVARGAS,28,M2529,164,4:31:24,,none
2406,6627,FERNANDOA.O.NASCIMENTO,51,M5054,242,4:31:25,,R5EXPRESSEVENTOSESPORTIVOS
2407,849,ARYFERREIRAMENDESFILHO,58,M5559,102,4:31:25,,MORONESAÚDEEBEMESTAR
2408,4137,MARCELOCABRALDASILVA,45,M4549,323,4:31:27,,
2409,7229,DOMINGOSJORGEGRADADOSACRAMENTO,41,M4044,456,4:31:28,,FLÁVIOCRETARO
2410,686,CARLOSKASUOOHMURO,62,M6064,56,4:31:29,,Ohmuro
2411,3569,LEANDROMASCARENHASVASCONCELLOS,23,M2024,34,4:31:45,,MinhocasCorredoras
2412,6458,VITORPEREIRAJUNIOR,37,M3539,548,4:31:49,,INTHEGRA
2413,5298,SÉRGIOMARCOSVIEIRAFRANÇA,44,M4044,457,4:31:49,,MILHASASSESSORIA
2414,4531,LUCIANOALVESFIGUEIREDO,39,M3539,549,4:31:52,,
2415,2713,MARCELMOREIRA,34,M3034,434,4:31:54,,
2416,6925,ALEXANDREJERONIMO,44,M4044,458,4:31:57,,VO2
2417,7075,JEFFREYINGOLD,24,M2024,35,4:32:00,,
2418,5728,ANTONIOJORGECECERECARDOSO,68,M6569,21,4:32:00,,CHÃODOATERRO
2419,486,PAULOCESARNUNESFERREIRA,46,M4549,324,4:32:02,,UCV
2420,4554,EDUARDORISCADOPOMBO,38,M3539,550,4:32:04,,RodrigoPereiraTeam
2421,2247,MARCIOAUGUSTODASILVA,40,M4044,459,4:32:05,,
2422,1618,FERNANDOJONESMACHADOCORREAJUNIOR,32,M3034,435,4:32:10,,
2423,1795,SANDROPEREIRALOPES,42,M4044,460,4:32:11,,
2424,4256,CRISTIANOALMEIDAGONÇALVES,39,M3539,551,4:32:12,,SOUTRI
2425,3380,MAURICIOGUAZELLI,45,M4549,325,4:32:12,,Valverde
2426,2824,ROGERIORODRIGUES,37,M3539,552,4:32:12,,
2427,6862,EUMARWERNECKDETOLEDO,47,M4549,326,4:32:13,,LOSPANGAS
2428,2703,JOSEMENEZESPINHEIROJUNIOR,39,M3539,553,4:32:14,,SANTIAGOASCENÇO
2429,2154,WILLIAMVICENTINI,27,M2529,165,4:32:15,,
2430,6841,DANIELVIEIRARODRIGUES,40,M4044,461,4:32:17,,
2431,6754,ANTOGNONILOPESCASSARA,33,M3034,436,4:32:18,,JUIZDEFORA
2432,2513,GUILHERMEH.DEA.PEREIRA,36,M3539,554,4:32:20,,
2433,4793,ALVAROAUGUSTODEFARIASILVA,45,M4549,327,4:32:21,,PÉDURO
2434,4564,CARLOSANDREBEZERRAVASQUES,36,M3539,555,4:32:25,,
2435,5669,PEDROAUGUSTODEOLIVEIRA,59,M5559,103,4:32:26,,
2436,6222,MARCIOMENDESROCHA,40,M4044,462,4:32:33,,NOVEDEJULHO
2437,4458,FERNANDOLOPESCASTRO,28,M2529,166,4:32:33,,BICHODEPE
2438,2939,JORGEADALBERTOMARTINSJOSE,49,M4549,328,4:32:39,,
2439,5748,GERALDOGOLIVEIRA,64,M6064,57,4:32:39,,
2440,2059,ADRIANOPERINA,34,M3034,437,4:32:40,,BIOECOESPORTES
2441,7330,EDUARDONUNESSANTANA,34,M3034,438,4:32:41,,BARRAEMPREEND.ESPORTIVOSLTDA
2442,5674,ANDREMATOSROMANO,48,M4549,329,4:32:42,,DGAINFORMATICA
2443,5257,WALDECARLOSMAGALHAESVÉRAS,42,M4044,463,4:32:42,,CONTABILISTAS
2444,3373,REGINALDOSILVA,41,M4044,464,4:32:42,,pegasuspribeiraoPreto
2445,4814,MILTONPEREIRA,42,M4044,465,4:32:43,,PENAESTRADA
2446,5798,ALEXANDREFORMIGA,37,M3539,556,4:32:47,,4ANY1ASSESSORIAESPORTIVA
2447,2725,JOSESOUZA,60,M6064,58,4:32:47,,
2448,5360,PAULOGONÇALVESDEMELOCOUTOJUNIOR,62,M6064,59,4:32:50,,MITOKONDRIACLUBEDECORRIDA
2449,4977,FLÁVIOEDUARDOVICARIEVANGELISTA,39,M3539,557,4:32:50,,TheUntouchables
2450,3629,JEANSEBASTIENBRETT,28,M2529,167,4:32:53,,none
2451,3312,ALECIOPAGANOTOSALAZAR,45,M4549,330,4:32:53,,LESMAS
2452,1317,ANTONIOMARCOSDEOLIVEIRAPEREIRA,63,M6064,60,4:32:59,,ACRIITAJUBÁ
2453,4530,LEANDROSANT'ANNADACOSTA,36,M3539,558,4:33:02,,FOX
2454,622,IVANFELIPETORRESDASILVA,41,M4044,466,4:33:02,,SaúdeeBemEstarMarcelloMorone
2455,4485,GEOVANELUIZDECARVALHO,39,M3539,559,4:33:04,,
2456,4967,ENRIQUEALBERTOMOREIRALUSSICH,41,M4044,467,4:33:05,,EXITO´SACADEMIA
2457,5385,VALDENIRFRANCISCOFERNANDES,47,M4549,331,4:33:06,,GRUPOGONZAGA
2458,5589,LEONARDODAVIDJARBAS,45,M4549,332,4:33:08,,
2459,922,JOSEADAUTORESENDE,48,M4549,333,4:33:08,,
2460,6709,GILMARVIANELLA,52,M5054,243,4:33:09,,JUIZDEFORA
2461,4276,WILSONALBIERIVIEIRA,35,M3539,560,4:33:10,,
2462,1709,KONRADZEPF,27,M2529,168,4:33:12,,
2463,4107,ANDRÉPHELLIPDEPAULAFERREIRA,42,M4044,468,4:33:18,,
2464,5585,CARLOSROBERTORODRIGUES,52,M5054,244,4:33:21,,
2465,737,ADENAILTONLIMASANTOS,50,M5054,245,4:33:21,,
2466,7299,JAIRLEOPOLDODASILVAJÚNIOR,37,M3539,561,4:33:23,,
2467,3628,JOSUEDEOLIVEIRA,46,M4549,334,4:33:26,,OliveiraFamily
2468,6339,LUIZALBERTOCAMPOSFILHO,46,M4549,335,4:33:28,,FILHOSDOVENTO
2469,2007,LUISHENRIQUEARRUDAMARQUES,34,M3034,439,4:33:30,,CORPO&VIDA
2470,3710,MARCALSAURIGOMEZ,34,M3034,440,4:33:31,,*
2471,810,JOAOLUCIONETO,45,M4549,336,4:33:31,,avulso
2472,7178,GAVINRODNEYOPPERMAN,50,M5054,246,4:33:37,,
2473,2734,CARLOSROBERTOBARBOSA,45,M4549,337,4:33:39,,NUTS
2474,3267,ANTONIOSALLESDESA,56,M5559,104,4:33:39,,MultiesportivaVale
2475,1076,MARCELONIGRODEPRA,38,M3539,562,4:33:43,,BRANCAESPORTES
2476,483,ROBERTODOVALLE,32,M3034,441,4:33:44,,CITIUSASSESSORIAESPORTIVA
2477,2352,SEBASTIAOMARCELINODASILVANETO,45,M4549,338,4:33:45,,
2478,471,ALISSONLIMERES,51,M5054,247,4:33:49,,Ergonomize
2479,2143,ALANSANT'ANNA,38,M3539,563,4:33:50,,RIOSAÚDE
2480,3576,GIANFRANCOCINELLI,41,M4044,469,4:33:50,,Saude&Performance
2481,3764,ADOLFOEUDOROVAZQUEZZAMARBIDE,55,M5559,105,4:33:54,,none
2482,928,LUCIANOLAUKSAS,49,M4549,339,4:33:55,,LAUKSAS
2483,3883,GABRIELPERI,55,M5559,106,4:33:55,,none
2484,2511,FABIANOFREITASDEOLIVEIRAFARIA,27,M2529,169,4:33:56,,CLUBEESPORTEFITNESS
2485,3992,LUISANTONIOJOSEYAGUE,41,M4044,470,4:33:56,,aironsport
2486,7040,ANGELOCAPELLARI,42,M4044,471,4:34:03,,EPJCORRIDAPIRACICABA
2487,7326,OSVALDOBARBOSANETO,39,M3539,564,4:34:06,,STUDIOROGERIOBRAGA
2488,2724,MARCOSOLIVEIRA,43,M4044,472,4:34:12,,OKIBrasil
2489,3646,ANTONHRICAN,38,M3539,565,4:34:12,,none
2490,536,BRUNOALLEVATO,29,M2529,170,4:34:17,,
2491,1949,ACASSIOANTONELLI,37,M3539,566,4:34:21,,
2492,5808,REINALDORDEOLIVEIRAFILHO,44,M4044,473,4:34:23,,CUIABÁRUNNING
2493,6786,GUILHERMESALOMAOPASSOS,28,M2529,171,4:34:26,,SPEED
2494,2269,CARLEUDORAMOSDEFARIAS,47,M4549,340,4:34:27,,FARIAS
2495,5094,RICARDORAMALHO,47,M4549,341,4:34:28,,SINERGIATOTAL
2496,3350,JULIOPAUL,58,M5559,107,4:34:31,,MULTIESPORTIVA
2497,4998,SÉRGIOMASAOHOSSOYA,38,M3539,567,4:34:36,,TáComTempo?
2498,571,DIRSLEYD'ANGELODASILVA,45,M4549,342,4:34:37,,AMAZONRUNNERS
2499,4979,REINALDOPEREIRASANTOS,37,M3539,568,4:34:37,,SÓAMIGOSRUNNERS
2500,6667,SERGIOROBERTOGONCALVESBANDEIRA,45,M4549,343,4:34:40,,RunnersClub